<?xml version="1.0" encoding="UTF-8" standalone="no" ?>
<gpx xmlns="http://www.topografix.com/GPX/1/1" xmlns:xsi="http://www.w3.org/2001/XMLSchema-instance" xsi:schemaLocation="http://www.topografix.com/GPX/1/1 http://www.topografix.com/GPX/1/1/gpx.xsd" version="1.1" creator="VisuGPX - https://www.visugpx.com">
  <metadata>
    <name>Autour des gorges du Régalon</name>
    <desc><![CDATA[Vallon de la peine - le trou du rat - Vallon de Roque Rousse - Retour par le vallon de la Galère et les gorges du Régalon ]]></desc>
  </metadata>
  <trk>
    <name><![CDATA[REGALON 16]]></name>
    <trkseg>
      <trkpt lat="43.76021" lon="5.1574">
        <ele>125</ele>
        <time>2016-03-03T09:23:21Z</time>
      </trkpt>
      <trkpt lat="43.76105" lon="5.15707">
        <ele>127</ele>
      </trkpt>
      <trkpt lat="43.76138" lon="5.15721">
        <ele>129</ele>
      </trkpt>
      <trkpt lat="43.76196" lon="5.15727">
        <ele>132</ele>
      </trkpt>
      <trkpt lat="43.76257" lon="5.15717">
        <ele>136</ele>
      </trkpt>
      <trkpt lat="43.76272" lon="5.15656">
        <ele>135</ele>
      </trkpt>
      <trkpt lat="43.76281" lon="5.15597">
        <ele>134</ele>
      </trkpt>
      <trkpt lat="43.76355" lon="5.15583">
        <ele>137</ele>
        <time>2016-03-03T09:23:22Z</time>
      </trkpt>
      <trkpt lat="43.76386" lon="5.1559">
        <ele>140</ele>
      </trkpt>
      <trkpt lat="43.76415" lon="5.15607">
        <ele>142</ele>
      </trkpt>
      <trkpt lat="43.76427" lon="5.15657">
        <ele>144</ele>
      </trkpt>
      <trkpt lat="43.76433" lon="5.15701">
        <ele>148</ele>
        <time>2016-03-03T09:23:47Z</time>
      </trkpt>
      <trkpt lat="43.76497" lon="5.15737">
        <ele>161</ele>
        <time>2016-03-03T09:24:03Z</time>
      </trkpt>
      <trkpt lat="43.76499" lon="5.15736">
        <ele>161</ele>
        <time>2016-03-03T09:24:05Z</time>
      </trkpt>
      <trkpt lat="43.76515" lon="5.15732">
        <ele>163</ele>
        <time>2016-03-03T09:24:20Z</time>
      </trkpt>
      <trkpt lat="43.76528" lon="5.15727">
        <ele>163</ele>
        <time>2016-03-03T09:24:36Z</time>
      </trkpt>
      <trkpt lat="43.76544" lon="5.15712">
        <ele>163</ele>
        <time>2016-03-03T09:24:53Z</time>
      </trkpt>
      <trkpt lat="43.76564" lon="5.15697">
        <ele>163</ele>
        <time>2016-03-03T09:25:15Z</time>
      </trkpt>
      <trkpt lat="43.76574" lon="5.15694">
        <ele>165</ele>
        <time>2016-03-03T09:25:34Z</time>
      </trkpt>
      <trkpt lat="43.76589" lon="5.15695">
        <ele>165</ele>
        <time>2016-03-03T09:25:52Z</time>
      </trkpt>
      <trkpt lat="43.76597" lon="5.15707">
        <ele>165</ele>
        <time>2016-03-03T09:26:10Z</time>
      </trkpt>
      <trkpt lat="43.76598" lon="5.15706">
        <ele>165</ele>
        <time>2016-03-03T09:26:11Z</time>
      </trkpt>
      <trkpt lat="43.76606" lon="5.15706">
        <ele>165</ele>
        <time>2016-03-03T09:26:27Z</time>
      </trkpt>
      <trkpt lat="43.76626" lon="5.15721">
        <ele>165</ele>
        <time>2016-03-03T09:26:55Z</time>
      </trkpt>
      <trkpt lat="43.76627" lon="5.15727">
        <ele>165</ele>
        <time>2016-03-03T09:27:15Z</time>
      </trkpt>
      <trkpt lat="43.76626" lon="5.15736">
        <ele>165</ele>
        <time>2016-03-03T09:27:38Z</time>
      </trkpt>
      <trkpt lat="43.76628" lon="5.15776">
        <ele>166</ele>
        <time>2016-03-03T09:27:54Z</time>
      </trkpt>
      <trkpt lat="43.76628" lon="5.15784">
        <ele>167</ele>
        <time>2016-03-03T09:28:13Z</time>
      </trkpt>
      <trkpt lat="43.76628" lon="5.15787">
        <ele>169</ele>
        <time>2016-03-03T09:28:27Z</time>
      </trkpt>
      <trkpt lat="43.76629" lon="5.15793">
        <ele>171</ele>
        <time>2016-03-03T09:28:47Z</time>
      </trkpt>
      <trkpt lat="43.76632" lon="5.15785">
        <ele>171</ele>
        <time>2016-03-03T09:29:06Z</time>
      </trkpt>
      <trkpt lat="43.76634" lon="5.15779">
        <ele>171</ele>
        <time>2016-03-03T09:29:23Z</time>
      </trkpt>
      <trkpt lat="43.76636" lon="5.15777">
        <ele>171</ele>
        <time>2016-03-03T09:29:39Z</time>
      </trkpt>
      <trkpt lat="43.76644" lon="5.15779">
        <ele>171</ele>
        <time>2016-03-03T09:29:59Z</time>
      </trkpt>
      <trkpt lat="43.76637" lon="5.15785">
        <ele>170</ele>
        <time>2016-03-03T09:30:19Z</time>
      </trkpt>
      <trkpt lat="43.76643" lon="5.15796">
        <ele>171</ele>
        <time>2016-03-03T09:30:54Z</time>
      </trkpt>
      <trkpt lat="43.76655" lon="5.15785">
        <ele>171</ele>
        <time>2016-03-03T09:31:09Z</time>
      </trkpt>
      <trkpt lat="43.76677" lon="5.15766">
        <ele>172</ele>
        <time>2016-03-03T09:31:27Z</time>
      </trkpt>
      <trkpt lat="43.76688" lon="5.15756">
        <ele>172</ele>
        <time>2016-03-03T09:31:38Z</time>
      </trkpt>
      <trkpt lat="43.76698" lon="5.15753">
        <ele>172</ele>
        <time>2016-03-03T09:31:53Z</time>
      </trkpt>
      <trkpt lat="43.76705" lon="5.15741">
        <ele>172</ele>
        <time>2016-03-03T09:32:15Z</time>
      </trkpt>
      <trkpt lat="43.76722" lon="5.15847">
        <ele>177</ele>
        <time>2016-03-03T09:34:07Z</time>
      </trkpt>
      <trkpt lat="43.76721" lon="5.15843">
        <ele>176</ele>
        <time>2016-03-03T09:34:13Z</time>
      </trkpt>
      <trkpt lat="43.76715" lon="5.15845">
        <ele>175</ele>
        <time>2016-03-03T09:34:14Z</time>
      </trkpt>
      <trkpt lat="43.76719" lon="5.15851">
        <ele>176</ele>
        <time>2016-03-03T09:34:27Z</time>
      </trkpt>
      <trkpt lat="43.76714" lon="5.15853">
        <ele>176</ele>
        <time>2016-03-03T09:34:47Z</time>
      </trkpt>
      <trkpt lat="43.76713" lon="5.15847">
        <ele>177</ele>
        <time>2016-03-03T09:35:09Z</time>
      </trkpt>
      <trkpt lat="43.76711" lon="5.1584">
        <ele>176</ele>
        <time>2016-03-03T09:35:31Z</time>
      </trkpt>
      <trkpt lat="43.76708" lon="5.15839">
        <ele>176</ele>
        <time>2016-03-03T09:35:40Z</time>
      </trkpt>
      <trkpt lat="43.76686" lon="5.1586">
        <ele>176</ele>
        <time>2016-03-03T09:35:55Z</time>
      </trkpt>
      <trkpt lat="43.76679" lon="5.15872">
        <ele>176</ele>
        <time>2016-03-03T09:36:12Z</time>
      </trkpt>
      <trkpt lat="43.76688" lon="5.15867">
        <ele>176</ele>
        <time>2016-03-03T09:36:35Z</time>
      </trkpt>
      <trkpt lat="43.76719" lon="5.1585">
        <ele>176</ele>
        <time>2016-03-03T09:36:51Z</time>
      </trkpt>
      <trkpt lat="43.76744" lon="5.15837">
        <ele>178</ele>
        <time>2016-03-03T09:37:09Z</time>
      </trkpt>
      <trkpt lat="43.76753" lon="5.15842">
        <ele>178</ele>
        <time>2016-03-03T09:37:25Z</time>
      </trkpt>
      <trkpt lat="43.76761" lon="5.15845">
        <ele>179</ele>
        <time>2016-03-03T09:37:43Z</time>
      </trkpt>
      <trkpt lat="43.76772" lon="5.15848">
        <ele>181</ele>
        <time>2016-03-03T09:38:00Z</time>
      </trkpt>
      <trkpt lat="43.76784" lon="5.15847">
        <ele>181</ele>
        <time>2016-03-03T09:38:20Z</time>
      </trkpt>
      <trkpt lat="43.76788" lon="5.15848">
        <ele>181</ele>
        <time>2016-03-03T09:38:32Z</time>
      </trkpt>
      <trkpt lat="43.76788" lon="5.15846">
        <ele>181</ele>
        <time>2016-03-03T09:38:34Z</time>
      </trkpt>
      <trkpt lat="43.76836" lon="5.15867">
        <ele>210</ele>
      </trkpt>
      <trkpt lat="43.76867" lon="5.15862">
        <ele>214</ele>
      </trkpt>
      <trkpt lat="43.76901" lon="5.15879">
        <ele>221</ele>
      </trkpt>
      <trkpt lat="43.76932" lon="5.15875">
        <ele>212</ele>
      </trkpt>
      <trkpt lat="43.7696" lon="5.15858">
        <ele>202</ele>
        <time>2016-03-03T09:54:17Z</time>
      </trkpt>
      <trkpt lat="43.76978" lon="5.15917">
        <ele>203</ele>
        <time>2016-03-03T09:54:37Z</time>
      </trkpt>
      <trkpt lat="43.76984" lon="5.15904">
        <ele>203</ele>
        <time>2016-03-03T09:55:00Z</time>
      </trkpt>
      <trkpt lat="43.76976" lon="5.15887">
        <ele>201</ele>
        <time>2016-03-03T09:55:16Z</time>
      </trkpt>
      <trkpt lat="43.76975" lon="5.15877">
        <ele>202</ele>
        <time>2016-03-03T09:55:44Z</time>
      </trkpt>
      <trkpt lat="43.76984" lon="5.15876">
        <ele>202</ele>
        <time>2016-03-03T09:56:09Z</time>
      </trkpt>
      <trkpt lat="43.76998" lon="5.15872">
        <ele>202</ele>
        <time>2016-03-03T09:56:27Z</time>
      </trkpt>
      <trkpt lat="43.77004" lon="5.15868">
        <ele>202</ele>
        <time>2016-03-03T09:56:47Z</time>
      </trkpt>
      <trkpt lat="43.77009" lon="5.15867">
        <ele>202</ele>
        <time>2016-03-03T09:56:54Z</time>
      </trkpt>
      <trkpt lat="43.7703" lon="5.15872">
        <ele>204</ele>
        <time>2016-03-03T09:57:12Z</time>
      </trkpt>
      <trkpt lat="43.77026" lon="5.15873">
        <ele>206</ele>
        <time>2016-03-03T09:57:26Z</time>
      </trkpt>
      <trkpt lat="43.7703" lon="5.15876">
        <ele>207</ele>
        <time>2016-03-03T09:57:35Z</time>
      </trkpt>
      <trkpt lat="43.77038" lon="5.15872">
        <ele>207</ele>
        <time>2016-03-03T09:57:54Z</time>
      </trkpt>
      <trkpt lat="43.77036" lon="5.15886">
        <ele>208</ele>
        <time>2016-03-03T09:58:19Z</time>
      </trkpt>
      <trkpt lat="43.77069" lon="5.15846">
        <ele>209</ele>
        <time>2016-03-03T09:59:52Z</time>
      </trkpt>
      <trkpt lat="43.7707" lon="5.15844">
        <ele>208</ele>
        <time>2016-03-03T09:59:53Z</time>
      </trkpt>
      <trkpt lat="43.77022" lon="5.15914">
        <ele>209</ele>
        <time>2016-03-03T10:00:41Z</time>
      </trkpt>
      <trkpt lat="43.77094" lon="5.15883">
        <ele>242</ele>
      </trkpt>
      <trkpt lat="43.77127" lon="5.15891">
        <ele>242</ele>
      </trkpt>
      <trkpt lat="43.77164" lon="5.15877">
        <ele>237</ele>
      </trkpt>
      <trkpt lat="43.772" lon="5.15857">
        <ele>236</ele>
      </trkpt>
      <trkpt lat="43.7723" lon="5.15821">
        <ele>239</ele>
      </trkpt>
      <trkpt lat="43.77309" lon="5.15689">
        <ele>219</ele>
        <time>2016-03-03T10:19:37Z</time>
      </trkpt>
      <trkpt lat="43.77305" lon="5.15694">
        <ele>219</ele>
        <time>2016-03-03T10:19:39Z</time>
      </trkpt>
      <trkpt lat="43.77278" lon="5.15748">
        <ele>220</ele>
        <time>2016-03-03T10:19:56Z</time>
      </trkpt>
      <trkpt lat="43.77273" lon="5.15777">
        <ele>221</ele>
        <time>2016-03-03T10:20:12Z</time>
      </trkpt>
      <trkpt lat="43.77278" lon="5.15784">
        <ele>221</ele>
        <time>2016-03-03T10:20:29Z</time>
      </trkpt>
      <trkpt lat="43.77284" lon="5.15787">
        <ele>222</ele>
        <time>2016-03-03T10:20:36Z</time>
      </trkpt>
      <trkpt lat="43.77303" lon="5.15787">
        <ele>222</ele>
        <time>2016-03-03T10:20:52Z</time>
      </trkpt>
      <trkpt lat="43.7731" lon="5.15782">
        <ele>223</ele>
        <time>2016-03-03T10:20:58Z</time>
      </trkpt>
      <trkpt lat="43.77316" lon="5.15775">
        <ele>223</ele>
        <time>2016-03-03T10:21:04Z</time>
      </trkpt>
      <trkpt lat="43.77339" lon="5.15769">
        <ele>223</ele>
        <time>2016-03-03T10:21:22Z</time>
      </trkpt>
      <trkpt lat="43.77349" lon="5.15776">
        <ele>224</ele>
        <time>2016-03-03T10:21:37Z</time>
      </trkpt>
      <trkpt lat="43.77352" lon="5.15795">
        <ele>225</ele>
        <time>2016-03-03T10:21:55Z</time>
      </trkpt>
      <trkpt lat="43.77357" lon="5.15799">
        <ele>225</ele>
        <time>2016-03-03T10:22:12Z</time>
      </trkpt>
      <trkpt lat="43.7737" lon="5.15799">
        <ele>226</ele>
        <time>2016-03-03T10:22:29Z</time>
      </trkpt>
      <trkpt lat="43.77376" lon="5.15807">
        <ele>226</ele>
        <time>2016-03-03T10:22:43Z</time>
      </trkpt>
      <trkpt lat="43.77382" lon="5.15813">
        <ele>226</ele>
        <time>2016-03-03T10:22:50Z</time>
      </trkpt>
      <trkpt lat="43.77398" lon="5.15812">
        <ele>226</ele>
        <time>2016-03-03T10:23:06Z</time>
      </trkpt>
      <trkpt lat="43.77414" lon="5.15808">
        <ele>227</ele>
        <time>2016-03-03T10:23:23Z</time>
      </trkpt>
      <trkpt lat="43.77417" lon="5.15808">
        <ele>227</ele>
        <time>2016-03-03T10:23:25Z</time>
      </trkpt>
      <trkpt lat="43.77431" lon="5.15808">
        <ele>226</ele>
        <time>2016-03-03T10:23:43Z</time>
      </trkpt>
      <trkpt lat="43.77443" lon="5.15808">
        <ele>227</ele>
        <time>2016-03-03T10:23:56Z</time>
      </trkpt>
      <trkpt lat="43.77457" lon="5.15809">
        <ele>227</ele>
        <time>2016-03-03T10:24:16Z</time>
      </trkpt>
      <trkpt lat="43.77457" lon="5.15807">
        <ele>227</ele>
        <time>2016-03-03T10:24:40Z</time>
      </trkpt>
      <trkpt lat="43.77457" lon="5.15806">
        <ele>227</ele>
        <time>2016-03-03T10:25:03Z</time>
      </trkpt>
      <trkpt lat="43.7746" lon="5.15801">
        <ele>227</ele>
        <time>2016-03-03T10:25:28Z</time>
      </trkpt>
      <trkpt lat="43.77462" lon="5.158">
        <ele>227</ele>
        <time>2016-03-03T10:25:50Z</time>
      </trkpt>
      <trkpt lat="43.77461" lon="5.15799">
        <ele>227</ele>
        <time>2016-03-03T10:26:22Z</time>
      </trkpt>
      <trkpt lat="43.77459" lon="5.15803">
        <ele>226</ele>
        <time>2016-03-03T10:26:46Z</time>
      </trkpt>
      <trkpt lat="43.77459" lon="5.15805">
        <ele>226</ele>
        <time>2016-03-03T10:27:03Z</time>
      </trkpt>
      <trkpt lat="43.7746" lon="5.15805">
        <ele>226</ele>
        <time>2016-03-03T10:27:22Z</time>
      </trkpt>
      <trkpt lat="43.77462" lon="5.15803">
        <ele>227</ele>
        <time>2016-03-03T10:27:46Z</time>
      </trkpt>
      <trkpt lat="43.77462" lon="5.15802">
        <ele>227</ele>
        <time>2016-03-03T10:28:10Z</time>
      </trkpt>
      <trkpt lat="43.77461" lon="5.15804">
        <ele>226</ele>
        <time>2016-03-03T10:28:32Z</time>
      </trkpt>
      <trkpt lat="43.77462" lon="5.15804">
        <ele>226</ele>
        <time>2016-03-03T10:29:03Z</time>
      </trkpt>
      <trkpt lat="43.77462" lon="5.15804">
        <ele>227</ele>
        <time>2016-03-03T10:29:24Z</time>
      </trkpt>
      <trkpt lat="43.77463" lon="5.15805">
        <ele>226</ele>
        <time>2016-03-03T10:29:48Z</time>
      </trkpt>
      <trkpt lat="43.77463" lon="5.15805">
        <ele>226</ele>
        <time>2016-03-03T10:30:07Z</time>
      </trkpt>
      <trkpt lat="43.77463" lon="5.15806">
        <ele>227</ele>
        <time>2016-03-03T10:30:24Z</time>
      </trkpt>
      <trkpt lat="43.77462" lon="5.15805">
        <ele>227</ele>
        <time>2016-03-03T10:30:47Z</time>
      </trkpt>
      <trkpt lat="43.77465" lon="5.15803">
        <ele>227</ele>
        <time>2016-03-03T10:31:08Z</time>
      </trkpt>
      <trkpt lat="43.77464" lon="5.15802">
        <ele>227</ele>
        <time>2016-03-03T10:31:32Z</time>
      </trkpt>
      <trkpt lat="43.77463" lon="5.15803">
        <ele>227</ele>
        <time>2016-03-03T10:31:55Z</time>
      </trkpt>
      <trkpt lat="43.77463" lon="5.15802">
        <ele>227</ele>
        <time>2016-03-03T10:32:17Z</time>
      </trkpt>
      <trkpt lat="43.77464" lon="5.15802">
        <ele>227</ele>
        <time>2016-03-03T10:32:42Z</time>
      </trkpt>
      <trkpt lat="43.77466" lon="5.15804">
        <ele>227</ele>
        <time>2016-03-03T10:33:04Z</time>
      </trkpt>
      <trkpt lat="43.77466" lon="5.15804">
        <ele>227</ele>
        <time>2016-03-03T10:33:37Z</time>
      </trkpt>
      <trkpt lat="43.77468" lon="5.15804">
        <ele>226</ele>
        <time>2016-03-03T10:34:13Z</time>
      </trkpt>
      <trkpt lat="43.77468" lon="5.15804">
        <ele>227</ele>
        <time>2016-03-03T10:34:35Z</time>
      </trkpt>
      <trkpt lat="43.77472" lon="5.158">
        <ele>228</ele>
        <time>2016-03-03T10:34:50Z</time>
      </trkpt>
      <trkpt lat="43.77487" lon="5.15801">
        <ele>229</ele>
        <time>2016-03-03T10:35:08Z</time>
      </trkpt>
      <trkpt lat="43.77492" lon="5.15793">
        <ele>230</ele>
        <time>2016-03-03T10:35:24Z</time>
      </trkpt>
      <trkpt lat="43.775" lon="5.15782">
        <ele>230</ele>
        <time>2016-03-03T10:35:38Z</time>
      </trkpt>
      <trkpt lat="43.7751" lon="5.15772">
        <ele>231</ele>
        <time>2016-03-03T10:35:53Z</time>
      </trkpt>
      <trkpt lat="43.77518" lon="5.1576">
        <ele>231</ele>
        <time>2016-03-03T10:36:08Z</time>
      </trkpt>
      <trkpt lat="43.77525" lon="5.15756">
        <ele>232</ele>
        <time>2016-03-03T10:36:24Z</time>
      </trkpt>
      <trkpt lat="43.77534" lon="5.15755">
        <ele>233</ele>
        <time>2016-03-03T10:36:40Z</time>
      </trkpt>
      <trkpt lat="43.77549" lon="5.15754">
        <ele>234</ele>
        <time>2016-03-03T10:36:59Z</time>
      </trkpt>
      <trkpt lat="43.77557" lon="5.15763">
        <ele>237</ele>
        <time>2016-03-03T10:37:17Z</time>
      </trkpt>
      <trkpt lat="43.77568" lon="5.15773">
        <ele>236</ele>
        <time>2016-03-03T10:37:33Z</time>
      </trkpt>
      <trkpt lat="43.77577" lon="5.15779">
        <ele>237</ele>
        <time>2016-03-03T10:37:41Z</time>
      </trkpt>
      <trkpt lat="43.77586" lon="5.15785">
        <ele>238</ele>
        <time>2016-03-03T10:37:50Z</time>
      </trkpt>
      <trkpt lat="43.776" lon="5.15793">
        <ele>239</ele>
        <time>2016-03-03T10:38:09Z</time>
      </trkpt>
      <trkpt lat="43.7761" lon="5.158">
        <ele>239</ele>
        <time>2016-03-03T10:38:27Z</time>
      </trkpt>
      <trkpt lat="43.7762" lon="5.158">
        <ele>239</ele>
        <time>2016-03-03T10:38:49Z</time>
      </trkpt>
      <trkpt lat="43.7764" lon="5.15797">
        <ele>240</ele>
        <time>2016-03-03T10:39:08Z</time>
      </trkpt>
      <trkpt lat="43.77654" lon="5.1581">
        <ele>241</ele>
        <time>2016-03-03T10:39:27Z</time>
      </trkpt>
      <trkpt lat="43.77666" lon="5.15821">
        <ele>241</ele>
        <time>2016-03-03T10:39:45Z</time>
      </trkpt>
      <trkpt lat="43.77689" lon="5.15827">
        <ele>242</ele>
        <time>2016-03-03T10:40:02Z</time>
      </trkpt>
      <trkpt lat="43.777" lon="5.15838">
        <ele>242</ele>
        <time>2016-03-03T10:40:18Z</time>
      </trkpt>
      <trkpt lat="43.77715" lon="5.15842">
        <ele>243</ele>
        <time>2016-03-03T10:40:35Z</time>
      </trkpt>
      <trkpt lat="43.77728" lon="5.15832">
        <ele>244</ele>
        <time>2016-03-03T10:40:50Z</time>
      </trkpt>
      <trkpt lat="43.77738" lon="5.15824">
        <ele>245</ele>
        <time>2016-03-03T10:41:05Z</time>
      </trkpt>
      <trkpt lat="43.77749" lon="5.15812">
        <ele>244</ele>
        <time>2016-03-03T10:41:20Z</time>
      </trkpt>
      <trkpt lat="43.7776" lon="5.15807">
        <ele>245</ele>
        <time>2016-03-03T10:41:35Z</time>
      </trkpt>
      <trkpt lat="43.77773" lon="5.15801">
        <ele>248</ele>
        <time>2016-03-03T10:41:53Z</time>
      </trkpt>
      <trkpt lat="43.7778" lon="5.15796">
        <ele>248</ele>
        <time>2016-03-03T10:42:03Z</time>
      </trkpt>
      <trkpt lat="43.77794" lon="5.15786">
        <ele>248</ele>
        <time>2016-03-03T10:42:23Z</time>
      </trkpt>
      <trkpt lat="43.77799" lon="5.15785">
        <ele>249</ele>
        <time>2016-03-03T10:42:33Z</time>
      </trkpt>
      <trkpt lat="43.77805" lon="5.15788">
        <ele>249</ele>
        <time>2016-03-03T10:42:38Z</time>
      </trkpt>
      <trkpt lat="43.77809" lon="5.15787">
        <ele>249</ele>
        <time>2016-03-03T10:42:41Z</time>
      </trkpt>
      <trkpt lat="43.7782" lon="5.15774">
        <ele>250</ele>
        <time>2016-03-03T10:42:57Z</time>
      </trkpt>
      <trkpt lat="43.77832" lon="5.15772">
        <ele>250</ele>
        <time>2016-03-03T10:43:13Z</time>
      </trkpt>
      <trkpt lat="43.77845" lon="5.15767">
        <ele>251</ele>
        <time>2016-03-03T10:43:30Z</time>
      </trkpt>
      <trkpt lat="43.77857" lon="5.15764">
        <ele>251</ele>
        <time>2016-03-03T10:43:46Z</time>
      </trkpt>
      <trkpt lat="43.7786" lon="5.15763">
        <ele>252</ele>
        <time>2016-03-03T10:43:50Z</time>
      </trkpt>
      <trkpt lat="43.77868" lon="5.15763">
        <ele>252</ele>
        <time>2016-03-03T10:43:55Z</time>
      </trkpt>
      <trkpt lat="43.77886" lon="5.15759">
        <ele>252</ele>
        <time>2016-03-03T10:44:12Z</time>
      </trkpt>
      <trkpt lat="43.77887" lon="5.1576">
        <ele>252</ele>
        <time>2016-03-03T10:44:13Z</time>
      </trkpt>
      <trkpt lat="43.779" lon="5.15769">
        <ele>253</ele>
        <time>2016-03-03T10:44:30Z</time>
      </trkpt>
      <trkpt lat="43.77913" lon="5.15772">
        <ele>253</ele>
        <time>2016-03-03T10:44:45Z</time>
      </trkpt>
      <trkpt lat="43.77921" lon="5.15775">
        <ele>254</ele>
        <time>2016-03-03T10:44:52Z</time>
      </trkpt>
      <trkpt lat="43.77937" lon="5.15781">
        <ele>254</ele>
        <time>2016-03-03T10:45:08Z</time>
      </trkpt>
      <trkpt lat="43.77944" lon="5.15784">
        <ele>255</ele>
        <time>2016-03-03T10:45:16Z</time>
      </trkpt>
      <trkpt lat="43.77956" lon="5.15792">
        <ele>256</ele>
        <time>2016-03-03T10:45:31Z</time>
      </trkpt>
      <trkpt lat="43.77958" lon="5.15793">
        <ele>256</ele>
        <time>2016-03-03T10:45:33Z</time>
      </trkpt>
      <trkpt lat="43.77964" lon="5.15795">
        <ele>256</ele>
        <time>2016-03-03T10:45:38Z</time>
      </trkpt>
      <trkpt lat="43.77967" lon="5.15795">
        <ele>256</ele>
        <time>2016-03-03T10:45:41Z</time>
      </trkpt>
      <trkpt lat="43.77982" lon="5.15799">
        <ele>257</ele>
        <time>2016-03-03T10:45:56Z</time>
      </trkpt>
      <trkpt lat="43.77994" lon="5.15804">
        <ele>258</ele>
        <time>2016-03-03T10:46:08Z</time>
      </trkpt>
      <trkpt lat="43.78" lon="5.15811">
        <ele>259</ele>
        <time>2016-03-03T10:46:17Z</time>
      </trkpt>
      <trkpt lat="43.78009" lon="5.15814">
        <ele>257</ele>
        <time>2016-03-03T10:46:30Z</time>
      </trkpt>
      <trkpt lat="43.78007" lon="5.15812">
        <ele>258</ele>
        <time>2016-03-03T10:46:57Z</time>
      </trkpt>
      <trkpt lat="43.78006" lon="5.15811">
        <ele>257</ele>
        <time>2016-03-03T10:47:23Z</time>
      </trkpt>
      <trkpt lat="43.78006" lon="5.1581">
        <ele>259</ele>
        <time>2016-03-03T10:47:26Z</time>
      </trkpt>
      <trkpt lat="43.78007" lon="5.1581">
        <ele>258</ele>
        <time>2016-03-03T10:47:41Z</time>
      </trkpt>
      <trkpt lat="43.78008" lon="5.1581">
        <ele>258</ele>
        <time>2016-03-03T10:47:57Z</time>
      </trkpt>
      <trkpt lat="43.78008" lon="5.15811">
        <ele>258</ele>
        <time>2016-03-03T10:48:17Z</time>
      </trkpt>
      <trkpt lat="43.78007" lon="5.15812">
        <ele>258</ele>
        <time>2016-03-03T10:48:36Z</time>
      </trkpt>
      <trkpt lat="43.78007" lon="5.15812">
        <ele>257</ele>
        <time>2016-03-03T10:49:01Z</time>
      </trkpt>
      <trkpt lat="43.78006" lon="5.15812">
        <ele>257</ele>
        <time>2016-03-03T10:49:27Z</time>
      </trkpt>
      <trkpt lat="43.78007" lon="5.15812">
        <ele>257</ele>
        <time>2016-03-03T10:49:47Z</time>
      </trkpt>
      <trkpt lat="43.78008" lon="5.15811">
        <ele>257</ele>
        <time>2016-03-03T10:50:10Z</time>
      </trkpt>
      <trkpt lat="43.78009" lon="5.1581">
        <ele>258</ele>
        <time>2016-03-03T10:50:31Z</time>
      </trkpt>
      <trkpt lat="43.78011" lon="5.1581">
        <ele>258</ele>
        <time>2016-03-03T10:50:45Z</time>
      </trkpt>
      <trkpt lat="43.78011" lon="5.15809">
        <ele>257</ele>
        <time>2016-03-03T10:51:04Z</time>
      </trkpt>
      <trkpt lat="43.7802" lon="5.15801">
        <ele>258</ele>
        <time>2016-03-03T10:51:13Z</time>
      </trkpt>
      <trkpt lat="43.78026" lon="5.1579">
        <ele>258</ele>
        <time>2016-03-03T10:51:25Z</time>
      </trkpt>
      <trkpt lat="43.78036" lon="5.15783">
        <ele>259</ele>
        <time>2016-03-03T10:51:39Z</time>
      </trkpt>
      <trkpt lat="43.78048" lon="5.1578">
        <ele>260</ele>
        <time>2016-03-03T10:51:55Z</time>
      </trkpt>
      <trkpt lat="43.78059" lon="5.15778">
        <ele>260</ele>
        <time>2016-03-03T10:52:10Z</time>
      </trkpt>
      <trkpt lat="43.78075" lon="5.15782">
        <ele>261</ele>
        <time>2016-03-03T10:52:26Z</time>
      </trkpt>
      <trkpt lat="43.78088" lon="5.15784">
        <ele>261</ele>
        <time>2016-03-03T10:52:39Z</time>
      </trkpt>
      <trkpt lat="43.78101" lon="5.15775">
        <ele>262</ele>
        <time>2016-03-03T10:52:56Z</time>
      </trkpt>
      <trkpt lat="43.78115" lon="5.15765">
        <ele>264</ele>
        <time>2016-03-03T10:53:12Z</time>
      </trkpt>
      <trkpt lat="43.78119" lon="5.15761">
        <ele>264</ele>
        <time>2016-03-03T10:53:16Z</time>
      </trkpt>
      <trkpt lat="43.78137" lon="5.15751">
        <ele>265</ele>
        <time>2016-03-03T10:53:31Z</time>
      </trkpt>
      <trkpt lat="43.78152" lon="5.15741">
        <ele>265</ele>
        <time>2016-03-03T10:53:44Z</time>
      </trkpt>
      <trkpt lat="43.78167" lon="5.15735">
        <ele>266</ele>
        <time>2016-03-03T10:54:00Z</time>
      </trkpt>
      <trkpt lat="43.78171" lon="5.15733">
        <ele>266</ele>
        <time>2016-03-03T10:54:02Z</time>
      </trkpt>
      <trkpt lat="43.78177" lon="5.15724">
        <ele>267</ele>
        <time>2016-03-03T10:54:11Z</time>
      </trkpt>
      <trkpt lat="43.78182" lon="5.15696">
        <ele>268</ele>
        <time>2016-03-03T10:54:24Z</time>
      </trkpt>
      <trkpt lat="43.7818" lon="5.15675">
        <ele>268</ele>
        <time>2016-03-03T10:54:39Z</time>
      </trkpt>
      <trkpt lat="43.7818" lon="5.15656">
        <ele>268</ele>
        <time>2016-03-03T10:54:54Z</time>
      </trkpt>
      <trkpt lat="43.78182" lon="5.15632">
        <ele>269</ele>
        <time>2016-03-03T10:55:11Z</time>
      </trkpt>
      <trkpt lat="43.78187" lon="5.15622">
        <ele>270</ele>
        <time>2016-03-03T10:55:19Z</time>
      </trkpt>
      <trkpt lat="43.78196" lon="5.15604">
        <ele>269</ele>
        <time>2016-03-03T10:55:32Z</time>
      </trkpt>
      <trkpt lat="43.78204" lon="5.15586">
        <ele>269</ele>
        <time>2016-03-03T10:55:48Z</time>
      </trkpt>
      <trkpt lat="43.78222" lon="5.15578">
        <ele>270</ele>
        <time>2016-03-03T10:56:07Z</time>
      </trkpt>
      <trkpt lat="43.78231" lon="5.15577">
        <ele>271</ele>
        <time>2016-03-03T10:56:16Z</time>
      </trkpt>
      <trkpt lat="43.78251" lon="5.15571">
        <ele>271</ele>
        <time>2016-03-03T10:56:33Z</time>
      </trkpt>
      <trkpt lat="43.78256" lon="5.15569">
        <ele>272</ele>
        <time>2016-03-03T10:56:37Z</time>
      </trkpt>
      <trkpt lat="43.78264" lon="5.15563">
        <ele>272</ele>
        <time>2016-03-03T10:56:44Z</time>
      </trkpt>
      <trkpt lat="43.78269" lon="5.15557">
        <ele>272</ele>
        <time>2016-03-03T10:56:48Z</time>
      </trkpt>
      <trkpt lat="43.78275" lon="5.15543">
        <ele>273</ele>
        <time>2016-03-03T10:56:58Z</time>
      </trkpt>
      <trkpt lat="43.78275" lon="5.15538">
        <ele>273</ele>
        <time>2016-03-03T10:57:02Z</time>
      </trkpt>
      <trkpt lat="43.78266" lon="5.15517">
        <ele>274</ele>
        <time>2016-03-03T10:57:18Z</time>
      </trkpt>
      <trkpt lat="43.7826" lon="5.15504">
        <ele>275</ele>
        <time>2016-03-03T10:57:30Z</time>
      </trkpt>
      <trkpt lat="43.78247" lon="5.15494">
        <ele>275</ele>
        <time>2016-03-03T10:57:45Z</time>
      </trkpt>
      <trkpt lat="43.78241" lon="5.15486">
        <ele>276</ele>
        <time>2016-03-03T10:57:54Z</time>
      </trkpt>
      <trkpt lat="43.78239" lon="5.15463">
        <ele>277</ele>
        <time>2016-03-03T10:58:09Z</time>
      </trkpt>
      <trkpt lat="43.78238" lon="5.15462">
        <ele>277</ele>
        <time>2016-03-03T10:58:10Z</time>
      </trkpt>
      <trkpt lat="43.78238" lon="5.15458">
        <ele>277</ele>
        <time>2016-03-03T10:58:12Z</time>
      </trkpt>
      <trkpt lat="43.78239" lon="5.1543">
        <ele>278</ele>
        <time>2016-03-03T10:58:31Z</time>
      </trkpt>
      <trkpt lat="43.78249" lon="5.15419">
        <ele>278</ele>
        <time>2016-03-03T10:58:47Z</time>
      </trkpt>
      <trkpt lat="43.78252" lon="5.15419">
        <ele>279</ele>
        <time>2016-03-03T10:58:51Z</time>
      </trkpt>
      <trkpt lat="43.78267" lon="5.15418">
        <ele>280</ele>
        <time>2016-03-03T10:59:06Z</time>
      </trkpt>
      <trkpt lat="43.78276" lon="5.15426">
        <ele>280</ele>
        <time>2016-03-03T10:59:16Z</time>
      </trkpt>
      <trkpt lat="43.78295" lon="5.15429">
        <ele>281</ele>
        <time>2016-03-03T10:59:31Z</time>
      </trkpt>
      <trkpt lat="43.78316" lon="5.15433">
        <ele>282</ele>
        <time>2016-03-03T10:59:49Z</time>
      </trkpt>
      <trkpt lat="43.78319" lon="5.15434">
        <ele>282</ele>
        <time>2016-03-03T10:59:52Z</time>
      </trkpt>
      <trkpt lat="43.78334" lon="5.15437">
        <ele>283</ele>
        <time>2016-03-03T11:00:08Z</time>
      </trkpt>
      <trkpt lat="43.78347" lon="5.15436">
        <ele>284</ele>
        <time>2016-03-03T11:00:21Z</time>
      </trkpt>
      <trkpt lat="43.7836" lon="5.1543">
        <ele>284</ele>
        <time>2016-03-03T11:00:38Z</time>
      </trkpt>
      <trkpt lat="43.78377" lon="5.15414">
        <ele>285</ele>
        <time>2016-03-03T11:00:56Z</time>
      </trkpt>
      <trkpt lat="43.78384" lon="5.15392">
        <ele>286</ele>
        <time>2016-03-03T11:01:12Z</time>
      </trkpt>
      <trkpt lat="43.78391" lon="5.15369">
        <ele>288</ele>
        <time>2016-03-03T11:01:31Z</time>
      </trkpt>
      <trkpt lat="43.78401" lon="5.15356">
        <ele>289</ele>
        <time>2016-03-03T11:01:49Z</time>
      </trkpt>
      <trkpt lat="43.78413" lon="5.15354">
        <ele>289</ele>
        <time>2016-03-03T11:02:01Z</time>
      </trkpt>
      <trkpt lat="43.78435" lon="5.15352">
        <ele>291</ele>
        <time>2016-03-03T11:02:19Z</time>
      </trkpt>
      <trkpt lat="43.78455" lon="5.15358">
        <ele>292</ele>
        <time>2016-03-03T11:02:36Z</time>
      </trkpt>
      <trkpt lat="43.78472" lon="5.15357">
        <ele>293</ele>
        <time>2016-03-03T11:02:51Z</time>
      </trkpt>
      <trkpt lat="43.78492" lon="5.15349">
        <ele>296</ele>
        <time>2016-03-03T11:03:11Z</time>
      </trkpt>
      <trkpt lat="43.78506" lon="5.15339">
        <ele>297</ele>
        <time>2016-03-03T11:03:29Z</time>
      </trkpt>
      <trkpt lat="43.78511" lon="5.1534">
        <ele>297</ele>
        <time>2016-03-03T11:03:33Z</time>
      </trkpt>
      <trkpt lat="43.78529" lon="5.15348">
        <ele>298</ele>
        <time>2016-03-03T11:03:49Z</time>
      </trkpt>
      <trkpt lat="43.78537" lon="5.15357">
        <ele>299</ele>
        <time>2016-03-03T11:04:02Z</time>
      </trkpt>
      <trkpt lat="43.7854" lon="5.15358">
        <ele>299</ele>
        <time>2016-03-03T11:04:05Z</time>
      </trkpt>
      <trkpt lat="43.78562" lon="5.15339">
        <ele>301</ele>
        <time>2016-03-03T11:04:23Z</time>
      </trkpt>
      <trkpt lat="43.78563" lon="5.15338">
        <ele>301</ele>
        <time>2016-03-03T11:04:25Z</time>
      </trkpt>
      <trkpt lat="43.78577" lon="5.1532">
        <ele>302</ele>
        <time>2016-03-03T11:04:44Z</time>
      </trkpt>
      <trkpt lat="43.78581" lon="5.15318">
        <ele>302</ele>
        <time>2016-03-03T11:04:48Z</time>
      </trkpt>
      <trkpt lat="43.78596" lon="5.15307">
        <ele>304</ele>
        <time>2016-03-03T11:05:08Z</time>
      </trkpt>
      <trkpt lat="43.78603" lon="5.15308">
        <ele>304</ele>
        <time>2016-03-03T11:05:15Z</time>
      </trkpt>
      <trkpt lat="43.78617" lon="5.15308">
        <ele>305</ele>
        <time>2016-03-03T11:05:31Z</time>
      </trkpt>
      <trkpt lat="43.78632" lon="5.15306">
        <ele>306</ele>
        <time>2016-03-03T11:05:46Z</time>
      </trkpt>
      <trkpt lat="43.78641" lon="5.15303">
        <ele>307</ele>
        <time>2016-03-03T11:05:55Z</time>
      </trkpt>
      <trkpt lat="43.78642" lon="5.15303">
        <ele>307</ele>
        <time>2016-03-03T11:05:56Z</time>
      </trkpt>
      <trkpt lat="43.78662" lon="5.15299">
        <ele>309</ele>
        <time>2016-03-03T11:06:15Z</time>
      </trkpt>
      <trkpt lat="43.78676" lon="5.15299">
        <ele>311</ele>
        <time>2016-03-03T11:06:29Z</time>
      </trkpt>
      <trkpt lat="43.78689" lon="5.15291">
        <ele>312</ele>
        <time>2016-03-03T11:06:43Z</time>
      </trkpt>
      <trkpt lat="43.78704" lon="5.15286">
        <ele>312</ele>
        <time>2016-03-03T11:07:00Z</time>
      </trkpt>
      <trkpt lat="43.78721" lon="5.15279">
        <ele>314</ele>
        <time>2016-03-03T11:07:15Z</time>
      </trkpt>
      <trkpt lat="43.78739" lon="5.15275">
        <ele>315</ele>
        <time>2016-03-03T11:07:31Z</time>
      </trkpt>
      <trkpt lat="43.7875" lon="5.15268">
        <ele>315</ele>
        <time>2016-03-03T11:07:39Z</time>
      </trkpt>
      <trkpt lat="43.7876" lon="5.15248">
        <ele>316</ele>
        <time>2016-03-03T11:07:56Z</time>
      </trkpt>
      <trkpt lat="43.78761" lon="5.15227">
        <ele>317</ele>
        <time>2016-03-03T11:08:13Z</time>
      </trkpt>
      <trkpt lat="43.78768" lon="5.15203">
        <ele>319</ele>
        <time>2016-03-03T11:08:24Z</time>
      </trkpt>
      <trkpt lat="43.78777" lon="5.15194">
        <ele>320</ele>
        <time>2016-03-03T11:08:38Z</time>
      </trkpt>
      <trkpt lat="43.78784" lon="5.15192">
        <ele>323</ele>
        <time>2016-03-03T11:08:46Z</time>
      </trkpt>
      <trkpt lat="43.78789" lon="5.1519">
        <ele>325</ele>
        <time>2016-03-03T11:08:50Z</time>
      </trkpt>
      <trkpt lat="43.78804" lon="5.15182">
        <ele>326</ele>
        <time>2016-03-03T11:09:07Z</time>
      </trkpt>
      <trkpt lat="43.78806" lon="5.1518">
        <ele>326</ele>
        <time>2016-03-03T11:09:10Z</time>
      </trkpt>
      <trkpt lat="43.78821" lon="5.1516">
        <ele>327</ele>
        <time>2016-03-03T11:09:25Z</time>
      </trkpt>
      <trkpt lat="43.78835" lon="5.1514">
        <ele>329</ele>
        <time>2016-03-03T11:09:42Z</time>
      </trkpt>
      <trkpt lat="43.78846" lon="5.15131">
        <ele>330</ele>
        <time>2016-03-03T11:09:54Z</time>
      </trkpt>
      <trkpt lat="43.78861" lon="5.15138">
        <ele>330</ele>
        <time>2016-03-03T11:10:05Z</time>
      </trkpt>
      <trkpt lat="43.78864" lon="5.15137">
        <ele>331</ele>
        <time>2016-03-03T11:10:08Z</time>
      </trkpt>
      <trkpt lat="43.78881" lon="5.15129">
        <ele>331</ele>
        <time>2016-03-03T11:10:24Z</time>
      </trkpt>
      <trkpt lat="43.78887" lon="5.15125">
        <ele>332</ele>
        <time>2016-03-03T11:10:39Z</time>
      </trkpt>
      <trkpt lat="43.78888" lon="5.15124">
        <ele>333</ele>
        <time>2016-03-03T11:11:04Z</time>
      </trkpt>
      <trkpt lat="43.78888" lon="5.15125">
        <ele>333</ele>
        <time>2016-03-03T11:11:21Z</time>
      </trkpt>
      <trkpt lat="43.7889" lon="5.15122">
        <ele>333</ele>
        <time>2016-03-03T11:11:41Z</time>
      </trkpt>
      <trkpt lat="43.78891" lon="5.15121">
        <ele>334</ele>
        <time>2016-03-03T11:12:04Z</time>
      </trkpt>
      <trkpt lat="43.78891" lon="5.15121">
        <ele>334</ele>
        <time>2016-03-03T11:12:22Z</time>
      </trkpt>
      <trkpt lat="43.78891" lon="5.1512">
        <ele>333</ele>
        <time>2016-03-03T11:12:44Z</time>
      </trkpt>
      <trkpt lat="43.78893" lon="5.15119">
        <ele>333</ele>
        <time>2016-03-03T11:13:08Z</time>
      </trkpt>
      <trkpt lat="43.78894" lon="5.15119">
        <ele>333</ele>
        <time>2016-03-03T11:13:36Z</time>
      </trkpt>
      <trkpt lat="43.78892" lon="5.15119">
        <ele>333</ele>
        <time>2016-03-03T11:13:55Z</time>
      </trkpt>
      <trkpt lat="43.7889" lon="5.15119">
        <ele>334</ele>
        <time>2016-03-03T11:14:16Z</time>
      </trkpt>
      <trkpt lat="43.78898" lon="5.15104">
        <ele>335</ele>
        <time>2016-03-03T11:14:30Z</time>
      </trkpt>
      <trkpt lat="43.78905" lon="5.15081">
        <ele>336</ele>
        <time>2016-03-03T11:14:46Z</time>
      </trkpt>
      <trkpt lat="43.78913" lon="5.15069">
        <ele>337</ele>
        <time>2016-03-03T11:15:03Z</time>
      </trkpt>
      <trkpt lat="43.78914" lon="5.15069">
        <ele>337</ele>
        <time>2016-03-03T11:15:07Z</time>
      </trkpt>
      <trkpt lat="43.78935" lon="5.15081">
        <ele>338</ele>
        <time>2016-03-03T11:15:25Z</time>
      </trkpt>
      <trkpt lat="43.78948" lon="5.15073">
        <ele>337</ele>
        <time>2016-03-03T11:15:39Z</time>
      </trkpt>
      <trkpt lat="43.78952" lon="5.1507">
        <ele>337</ele>
        <time>2016-03-03T11:15:41Z</time>
      </trkpt>
      <trkpt lat="43.78956" lon="5.15042">
        <ele>339</ele>
        <time>2016-03-03T11:15:59Z</time>
      </trkpt>
      <trkpt lat="43.78942" lon="5.15028">
        <ele>341</ele>
        <time>2016-03-03T11:16:13Z</time>
      </trkpt>
      <trkpt lat="43.78925" lon="5.15018">
        <ele>342</ele>
        <time>2016-03-03T11:16:30Z</time>
      </trkpt>
      <trkpt lat="43.78911" lon="5.15013">
        <ele>344</ele>
        <time>2016-03-03T11:16:45Z</time>
      </trkpt>
      <trkpt lat="43.78897" lon="5.15015">
        <ele>345</ele>
        <time>2016-03-03T11:17:03Z</time>
      </trkpt>
      <trkpt lat="43.78883" lon="5.15021">
        <ele>348</ele>
        <time>2016-03-03T11:17:20Z</time>
      </trkpt>
      <trkpt lat="43.78874" lon="5.1503">
        <ele>348</ele>
        <time>2016-03-03T11:17:31Z</time>
      </trkpt>
      <trkpt lat="43.78855" lon="5.15047">
        <ele>350</ele>
        <time>2016-03-03T11:17:46Z</time>
      </trkpt>
      <trkpt lat="43.78842" lon="5.15061">
        <ele>351</ele>
        <time>2016-03-03T11:18:01Z</time>
      </trkpt>
      <trkpt lat="43.78838" lon="5.15063">
        <ele>351</ele>
        <time>2016-03-03T11:18:05Z</time>
      </trkpt>
      <trkpt lat="43.78823" lon="5.15071">
        <ele>352</ele>
        <time>2016-03-03T11:18:20Z</time>
      </trkpt>
      <trkpt lat="43.78807" lon="5.1508">
        <ele>353</ele>
        <time>2016-03-03T11:18:36Z</time>
      </trkpt>
      <trkpt lat="43.78791" lon="5.15095">
        <ele>355</ele>
        <time>2016-03-03T11:18:53Z</time>
      </trkpt>
      <trkpt lat="43.7878" lon="5.1511">
        <ele>356</ele>
        <time>2016-03-03T11:19:07Z</time>
      </trkpt>
      <trkpt lat="43.78765" lon="5.15124">
        <ele>358</ele>
        <time>2016-03-03T11:19:23Z</time>
      </trkpt>
      <trkpt lat="43.78751" lon="5.1514">
        <ele>359</ele>
        <time>2016-03-03T11:19:40Z</time>
      </trkpt>
      <trkpt lat="43.78739" lon="5.1515">
        <ele>362</ele>
        <time>2016-03-03T11:19:54Z</time>
      </trkpt>
      <trkpt lat="43.78738" lon="5.15151">
        <ele>362</ele>
        <time>2016-03-03T11:19:55Z</time>
      </trkpt>
      <trkpt lat="43.78731" lon="5.15156">
        <ele>362</ele>
        <time>2016-03-03T11:20:03Z</time>
      </trkpt>
      <trkpt lat="43.78717" lon="5.15172">
        <ele>364</ele>
        <time>2016-03-03T11:20:20Z</time>
      </trkpt>
      <trkpt lat="43.78705" lon="5.15186">
        <ele>365</ele>
        <time>2016-03-03T11:20:36Z</time>
      </trkpt>
      <trkpt lat="43.78692" lon="5.15197">
        <ele>366</ele>
        <time>2016-03-03T11:20:52Z</time>
      </trkpt>
      <trkpt lat="43.78676" lon="5.15203">
        <ele>368</ele>
        <time>2016-03-03T11:21:07Z</time>
      </trkpt>
      <trkpt lat="43.78664" lon="5.15208">
        <ele>368</ele>
        <time>2016-03-03T11:21:24Z</time>
      </trkpt>
      <trkpt lat="43.78662" lon="5.15208">
        <ele>369</ele>
        <time>2016-03-03T11:21:35Z</time>
      </trkpt>
      <trkpt lat="43.7866" lon="5.15208">
        <ele>369</ele>
        <time>2016-03-03T11:21:37Z</time>
      </trkpt>
      <trkpt lat="43.78651" lon="5.15203">
        <ele>370</ele>
        <time>2016-03-03T11:21:51Z</time>
      </trkpt>
      <trkpt lat="43.78651" lon="5.15203">
        <ele>370</ele>
        <time>2016-03-03T11:21:53Z</time>
      </trkpt>
      <trkpt lat="43.78648" lon="5.152">
        <ele>370</ele>
        <time>2016-03-03T11:21:56Z</time>
      </trkpt>
      <trkpt lat="43.7864" lon="5.15193">
        <ele>370</ele>
        <time>2016-03-03T11:22:04Z</time>
      </trkpt>
      <trkpt lat="43.78638" lon="5.15191">
        <ele>370</ele>
        <time>2016-03-03T11:22:06Z</time>
      </trkpt>
      <trkpt lat="43.78627" lon="5.15178">
        <ele>372</ele>
        <time>2016-03-03T11:22:21Z</time>
      </trkpt>
      <trkpt lat="43.78613" lon="5.15163">
        <ele>371</ele>
        <time>2016-03-03T11:22:36Z</time>
      </trkpt>
      <trkpt lat="43.7861" lon="5.15161">
        <ele>372</ele>
        <time>2016-03-03T11:22:41Z</time>
      </trkpt>
      <trkpt lat="43.78596" lon="5.15155">
        <ele>374</ele>
        <time>2016-03-03T11:22:55Z</time>
      </trkpt>
      <trkpt lat="43.7858" lon="5.15151">
        <ele>374</ele>
        <time>2016-03-03T11:23:11Z</time>
      </trkpt>
      <trkpt lat="43.78577" lon="5.1515">
        <ele>374</ele>
        <time>2016-03-03T11:23:14Z</time>
      </trkpt>
      <trkpt lat="43.7857" lon="5.15151">
        <ele>373</ele>
        <time>2016-03-03T11:23:21Z</time>
      </trkpt>
      <trkpt lat="43.78567" lon="5.15151">
        <ele>373</ele>
        <time>2016-03-03T11:23:24Z</time>
      </trkpt>
      <trkpt lat="43.78561" lon="5.15151">
        <ele>375</ele>
        <time>2016-03-03T11:23:28Z</time>
      </trkpt>
      <trkpt lat="43.78544" lon="5.15145">
        <ele>376</ele>
        <time>2016-03-03T11:23:44Z</time>
      </trkpt>
      <trkpt lat="43.78536" lon="5.15129">
        <ele>377</ele>
        <time>2016-03-03T11:23:58Z</time>
      </trkpt>
      <trkpt lat="43.78534" lon="5.15115">
        <ele>378</ele>
        <time>2016-03-03T11:24:09Z</time>
      </trkpt>
      <trkpt lat="43.78536" lon="5.15104">
        <ele>377</ele>
        <time>2016-03-03T11:24:19Z</time>
      </trkpt>
      <trkpt lat="43.78538" lon="5.151">
        <ele>377</ele>
        <time>2016-03-03T11:24:22Z</time>
      </trkpt>
      <trkpt lat="43.78545" lon="5.15078">
        <ele>378</ele>
        <time>2016-03-03T11:24:37Z</time>
      </trkpt>
      <trkpt lat="43.78556" lon="5.15059">
        <ele>377</ele>
        <time>2016-03-03T11:24:52Z</time>
      </trkpt>
      <trkpt lat="43.78568" lon="5.15043">
        <ele>377</ele>
        <time>2016-03-03T11:25:07Z</time>
      </trkpt>
      <trkpt lat="43.78569" lon="5.15039">
        <ele>377</ele>
        <time>2016-03-03T11:25:10Z</time>
      </trkpt>
      <trkpt lat="43.78566" lon="5.15021">
        <ele>378</ele>
        <time>2016-03-03T11:25:22Z</time>
      </trkpt>
      <trkpt lat="43.78565" lon="5.15009">
        <ele>378</ele>
        <time>2016-03-03T11:25:31Z</time>
      </trkpt>
      <trkpt lat="43.78563" lon="5.15005">
        <ele>378</ele>
        <time>2016-03-03T11:25:34Z</time>
      </trkpt>
      <trkpt lat="43.78566" lon="5.14996">
        <ele>377</ele>
        <time>2016-03-03T11:25:48Z</time>
      </trkpt>
      <trkpt lat="43.78566" lon="5.14997">
        <ele>376</ele>
        <time>2016-03-03T11:26:06Z</time>
      </trkpt>
      <trkpt lat="43.78567" lon="5.14997">
        <ele>377</ele>
        <time>2016-03-03T11:26:28Z</time>
      </trkpt>
      <trkpt lat="43.78566" lon="5.14997">
        <ele>377</ele>
        <time>2016-03-03T11:26:47Z</time>
      </trkpt>
      <trkpt lat="43.78567" lon="5.14996">
        <ele>377</ele>
        <time>2016-03-03T11:27:04Z</time>
      </trkpt>
      <trkpt lat="43.78567" lon="5.14996">
        <ele>377</ele>
        <time>2016-03-03T11:27:23Z</time>
      </trkpt>
      <trkpt lat="43.78567" lon="5.14996">
        <ele>376</ele>
        <time>2016-03-03T11:27:44Z</time>
      </trkpt>
      <trkpt lat="43.78567" lon="5.14996">
        <ele>377</ele>
        <time>2016-03-03T11:28:10Z</time>
      </trkpt>
      <trkpt lat="43.78567" lon="5.14994">
        <ele>376</ele>
        <time>2016-03-03T11:28:35Z</time>
      </trkpt>
      <trkpt lat="43.78566" lon="5.14994">
        <ele>376</ele>
        <time>2016-03-03T11:28:54Z</time>
      </trkpt>
      <trkpt lat="43.78565" lon="5.14993">
        <ele>376</ele>
        <time>2016-03-03T11:29:15Z</time>
      </trkpt>
      <trkpt lat="43.78565" lon="5.14992">
        <ele>376</ele>
        <time>2016-03-03T11:29:33Z</time>
      </trkpt>
      <trkpt lat="43.78565" lon="5.14992">
        <ele>377</ele>
        <time>2016-03-03T11:29:56Z</time>
      </trkpt>
      <trkpt lat="43.78573" lon="5.14985">
        <ele>376</ele>
        <time>2016-03-03T11:30:09Z</time>
      </trkpt>
      <trkpt lat="43.78589" lon="5.14988">
        <ele>377</ele>
        <time>2016-03-03T11:30:27Z</time>
      </trkpt>
      <trkpt lat="43.78593" lon="5.14989">
        <ele>378</ele>
        <time>2016-03-03T11:30:32Z</time>
      </trkpt>
      <trkpt lat="43.78596" lon="5.1499">
        <ele>378</ele>
        <time>2016-03-03T11:30:35Z</time>
      </trkpt>
      <trkpt lat="43.78614" lon="5.14995">
        <ele>376</ele>
        <time>2016-03-03T11:30:54Z</time>
      </trkpt>
      <trkpt lat="43.7863" lon="5.15">
        <ele>376</ele>
        <time>2016-03-03T11:31:11Z</time>
      </trkpt>
      <trkpt lat="43.78635" lon="5.15001">
        <ele>376</ele>
        <time>2016-03-03T11:31:15Z</time>
      </trkpt>
      <trkpt lat="43.78651" lon="5.14998">
        <ele>375</ele>
        <time>2016-03-03T11:31:31Z</time>
      </trkpt>
      <trkpt lat="43.78668" lon="5.14998">
        <ele>376</ele>
        <time>2016-03-03T11:31:47Z</time>
      </trkpt>
      <trkpt lat="43.78683" lon="5.14993">
        <ele>376</ele>
        <time>2016-03-03T11:32:00Z</time>
      </trkpt>
      <trkpt lat="43.787" lon="5.14992">
        <ele>376</ele>
        <time>2016-03-03T11:32:17Z</time>
      </trkpt>
      <trkpt lat="43.78717" lon="5.1499">
        <ele>375</ele>
        <time>2016-03-03T11:32:33Z</time>
      </trkpt>
      <trkpt lat="43.78722" lon="5.1499">
        <ele>376</ele>
        <time>2016-03-03T11:32:37Z</time>
      </trkpt>
      <trkpt lat="43.78739" lon="5.14993">
        <ele>374</ele>
        <time>2016-03-03T11:32:53Z</time>
      </trkpt>
      <trkpt lat="43.78757" lon="5.14987">
        <ele>374</ele>
        <time>2016-03-03T11:33:10Z</time>
      </trkpt>
      <trkpt lat="43.78762" lon="5.14985">
        <ele>374</ele>
        <time>2016-03-03T11:33:25Z</time>
      </trkpt>
      <trkpt lat="43.78773" lon="5.1498">
        <ele>373</ele>
        <time>2016-03-03T11:33:41Z</time>
      </trkpt>
      <trkpt lat="43.78778" lon="5.14982">
        <ele>373</ele>
        <time>2016-03-03T11:33:55Z</time>
      </trkpt>
      <trkpt lat="43.78779" lon="5.14983">
        <ele>375</ele>
        <time>2016-03-03T11:33:58Z</time>
      </trkpt>
      <trkpt lat="43.7878" lon="5.14986">
        <ele>375</ele>
        <time>2016-03-03T11:34:01Z</time>
      </trkpt>
      <trkpt lat="43.78783" lon="5.14992">
        <ele>378</ele>
        <time>2016-03-03T11:34:06Z</time>
      </trkpt>
      <trkpt lat="43.78788" lon="5.15004">
        <ele>375</ele>
        <time>2016-03-03T11:34:18Z</time>
      </trkpt>
      <trkpt lat="43.78794" lon="5.15007">
        <ele>375</ele>
        <time>2016-03-03T11:34:31Z</time>
      </trkpt>
      <trkpt lat="43.78797" lon="5.15006">
        <ele>374</ele>
        <time>2016-03-03T11:34:45Z</time>
      </trkpt>
      <trkpt lat="43.78798" lon="5.15004">
        <ele>373</ele>
        <time>2016-03-03T11:35:04Z</time>
      </trkpt>
      <trkpt lat="43.78798" lon="5.15004">
        <ele>373</ele>
        <time>2016-03-03T11:35:31Z</time>
      </trkpt>
      <trkpt lat="43.78798" lon="5.15004">
        <ele>373</ele>
        <time>2016-03-03T11:35:55Z</time>
      </trkpt>
      <trkpt lat="43.78798" lon="5.15004">
        <ele>373</ele>
        <time>2016-03-03T11:36:15Z</time>
      </trkpt>
      <trkpt lat="43.78797" lon="5.15004">
        <ele>375</ele>
        <time>2016-03-03T11:36:40Z</time>
      </trkpt>
      <trkpt lat="43.78796" lon="5.15003">
        <ele>374</ele>
        <time>2016-03-03T11:36:50Z</time>
      </trkpt>
      <trkpt lat="43.78795" lon="5.15004">
        <ele>373</ele>
        <time>2016-03-03T11:37:24Z</time>
      </trkpt>
      <trkpt lat="43.78796" lon="5.15004">
        <ele>373</ele>
        <time>2016-03-03T11:37:53Z</time>
      </trkpt>
      <trkpt lat="43.78796" lon="5.15004">
        <ele>371</ele>
        <time>2016-03-03T11:38:19Z</time>
      </trkpt>
      <trkpt lat="43.78796" lon="5.15004">
        <ele>375</ele>
        <time>2016-03-03T11:38:21Z</time>
      </trkpt>
      <trkpt lat="43.78796" lon="5.15004">
        <ele>373</ele>
        <time>2016-03-03T11:38:52Z</time>
      </trkpt>
      <trkpt lat="43.78797" lon="5.15004">
        <ele>373</ele>
        <time>2016-03-03T11:39:11Z</time>
      </trkpt>
      <trkpt lat="43.78797" lon="5.15004">
        <ele>373</ele>
        <time>2016-03-03T11:39:42Z</time>
      </trkpt>
      <trkpt lat="43.78796" lon="5.15004">
        <ele>373</ele>
        <time>2016-03-03T11:40:16Z</time>
      </trkpt>
      <trkpt lat="43.78797" lon="5.15004">
        <ele>373</ele>
        <time>2016-03-03T11:40:48Z</time>
      </trkpt>
      <trkpt lat="43.78797" lon="5.15004">
        <ele>373</ele>
        <time>2016-03-03T11:41:21Z</time>
      </trkpt>
      <trkpt lat="43.78797" lon="5.15003">
        <ele>374</ele>
        <time>2016-03-03T11:41:48Z</time>
      </trkpt>
      <trkpt lat="43.78797" lon="5.15003">
        <ele>373</ele>
        <time>2016-03-03T11:42:13Z</time>
      </trkpt>
      <trkpt lat="43.78797" lon="5.15004">
        <ele>374</ele>
        <time>2016-03-03T11:42:47Z</time>
      </trkpt>
      <trkpt lat="43.78797" lon="5.15004">
        <ele>374</ele>
        <time>2016-03-03T11:43:16Z</time>
      </trkpt>
      <trkpt lat="43.78796" lon="5.15003">
        <ele>373</ele>
        <time>2016-03-03T11:43:48Z</time>
      </trkpt>
      <trkpt lat="43.78796" lon="5.15003">
        <ele>373</ele>
        <time>2016-03-03T11:44:19Z</time>
      </trkpt>
      <trkpt lat="43.78796" lon="5.15002">
        <ele>373</ele>
        <time>2016-03-03T11:44:51Z</time>
      </trkpt>
      <trkpt lat="43.78796" lon="5.15003">
        <ele>374</ele>
        <time>2016-03-03T11:45:21Z</time>
      </trkpt>
      <trkpt lat="43.78796" lon="5.15003">
        <ele>372</ele>
        <time>2016-03-03T11:45:53Z</time>
      </trkpt>
      <trkpt lat="43.78797" lon="5.15003">
        <ele>373</ele>
        <time>2016-03-03T11:46:25Z</time>
      </trkpt>
      <trkpt lat="43.78797" lon="5.15004">
        <ele>373</ele>
        <time>2016-03-03T11:46:59Z</time>
      </trkpt>
      <trkpt lat="43.78797" lon="5.15004">
        <ele>373</ele>
        <time>2016-03-03T11:47:26Z</time>
      </trkpt>
      <trkpt lat="43.78797" lon="5.15004">
        <ele>373</ele>
        <time>2016-03-03T11:48:00Z</time>
      </trkpt>
      <trkpt lat="43.78797" lon="5.15004">
        <ele>373</ele>
        <time>2016-03-03T11:48:35Z</time>
      </trkpt>
      <trkpt lat="43.78796" lon="5.15004">
        <ele>373</ele>
        <time>2016-03-03T11:49:10Z</time>
      </trkpt>
      <trkpt lat="43.78797" lon="5.15004">
        <ele>374</ele>
        <time>2016-03-03T11:49:38Z</time>
      </trkpt>
      <trkpt lat="43.78797" lon="5.15004">
        <ele>374</ele>
        <time>2016-03-03T11:50:10Z</time>
      </trkpt>
      <trkpt lat="43.78797" lon="5.15003">
        <ele>374</ele>
        <time>2016-03-03T11:50:44Z</time>
      </trkpt>
      <trkpt lat="43.78797" lon="5.15003">
        <ele>373</ele>
        <time>2016-03-03T11:51:16Z</time>
      </trkpt>
      <trkpt lat="43.78797" lon="5.15003">
        <ele>374</ele>
        <time>2016-03-03T11:51:51Z</time>
      </trkpt>
      <trkpt lat="43.78797" lon="5.15003">
        <ele>374</ele>
        <time>2016-03-03T11:52:24Z</time>
      </trkpt>
      <trkpt lat="43.78796" lon="5.15002">
        <ele>373</ele>
        <time>2016-03-03T11:53:00Z</time>
      </trkpt>
      <trkpt lat="43.78796" lon="5.15003">
        <ele>373</ele>
        <time>2016-03-03T11:53:33Z</time>
      </trkpt>
      <trkpt lat="43.78796" lon="5.15002">
        <ele>373</ele>
        <time>2016-03-03T11:54:12Z</time>
      </trkpt>
      <trkpt lat="43.78796" lon="5.15003">
        <ele>372</ele>
        <time>2016-03-03T11:54:47Z</time>
      </trkpt>
      <trkpt lat="43.78796" lon="5.15003">
        <ele>372</ele>
        <time>2016-03-03T11:55:20Z</time>
      </trkpt>
      <trkpt lat="43.78796" lon="5.15003">
        <ele>372</ele>
        <time>2016-03-03T11:55:53Z</time>
      </trkpt>
      <trkpt lat="43.78796" lon="5.15003">
        <ele>372</ele>
        <time>2016-03-03T11:56:22Z</time>
      </trkpt>
      <trkpt lat="43.78796" lon="5.15003">
        <ele>372</ele>
        <time>2016-03-03T11:56:55Z</time>
      </trkpt>
      <trkpt lat="43.78796" lon="5.15003">
        <ele>372</ele>
        <time>2016-03-03T11:57:29Z</time>
      </trkpt>
      <trkpt lat="43.78796" lon="5.15003">
        <ele>372</ele>
        <time>2016-03-03T11:57:58Z</time>
      </trkpt>
      <trkpt lat="43.78795" lon="5.15003">
        <ele>372</ele>
        <time>2016-03-03T11:58:30Z</time>
      </trkpt>
      <trkpt lat="43.78796" lon="5.15004">
        <ele>372</ele>
        <time>2016-03-03T11:59:05Z</time>
      </trkpt>
      <trkpt lat="43.78796" lon="5.15004">
        <ele>372</ele>
        <time>2016-03-03T11:59:39Z</time>
      </trkpt>
      <trkpt lat="43.78796" lon="5.15003">
        <ele>372</ele>
        <time>2016-03-03T12:00:12Z</time>
      </trkpt>
      <trkpt lat="43.78796" lon="5.15003">
        <ele>372</ele>
        <time>2016-03-03T12:00:45Z</time>
      </trkpt>
      <trkpt lat="43.78797" lon="5.15003">
        <ele>372</ele>
        <time>2016-03-03T12:01:18Z</time>
      </trkpt>
      <trkpt lat="43.78797" lon="5.15003">
        <ele>372</ele>
        <time>2016-03-03T12:01:50Z</time>
      </trkpt>
      <trkpt lat="43.78796" lon="5.15003">
        <ele>372</ele>
        <time>2016-03-03T12:02:22Z</time>
      </trkpt>
      <trkpt lat="43.78796" lon="5.15003">
        <ele>373</ele>
        <time>2016-03-03T12:02:51Z</time>
      </trkpt>
      <trkpt lat="43.78795" lon="5.15003">
        <ele>372</ele>
        <time>2016-03-03T12:03:26Z</time>
      </trkpt>
      <trkpt lat="43.78796" lon="5.15003">
        <ele>372</ele>
        <time>2016-03-03T12:03:58Z</time>
      </trkpt>
      <trkpt lat="43.78796" lon="5.15003">
        <ele>372</ele>
        <time>2016-03-03T12:04:27Z</time>
      </trkpt>
      <trkpt lat="43.78796" lon="5.15003">
        <ele>372</ele>
        <time>2016-03-03T12:04:53Z</time>
      </trkpt>
      <trkpt lat="43.78796" lon="5.15003">
        <ele>372</ele>
        <time>2016-03-03T12:05:24Z</time>
      </trkpt>
      <trkpt lat="43.78797" lon="5.15003">
        <ele>373</ele>
        <time>2016-03-03T12:05:56Z</time>
      </trkpt>
      <trkpt lat="43.78796" lon="5.15002">
        <ele>372</ele>
        <time>2016-03-03T12:06:27Z</time>
      </trkpt>
      <trkpt lat="43.78796" lon="5.15002">
        <ele>373</ele>
        <time>2016-03-03T12:07:04Z</time>
      </trkpt>
      <trkpt lat="43.78797" lon="5.15002">
        <ele>373</ele>
        <time>2016-03-03T12:07:31Z</time>
      </trkpt>
      <trkpt lat="43.78796" lon="5.15002">
        <ele>373</ele>
        <time>2016-03-03T12:07:59Z</time>
      </trkpt>
      <trkpt lat="43.78796" lon="5.15002">
        <ele>374</ele>
        <time>2016-03-03T12:08:28Z</time>
      </trkpt>
      <trkpt lat="43.78796" lon="5.15002">
        <ele>374</ele>
        <time>2016-03-03T12:08:56Z</time>
      </trkpt>
      <trkpt lat="43.78796" lon="5.15002">
        <ele>373</ele>
        <time>2016-03-03T12:09:25Z</time>
      </trkpt>
      <trkpt lat="43.78796" lon="5.15002">
        <ele>373</ele>
        <time>2016-03-03T12:09:52Z</time>
      </trkpt>
      <trkpt lat="43.78796" lon="5.15002">
        <ele>373</ele>
        <time>2016-03-03T12:10:24Z</time>
      </trkpt>
      <trkpt lat="43.78796" lon="5.15001">
        <ele>373</ele>
        <time>2016-03-03T12:10:53Z</time>
      </trkpt>
      <trkpt lat="43.78796" lon="5.15001">
        <ele>371</ele>
        <time>2016-03-03T12:11:23Z</time>
      </trkpt>
      <trkpt lat="43.78796" lon="5.15001">
        <ele>372</ele>
        <time>2016-03-03T12:11:51Z</time>
      </trkpt>
      <trkpt lat="43.78796" lon="5.15002">
        <ele>373</ele>
        <time>2016-03-03T12:12:20Z</time>
      </trkpt>
      <trkpt lat="43.78796" lon="5.15001">
        <ele>373</ele>
        <time>2016-03-03T12:12:47Z</time>
      </trkpt>
      <trkpt lat="43.78796" lon="5.15001">
        <ele>373</ele>
        <time>2016-03-03T12:13:23Z</time>
      </trkpt>
      <trkpt lat="43.78796" lon="5.15001">
        <ele>373</ele>
        <time>2016-03-03T12:13:55Z</time>
      </trkpt>
      <trkpt lat="43.78796" lon="5.15001">
        <ele>373</ele>
        <time>2016-03-03T12:14:26Z</time>
      </trkpt>
      <trkpt lat="43.78796" lon="5.15002">
        <ele>374</ele>
        <time>2016-03-03T12:14:55Z</time>
      </trkpt>
      <trkpt lat="43.78796" lon="5.15002">
        <ele>374</ele>
        <time>2016-03-03T12:15:23Z</time>
      </trkpt>
      <trkpt lat="43.78796" lon="5.15003">
        <ele>373</ele>
        <time>2016-03-03T12:15:52Z</time>
      </trkpt>
      <trkpt lat="43.78796" lon="5.15004">
        <ele>373</ele>
        <time>2016-03-03T12:16:12Z</time>
      </trkpt>
      <trkpt lat="43.78798" lon="5.15003">
        <ele>374</ele>
        <time>2016-03-03T12:16:35Z</time>
      </trkpt>
      <trkpt lat="43.78798" lon="5.15003">
        <ele>374</ele>
        <time>2016-03-03T12:16:36Z</time>
      </trkpt>
      <trkpt lat="43.78799" lon="5.15002">
        <ele>374</ele>
        <time>2016-03-03T12:17:07Z</time>
      </trkpt>
      <trkpt lat="43.78797" lon="5.15002">
        <ele>374</ele>
        <time>2016-03-03T12:17:23Z</time>
      </trkpt>
      <trkpt lat="43.78797" lon="5.15001">
        <ele>374</ele>
        <time>2016-03-03T12:17:50Z</time>
      </trkpt>
      <trkpt lat="43.78796" lon="5.15004">
        <ele>374</ele>
        <time>2016-03-03T12:18:18Z</time>
      </trkpt>
      <trkpt lat="43.78797" lon="5.15003">
        <ele>373</ele>
        <time>2016-03-03T12:18:44Z</time>
      </trkpt>
      <trkpt lat="43.78797" lon="5.15003">
        <ele>375</ele>
        <time>2016-03-03T12:19:08Z</time>
      </trkpt>
      <trkpt lat="43.78797" lon="5.15003">
        <ele>375</ele>
        <time>2016-03-03T12:19:32Z</time>
      </trkpt>
      <trkpt lat="43.78796" lon="5.15004">
        <ele>375</ele>
        <time>2016-03-03T12:20:02Z</time>
      </trkpt>
      <trkpt lat="43.78796" lon="5.15004">
        <ele>375</ele>
        <time>2016-03-03T12:20:36Z</time>
      </trkpt>
      <trkpt lat="43.78796" lon="5.15004">
        <ele>376</ele>
        <time>2016-03-03T12:21:08Z</time>
      </trkpt>
      <trkpt lat="43.78796" lon="5.15005">
        <ele>375</ele>
        <time>2016-03-03T12:21:40Z</time>
      </trkpt>
      <trkpt lat="43.78796" lon="5.15005">
        <ele>375</ele>
        <time>2016-03-03T12:22:11Z</time>
      </trkpt>
      <trkpt lat="43.78796" lon="5.15005">
        <ele>375</ele>
        <time>2016-03-03T12:22:46Z</time>
      </trkpt>
      <trkpt lat="43.78796" lon="5.15005">
        <ele>375</ele>
        <time>2016-03-03T12:23:21Z</time>
      </trkpt>
      <trkpt lat="43.78796" lon="5.15004">
        <ele>375</ele>
        <time>2016-03-03T12:23:55Z</time>
      </trkpt>
      <trkpt lat="43.78797" lon="5.15004">
        <ele>374</ele>
        <time>2016-03-03T12:24:30Z</time>
      </trkpt>
      <trkpt lat="43.78796" lon="5.15004">
        <ele>375</ele>
        <time>2016-03-03T12:25:05Z</time>
      </trkpt>
      <trkpt lat="43.78796" lon="5.15004">
        <ele>377</ele>
        <time>2016-03-03T12:25:37Z</time>
      </trkpt>
      <trkpt lat="43.78796" lon="5.15004">
        <ele>376</ele>
        <time>2016-03-03T12:26:11Z</time>
      </trkpt>
      <trkpt lat="43.78796" lon="5.15004">
        <ele>375</ele>
        <time>2016-03-03T12:26:39Z</time>
      </trkpt>
      <trkpt lat="43.78796" lon="5.15004">
        <ele>375</ele>
        <time>2016-03-03T12:27:02Z</time>
      </trkpt>
      <trkpt lat="43.78796" lon="5.15003">
        <ele>376</ele>
        <time>2016-03-03T12:27:25Z</time>
      </trkpt>
      <trkpt lat="43.78796" lon="5.15003">
        <ele>376</ele>
        <time>2016-03-03T12:27:26Z</time>
      </trkpt>
      <trkpt lat="43.78795" lon="5.15003">
        <ele>376</ele>
        <time>2016-03-03T12:27:41Z</time>
      </trkpt>
      <trkpt lat="43.78795" lon="5.15003">
        <ele>375</ele>
        <time>2016-03-03T12:28:02Z</time>
      </trkpt>
      <trkpt lat="43.78795" lon="5.15003">
        <ele>376</ele>
        <time>2016-03-03T12:28:20Z</time>
      </trkpt>
      <trkpt lat="43.78795" lon="5.15002">
        <ele>375</ele>
        <time>2016-03-03T12:28:43Z</time>
      </trkpt>
      <trkpt lat="43.78795" lon="5.15002">
        <ele>376</ele>
        <time>2016-03-03T12:29:12Z</time>
      </trkpt>
      <trkpt lat="43.78795" lon="5.15002">
        <ele>375</ele>
        <time>2016-03-03T12:29:26Z</time>
      </trkpt>
      <trkpt lat="43.78795" lon="5.15002">
        <ele>375</ele>
        <time>2016-03-03T12:29:53Z</time>
      </trkpt>
      <trkpt lat="43.78795" lon="5.15002">
        <ele>375</ele>
        <time>2016-03-03T12:30:14Z</time>
      </trkpt>
      <trkpt lat="43.78795" lon="5.15003">
        <ele>376</ele>
        <time>2016-03-03T12:30:37Z</time>
      </trkpt>
      <trkpt lat="43.78792" lon="5.15005">
        <ele>375</ele>
        <time>2016-03-03T12:30:55Z</time>
      </trkpt>
      <trkpt lat="43.78792" lon="5.15006">
        <ele>375</ele>
        <time>2016-03-03T12:31:18Z</time>
      </trkpt>
      <trkpt lat="43.78789" lon="5.15006">
        <ele>375</ele>
        <time>2016-03-03T12:31:35Z</time>
      </trkpt>
      <trkpt lat="43.78784" lon="5.14997">
        <ele>375</ele>
        <time>2016-03-03T12:31:49Z</time>
      </trkpt>
      <trkpt lat="43.78783" lon="5.14998">
        <ele>375</ele>
        <time>2016-03-03T12:32:06Z</time>
      </trkpt>
      <trkpt lat="43.78785" lon="5.14994">
        <ele>375</ele>
        <time>2016-03-03T12:32:26Z</time>
      </trkpt>
      <trkpt lat="43.78847" lon="5.14854">
        <ele>369</ele>
        <time>2016-03-03T12:34:54Z</time>
      </trkpt>
      <trkpt lat="43.78847" lon="5.14854">
        <ele>369</ele>
        <time>2016-03-03T12:34:55Z</time>
      </trkpt>
      <trkpt lat="43.78848" lon="5.14851">
        <ele>369</ele>
        <time>2016-03-03T12:34:59Z</time>
      </trkpt>
      <trkpt lat="43.78852" lon="5.14843">
        <ele>366</ele>
        <time>2016-03-03T12:35:07Z</time>
      </trkpt>
      <trkpt lat="43.78854" lon="5.14837">
        <ele>363</ele>
        <time>2016-03-03T12:35:13Z</time>
      </trkpt>
      <trkpt lat="43.78854" lon="5.14836">
        <ele>363</ele>
        <time>2016-03-03T12:35:14Z</time>
      </trkpt>
      <trkpt lat="43.78856" lon="5.14832">
        <ele>361</ele>
        <time>2016-03-03T12:35:17Z</time>
      </trkpt>
      <trkpt lat="43.78863" lon="5.1482">
        <ele>357</ele>
        <time>2016-03-03T12:35:30Z</time>
      </trkpt>
      <trkpt lat="43.78871" lon="5.14805">
        <ele>355</ele>
        <time>2016-03-03T12:35:43Z</time>
      </trkpt>
      <trkpt lat="43.78885" lon="5.14793">
        <ele>352</ele>
        <time>2016-03-03T12:35:57Z</time>
      </trkpt>
      <trkpt lat="43.78889" lon="5.14766">
        <ele>349</ele>
        <time>2016-03-03T12:36:13Z</time>
      </trkpt>
      <trkpt lat="43.78888" lon="5.14759">
        <ele>348</ele>
        <time>2016-03-03T12:36:17Z</time>
      </trkpt>
      <trkpt lat="43.78866" lon="5.14751">
        <ele>350</ele>
        <time>2016-03-03T12:36:37Z</time>
      </trkpt>
      <trkpt lat="43.7885" lon="5.14752">
        <ele>351</ele>
        <time>2016-03-03T12:36:52Z</time>
      </trkpt>
      <trkpt lat="43.78836" lon="5.1476">
        <ele>352</ele>
        <time>2016-03-03T12:37:08Z</time>
      </trkpt>
      <trkpt lat="43.78823" lon="5.14764">
        <ele>352</ele>
        <time>2016-03-03T12:37:25Z</time>
      </trkpt>
      <trkpt lat="43.78809" lon="5.14769">
        <ele>354</ele>
        <time>2016-03-03T12:37:39Z</time>
      </trkpt>
      <trkpt lat="43.78808" lon="5.14771">
        <ele>354</ele>
        <time>2016-03-03T12:37:41Z</time>
      </trkpt>
      <trkpt lat="43.78788" lon="5.14778">
        <ele>356</ele>
        <time>2016-03-03T12:38:02Z</time>
      </trkpt>
      <trkpt lat="43.7877" lon="5.14789">
        <ele>356</ele>
        <time>2016-03-03T12:38:22Z</time>
      </trkpt>
      <trkpt lat="43.78759" lon="5.14798">
        <ele>360</ele>
        <time>2016-03-03T12:38:38Z</time>
      </trkpt>
      <trkpt lat="43.78747" lon="5.14802">
        <ele>361</ele>
        <time>2016-03-03T12:38:49Z</time>
      </trkpt>
      <trkpt lat="43.78725" lon="5.14792">
        <ele>364</ele>
        <time>2016-03-03T12:39:17Z</time>
      </trkpt>
      <trkpt lat="43.78724" lon="5.14791">
        <ele>364</ele>
        <time>2016-03-03T12:39:18Z</time>
      </trkpt>
      <trkpt lat="43.78716" lon="5.14783">
        <ele>365</ele>
        <time>2016-03-03T12:39:31Z</time>
      </trkpt>
      <trkpt lat="43.78715" lon="5.14782">
        <ele>365</ele>
        <time>2016-03-03T12:39:32Z</time>
      </trkpt>
      <trkpt lat="43.78706" lon="5.14766">
        <ele>366</ele>
        <time>2016-03-03T12:39:49Z</time>
      </trkpt>
      <trkpt lat="43.78701" lon="5.14759">
        <ele>368</ele>
        <time>2016-03-03T12:39:55Z</time>
      </trkpt>
      <trkpt lat="43.787" lon="5.14742">
        <ele>369</ele>
        <time>2016-03-03T12:40:07Z</time>
      </trkpt>
      <trkpt lat="43.78703" lon="5.14738">
        <ele>369</ele>
        <time>2016-03-03T12:40:12Z</time>
      </trkpt>
      <trkpt lat="43.78712" lon="5.14727">
        <ele>370</ele>
        <time>2016-03-03T12:40:26Z</time>
      </trkpt>
      <trkpt lat="43.78725" lon="5.14713">
        <ele>372</ele>
        <time>2016-03-03T12:40:44Z</time>
      </trkpt>
      <trkpt lat="43.78742" lon="5.14694">
        <ele>375</ele>
        <time>2016-03-03T12:41:08Z</time>
      </trkpt>
      <trkpt lat="43.78752" lon="5.14683">
        <ele>376</ele>
        <time>2016-03-03T12:41:31Z</time>
      </trkpt>
      <trkpt lat="43.78755" lon="5.14679">
        <ele>376</ele>
        <time>2016-03-03T12:41:52Z</time>
      </trkpt>
      <trkpt lat="43.78763" lon="5.14667">
        <ele>376</ele>
        <time>2016-03-03T12:42:15Z</time>
      </trkpt>
      <trkpt lat="43.78765" lon="5.14666">
        <ele>378</ele>
        <time>2016-03-03T12:42:17Z</time>
      </trkpt>
      <trkpt lat="43.78769" lon="5.14663">
        <ele>377</ele>
        <time>2016-03-03T12:42:21Z</time>
      </trkpt>
      <trkpt lat="43.78784" lon="5.14631">
        <ele>379</ele>
        <time>2016-03-03T12:42:46Z</time>
      </trkpt>
      <trkpt lat="43.78785" lon="5.14624">
        <ele>381</ele>
        <time>2016-03-03T12:42:51Z</time>
      </trkpt>
      <trkpt lat="43.78786" lon="5.14602">
        <ele>382</ele>
        <time>2016-03-03T12:43:09Z</time>
      </trkpt>
      <trkpt lat="43.7879" lon="5.14585">
        <ele>384</ele>
        <time>2016-03-03T12:43:23Z</time>
      </trkpt>
      <trkpt lat="43.78792" lon="5.14579">
        <ele>386</ele>
        <time>2016-03-03T12:43:29Z</time>
      </trkpt>
      <trkpt lat="43.78797" lon="5.14567">
        <ele>384</ele>
        <time>2016-03-03T12:43:41Z</time>
      </trkpt>
      <trkpt lat="43.78811" lon="5.14549">
        <ele>386</ele>
        <time>2016-03-03T12:43:58Z</time>
      </trkpt>
      <trkpt lat="43.78822" lon="5.14538">
        <ele>387</ele>
        <time>2016-03-03T12:44:15Z</time>
      </trkpt>
      <trkpt lat="43.78826" lon="5.14536">
        <ele>388</ele>
        <time>2016-03-03T12:44:18Z</time>
      </trkpt>
      <trkpt lat="43.78839" lon="5.14534">
        <ele>388</ele>
        <time>2016-03-03T12:44:29Z</time>
      </trkpt>
      <trkpt lat="43.78856" lon="5.14531">
        <ele>388</ele>
        <time>2016-03-03T12:44:46Z</time>
      </trkpt>
      <trkpt lat="43.78867" lon="5.14526">
        <ele>389</ele>
        <time>2016-03-03T12:44:58Z</time>
      </trkpt>
      <trkpt lat="43.78869" lon="5.14527">
        <ele>389</ele>
        <time>2016-03-03T12:45:01Z</time>
      </trkpt>
      <trkpt lat="43.78881" lon="5.14521">
        <ele>390</ele>
        <time>2016-03-03T12:45:16Z</time>
      </trkpt>
      <trkpt lat="43.78897" lon="5.14512">
        <ele>391</ele>
        <time>2016-03-03T12:45:32Z</time>
      </trkpt>
      <trkpt lat="43.7891" lon="5.14503">
        <ele>392</ele>
        <time>2016-03-03T12:45:47Z</time>
      </trkpt>
      <trkpt lat="43.78921" lon="5.14496">
        <ele>394</ele>
        <time>2016-03-03T12:46:00Z</time>
      </trkpt>
      <trkpt lat="43.78935" lon="5.14487">
        <ele>397</ele>
        <time>2016-03-03T12:46:17Z</time>
      </trkpt>
      <trkpt lat="43.78947" lon="5.14474">
        <ele>398</ele>
        <time>2016-03-03T12:46:35Z</time>
      </trkpt>
      <trkpt lat="43.78961" lon="5.14458">
        <ele>401</ele>
        <time>2016-03-03T12:46:53Z</time>
      </trkpt>
      <trkpt lat="43.78973" lon="5.14442">
        <ele>403</ele>
        <time>2016-03-03T12:47:13Z</time>
      </trkpt>
      <trkpt lat="43.78983" lon="5.14415">
        <ele>404</ele>
        <time>2016-03-03T12:47:34Z</time>
      </trkpt>
      <trkpt lat="43.78985" lon="5.14393">
        <ele>406</ele>
        <time>2016-03-03T12:47:51Z</time>
      </trkpt>
      <trkpt lat="43.78985" lon="5.14388">
        <ele>406</ele>
        <time>2016-03-03T12:48:10Z</time>
      </trkpt>
      <trkpt lat="43.78982" lon="5.14376">
        <ele>407</ele>
        <time>2016-03-03T12:48:20Z</time>
      </trkpt>
      <trkpt lat="43.78979" lon="5.14356">
        <ele>409</ele>
        <time>2016-03-03T12:48:36Z</time>
      </trkpt>
      <trkpt lat="43.78973" lon="5.14335">
        <ele>411</ele>
        <time>2016-03-03T12:48:51Z</time>
      </trkpt>
      <trkpt lat="43.7897" lon="5.14319">
        <ele>411</ele>
        <time>2016-03-03T12:49:05Z</time>
      </trkpt>
      <trkpt lat="43.78985" lon="5.14286">
        <ele>412</ele>
        <time>2016-03-03T12:49:40Z</time>
      </trkpt>
      <trkpt lat="43.78983" lon="5.14288">
        <ele>414</ele>
        <time>2016-03-03T12:49:42Z</time>
      </trkpt>
      <trkpt lat="43.78984" lon="5.14285">
        <ele>410</ele>
        <time>2016-03-03T12:49:53Z</time>
      </trkpt>
      <trkpt lat="43.78984" lon="5.14285">
        <ele>410</ele>
        <time>2016-03-03T12:49:54Z</time>
      </trkpt>
      <trkpt lat="43.78987" lon="5.14281">
        <ele>411</ele>
        <time>2016-03-03T12:50:04Z</time>
      </trkpt>
      <trkpt lat="43.78992" lon="5.14279">
        <ele>413</ele>
        <time>2016-03-03T12:50:15Z</time>
      </trkpt>
      <trkpt lat="43.78994" lon="5.14275">
        <ele>410</ele>
        <time>2016-03-03T12:50:21Z</time>
      </trkpt>
      <trkpt lat="43.79006" lon="5.1426">
        <ele>412</ele>
        <time>2016-03-03T12:50:39Z</time>
      </trkpt>
      <trkpt lat="43.79014" lon="5.14254">
        <ele>415</ele>
        <time>2016-03-03T12:50:46Z</time>
      </trkpt>
      <trkpt lat="43.79014" lon="5.14248">
        <ele>416</ele>
        <time>2016-03-03T12:50:50Z</time>
      </trkpt>
      <trkpt lat="43.79014" lon="5.14245">
        <ele>415</ele>
        <time>2016-03-03T12:50:52Z</time>
      </trkpt>
      <trkpt lat="43.79019" lon="5.1423">
        <ele>416</ele>
        <time>2016-03-03T12:51:05Z</time>
      </trkpt>
      <trkpt lat="43.79023" lon="5.1422">
        <ele>416</ele>
        <time>2016-03-03T12:51:14Z</time>
      </trkpt>
      <trkpt lat="43.79026" lon="5.1421">
        <ele>416</ele>
        <time>2016-03-03T12:51:21Z</time>
      </trkpt>
      <trkpt lat="43.79028" lon="5.14194">
        <ele>417</ele>
        <time>2016-03-03T12:51:33Z</time>
      </trkpt>
      <trkpt lat="43.7903" lon="5.14189">
        <ele>418</ele>
        <time>2016-03-03T12:51:37Z</time>
      </trkpt>
      <trkpt lat="43.79033" lon="5.14183">
        <ele>417</ele>
        <time>2016-03-03T12:51:43Z</time>
      </trkpt>
      <trkpt lat="43.79041" lon="5.14176">
        <ele>419</ele>
        <time>2016-03-03T12:51:52Z</time>
      </trkpt>
      <trkpt lat="43.79042" lon="5.14176">
        <ele>420</ele>
        <time>2016-03-03T12:51:54Z</time>
      </trkpt>
      <trkpt lat="43.79047" lon="5.14176">
        <ele>420</ele>
        <time>2016-03-03T12:52:02Z</time>
      </trkpt>
      <trkpt lat="43.79049" lon="5.14176">
        <ele>419</ele>
        <time>2016-03-03T12:52:04Z</time>
      </trkpt>
      <trkpt lat="43.79075" lon="5.14179">
        <ele>422</ele>
        <time>2016-03-03T12:52:29Z</time>
      </trkpt>
      <trkpt lat="43.7908" lon="5.1418">
        <ele>421</ele>
        <time>2016-03-03T12:52:35Z</time>
      </trkpt>
      <trkpt lat="43.79093" lon="5.14183">
        <ele>422</ele>
        <time>2016-03-03T12:52:48Z</time>
      </trkpt>
      <trkpt lat="43.79104" lon="5.14185">
        <ele>421</ele>
        <time>2016-03-03T12:53:01Z</time>
      </trkpt>
      <trkpt lat="43.79112" lon="5.14186">
        <ele>419</ele>
        <time>2016-03-03T12:53:08Z</time>
      </trkpt>
      <trkpt lat="43.79116" lon="5.14186">
        <ele>422</ele>
        <time>2016-03-03T12:53:12Z</time>
      </trkpt>
      <trkpt lat="43.79121" lon="5.14189">
        <ele>424</ele>
        <time>2016-03-03T12:53:17Z</time>
      </trkpt>
      <trkpt lat="43.79123" lon="5.14192">
        <ele>424</ele>
        <time>2016-03-03T12:53:20Z</time>
      </trkpt>
      <trkpt lat="43.79125" lon="5.14193">
        <ele>424</ele>
        <time>2016-03-03T12:53:22Z</time>
      </trkpt>
      <trkpt lat="43.79134" lon="5.14199">
        <ele>425</ele>
        <time>2016-03-03T12:53:33Z</time>
      </trkpt>
      <trkpt lat="43.79143" lon="5.14209">
        <ele>424</ele>
        <time>2016-03-03T12:53:45Z</time>
      </trkpt>
      <trkpt lat="43.79155" lon="5.1422">
        <ele>425</ele>
        <time>2016-03-03T12:53:57Z</time>
      </trkpt>
      <trkpt lat="43.79163" lon="5.14223">
        <ele>425</ele>
        <time>2016-03-03T12:54:06Z</time>
      </trkpt>
      <trkpt lat="43.79166" lon="5.14227">
        <ele>425</ele>
        <time>2016-03-03T12:54:11Z</time>
      </trkpt>
      <trkpt lat="43.79168" lon="5.1423">
        <ele>424</ele>
        <time>2016-03-03T12:54:15Z</time>
      </trkpt>
      <trkpt lat="43.79186" lon="5.14235">
        <ele>425</ele>
        <time>2016-03-03T12:54:31Z</time>
      </trkpt>
      <trkpt lat="43.79205" lon="5.14232">
        <ele>425</ele>
        <time>2016-03-03T12:54:51Z</time>
      </trkpt>
      <trkpt lat="43.79215" lon="5.14223">
        <ele>426</ele>
        <time>2016-03-03T12:55:04Z</time>
      </trkpt>
      <trkpt lat="43.79219" lon="5.14221">
        <ele>426</ele>
        <time>2016-03-03T12:55:07Z</time>
      </trkpt>
      <trkpt lat="43.79221" lon="5.14219">
        <ele>427</ele>
        <time>2016-03-03T12:55:09Z</time>
      </trkpt>
      <trkpt lat="43.79229" lon="5.14203">
        <ele>427</ele>
        <time>2016-03-03T12:55:23Z</time>
      </trkpt>
      <trkpt lat="43.79234" lon="5.14195">
        <ele>427</ele>
        <time>2016-03-03T12:55:32Z</time>
      </trkpt>
      <trkpt lat="43.79236" lon="5.14186">
        <ele>427</ele>
        <time>2016-03-03T12:55:39Z</time>
      </trkpt>
      <trkpt lat="43.79243" lon="5.14169">
        <ele>428</ele>
        <time>2016-03-03T12:55:53Z</time>
      </trkpt>
      <trkpt lat="43.79247" lon="5.1416">
        <ele>428</ele>
        <time>2016-03-03T12:56:00Z</time>
      </trkpt>
      <trkpt lat="43.79248" lon="5.14156">
        <ele>429</ele>
        <time>2016-03-03T12:56:03Z</time>
      </trkpt>
      <trkpt lat="43.79248" lon="5.14144">
        <ele>429</ele>
        <time>2016-03-03T12:56:12Z</time>
      </trkpt>
      <trkpt lat="43.79249" lon="5.1414">
        <ele>429</ele>
        <time>2016-03-03T12:56:15Z</time>
      </trkpt>
      <trkpt lat="43.7925" lon="5.14134">
        <ele>429</ele>
        <time>2016-03-03T12:56:19Z</time>
      </trkpt>
      <trkpt lat="43.7925" lon="5.14131">
        <ele>430</ele>
        <time>2016-03-03T12:56:21Z</time>
      </trkpt>
      <trkpt lat="43.79249" lon="5.14121">
        <ele>430</ele>
        <time>2016-03-03T12:56:29Z</time>
      </trkpt>
      <trkpt lat="43.7925" lon="5.14116">
        <ele>429</ele>
        <time>2016-03-03T12:56:32Z</time>
      </trkpt>
      <trkpt lat="43.79252" lon="5.141">
        <ele>431</ele>
        <time>2016-03-03T12:56:44Z</time>
      </trkpt>
      <trkpt lat="43.79253" lon="5.14092">
        <ele>431</ele>
        <time>2016-03-03T12:56:50Z</time>
      </trkpt>
      <trkpt lat="43.79254" lon="5.14086">
        <ele>432</ele>
        <time>2016-03-03T12:56:55Z</time>
      </trkpt>
      <trkpt lat="43.79255" lon="5.14082">
        <ele>433</ele>
        <time>2016-03-03T12:56:59Z</time>
      </trkpt>
      <trkpt lat="43.79256" lon="5.14079">
        <ele>433</ele>
        <time>2016-03-03T12:57:01Z</time>
      </trkpt>
      <trkpt lat="43.79259" lon="5.14071">
        <ele>433</ele>
        <time>2016-03-03T12:57:07Z</time>
      </trkpt>
      <trkpt lat="43.79268" lon="5.14056">
        <ele>431</ele>
        <time>2016-03-03T12:57:19Z</time>
      </trkpt>
      <trkpt lat="43.79272" lon="5.14045">
        <ele>434</ele>
        <time>2016-03-03T12:57:28Z</time>
      </trkpt>
      <trkpt lat="43.79275" lon="5.14026">
        <ele>435</ele>
        <time>2016-03-03T12:57:41Z</time>
      </trkpt>
      <trkpt lat="43.79274" lon="5.14013">
        <ele>434</ele>
        <time>2016-03-03T12:57:52Z</time>
      </trkpt>
      <trkpt lat="43.79261" lon="5.13995">
        <ele>434</ele>
        <time>2016-03-03T12:58:08Z</time>
      </trkpt>
      <trkpt lat="43.79259" lon="5.13991">
        <ele>434</ele>
        <time>2016-03-03T12:58:11Z</time>
      </trkpt>
      <trkpt lat="43.79258" lon="5.13989">
        <ele>434</ele>
        <time>2016-03-03T12:58:13Z</time>
      </trkpt>
      <trkpt lat="43.79246" lon="5.13969">
        <ele>434</ele>
        <time>2016-03-03T12:58:29Z</time>
      </trkpt>
      <trkpt lat="43.79243" lon="5.13965">
        <ele>433</ele>
        <time>2016-03-03T12:58:33Z</time>
      </trkpt>
      <trkpt lat="43.79232" lon="5.13949">
        <ele>433</ele>
        <time>2016-03-03T12:58:49Z</time>
      </trkpt>
      <trkpt lat="43.79232" lon="5.13948">
        <ele>433</ele>
        <time>2016-03-03T12:58:50Z</time>
      </trkpt>
      <trkpt lat="43.7923" lon="5.1394">
        <ele>431</ele>
        <time>2016-03-03T12:58:55Z</time>
      </trkpt>
      <trkpt lat="43.7923" lon="5.13932">
        <ele>432</ele>
        <time>2016-03-03T12:59:00Z</time>
      </trkpt>
      <trkpt lat="43.79231" lon="5.13929">
        <ele>434</ele>
        <time>2016-03-03T12:59:04Z</time>
      </trkpt>
      <trkpt lat="43.79233" lon="5.13924">
        <ele>432</ele>
        <time>2016-03-03T12:59:08Z</time>
      </trkpt>
      <trkpt lat="43.79234" lon="5.13918">
        <ele>433</ele>
        <time>2016-03-03T12:59:12Z</time>
      </trkpt>
      <trkpt lat="43.79235" lon="5.13912">
        <ele>431</ele>
        <time>2016-03-03T12:59:16Z</time>
      </trkpt>
      <trkpt lat="43.79236" lon="5.13887">
        <ele>432</ele>
        <time>2016-03-03T12:59:32Z</time>
      </trkpt>
      <trkpt lat="43.79236" lon="5.13886">
        <ele>432</ele>
        <time>2016-03-03T12:59:33Z</time>
      </trkpt>
      <trkpt lat="43.79236" lon="5.13875">
        <ele>432</ele>
        <time>2016-03-03T12:59:42Z</time>
      </trkpt>
      <trkpt lat="43.79231" lon="5.13854">
        <ele>432</ele>
        <time>2016-03-03T12:59:56Z</time>
      </trkpt>
      <trkpt lat="43.79226" lon="5.13837">
        <ele>432</ele>
        <time>2016-03-03T13:00:11Z</time>
      </trkpt>
      <trkpt lat="43.79229" lon="5.13824">
        <ele>431</ele>
        <time>2016-03-03T13:00:23Z</time>
      </trkpt>
      <trkpt lat="43.79232" lon="5.13822">
        <ele>431</ele>
        <time>2016-03-03T13:00:26Z</time>
      </trkpt>
      <trkpt lat="43.79251" lon="5.13813">
        <ele>430</ele>
        <time>2016-03-03T13:00:44Z</time>
      </trkpt>
      <trkpt lat="43.79265" lon="5.13798">
        <ele>431</ele>
        <time>2016-03-03T13:01:02Z</time>
      </trkpt>
      <trkpt lat="43.79281" lon="5.1378">
        <ele>431</ele>
        <time>2016-03-03T13:01:19Z</time>
      </trkpt>
      <trkpt lat="43.7928" lon="5.13761">
        <ele>432</ele>
        <time>2016-03-03T13:01:32Z</time>
      </trkpt>
      <trkpt lat="43.79281" lon="5.13748">
        <ele>430</ele>
        <time>2016-03-03T13:01:41Z</time>
      </trkpt>
      <trkpt lat="43.79282" lon="5.13729">
        <ele>429</ele>
        <time>2016-03-03T13:01:55Z</time>
      </trkpt>
      <trkpt lat="43.79286" lon="5.13716">
        <ele>427</ele>
        <time>2016-03-03T13:02:05Z</time>
      </trkpt>
      <trkpt lat="43.79295" lon="5.13718">
        <ele>427</ele>
        <time>2016-03-03T13:02:16Z</time>
      </trkpt>
      <trkpt lat="43.79303" lon="5.13723">
        <ele>426</ele>
        <time>2016-03-03T13:02:25Z</time>
      </trkpt>
      <trkpt lat="43.79307" lon="5.13726">
        <ele>426</ele>
        <time>2016-03-03T13:02:31Z</time>
      </trkpt>
      <trkpt lat="43.79326" lon="5.13733">
        <ele>425</ele>
        <time>2016-03-03T13:02:50Z</time>
      </trkpt>
      <trkpt lat="43.79333" lon="5.13734">
        <ele>423</ele>
        <time>2016-03-03T13:02:57Z</time>
      </trkpt>
      <trkpt lat="43.7935" lon="5.13739">
        <ele>422</ele>
        <time>2016-03-03T13:03:16Z</time>
      </trkpt>
      <trkpt lat="43.79359" lon="5.1374">
        <ele>421</ele>
        <time>2016-03-03T13:03:22Z</time>
      </trkpt>
      <trkpt lat="43.79367" lon="5.13742">
        <ele>421</ele>
        <time>2016-03-03T13:03:29Z</time>
      </trkpt>
      <trkpt lat="43.79388" lon="5.13739">
        <ele>421</ele>
        <time>2016-03-03T13:03:48Z</time>
      </trkpt>
      <trkpt lat="43.79406" lon="5.13723">
        <ele>417</ele>
        <time>2016-03-03T13:04:06Z</time>
      </trkpt>
      <trkpt lat="43.79409" lon="5.13719">
        <ele>417</ele>
        <time>2016-03-03T13:04:10Z</time>
      </trkpt>
      <trkpt lat="43.79427" lon="5.13704">
        <ele>415</ele>
        <time>2016-03-03T13:04:27Z</time>
      </trkpt>
      <trkpt lat="43.79438" lon="5.13696">
        <ele>414</ele>
        <time>2016-03-03T13:04:41Z</time>
      </trkpt>
      <trkpt lat="43.79443" lon="5.13686">
        <ele>415</ele>
        <time>2016-03-03T13:04:50Z</time>
      </trkpt>
      <trkpt lat="43.79447" lon="5.13668">
        <ele>414</ele>
        <time>2016-03-03T13:05:02Z</time>
      </trkpt>
      <trkpt lat="43.79441" lon="5.13646">
        <ele>415</ele>
        <time>2016-03-03T13:05:16Z</time>
      </trkpt>
      <trkpt lat="43.79431" lon="5.13627">
        <ele>416</ele>
        <time>2016-03-03T13:05:31Z</time>
      </trkpt>
      <trkpt lat="43.79418" lon="5.13611">
        <ele>416</ele>
        <time>2016-03-03T13:05:47Z</time>
      </trkpt>
      <trkpt lat="43.7941" lon="5.13593">
        <ele>416</ele>
        <time>2016-03-03T13:06:02Z</time>
      </trkpt>
      <trkpt lat="43.79405" lon="5.13583">
        <ele>417</ele>
        <time>2016-03-03T13:06:10Z</time>
      </trkpt>
      <trkpt lat="43.79405" lon="5.1358">
        <ele>416</ele>
        <time>2016-03-03T13:06:12Z</time>
      </trkpt>
      <trkpt lat="43.79403" lon="5.13575">
        <ele>416</ele>
        <time>2016-03-03T13:06:16Z</time>
      </trkpt>
      <trkpt lat="43.79401" lon="5.1356">
        <ele>416</ele>
        <time>2016-03-03T13:06:27Z</time>
      </trkpt>
      <trkpt lat="43.79399" lon="5.13553">
        <ele>416</ele>
        <time>2016-03-03T13:06:32Z</time>
      </trkpt>
      <trkpt lat="43.79399" lon="5.13538">
        <ele>416</ele>
        <time>2016-03-03T13:06:42Z</time>
      </trkpt>
      <trkpt lat="43.79399" lon="5.13533">
        <ele>416</ele>
        <time>2016-03-03T13:06:45Z</time>
      </trkpt>
      <trkpt lat="43.79403" lon="5.13525">
        <ele>416</ele>
        <time>2016-03-03T13:06:52Z</time>
      </trkpt>
      <trkpt lat="43.79406" lon="5.13523">
        <ele>416</ele>
        <time>2016-03-03T13:06:54Z</time>
      </trkpt>
      <trkpt lat="43.79417" lon="5.13508">
        <ele>415</ele>
        <time>2016-03-03T13:07:09Z</time>
      </trkpt>
      <trkpt lat="43.79419" lon="5.13503">
        <ele>417</ele>
        <time>2016-03-03T13:07:12Z</time>
      </trkpt>
      <trkpt lat="43.79422" lon="5.13495">
        <ele>416</ele>
        <time>2016-03-03T13:07:18Z</time>
      </trkpt>
      <trkpt lat="43.79424" lon="5.13488">
        <ele>415</ele>
        <time>2016-03-03T13:07:23Z</time>
      </trkpt>
      <trkpt lat="43.79433" lon="5.13474">
        <ele>417</ele>
        <time>2016-03-03T13:07:35Z</time>
      </trkpt>
      <trkpt lat="43.79448" lon="5.13458">
        <ele>417</ele>
        <time>2016-03-03T13:07:53Z</time>
      </trkpt>
      <trkpt lat="43.79461" lon="5.13457">
        <ele>416</ele>
        <time>2016-03-03T13:08:06Z</time>
      </trkpt>
      <trkpt lat="43.79465" lon="5.13456">
        <ele>414</ele>
        <time>2016-03-03T13:08:09Z</time>
      </trkpt>
      <trkpt lat="43.7947" lon="5.13457">
        <ele>415</ele>
        <time>2016-03-03T13:08:16Z</time>
      </trkpt>
      <trkpt lat="43.79489" lon="5.13459">
        <ele>417</ele>
        <time>2016-03-03T13:08:33Z</time>
      </trkpt>
      <trkpt lat="43.79504" lon="5.13448">
        <ele>419</ele>
        <time>2016-03-03T13:08:49Z</time>
      </trkpt>
      <trkpt lat="43.79515" lon="5.13432">
        <ele>420</ele>
        <time>2016-03-03T13:09:00Z</time>
      </trkpt>
      <trkpt lat="43.79514" lon="5.13427">
        <ele>421</ele>
        <time>2016-03-03T13:09:05Z</time>
      </trkpt>
      <trkpt lat="43.79501" lon="5.1341">
        <ele>422</ele>
        <time>2016-03-03T13:09:19Z</time>
      </trkpt>
      <trkpt lat="43.79489" lon="5.13392">
        <ele>422</ele>
        <time>2016-03-03T13:09:35Z</time>
      </trkpt>
      <trkpt lat="43.79478" lon="5.13375">
        <ele>423</ele>
        <time>2016-03-03T13:09:52Z</time>
      </trkpt>
      <trkpt lat="43.7947" lon="5.13357">
        <ele>425</ele>
        <time>2016-03-03T13:10:07Z</time>
      </trkpt>
      <trkpt lat="43.79462" lon="5.13343">
        <ele>426</ele>
        <time>2016-03-03T13:10:20Z</time>
      </trkpt>
      <trkpt lat="43.79461" lon="5.13341">
        <ele>427</ele>
        <time>2016-03-03T13:10:22Z</time>
      </trkpt>
      <trkpt lat="43.79457" lon="5.13333">
        <ele>427</ele>
        <time>2016-03-03T13:10:29Z</time>
      </trkpt>
      <trkpt lat="43.79451" lon="5.13316">
        <ele>428</ele>
        <time>2016-03-03T13:10:45Z</time>
      </trkpt>
      <trkpt lat="43.79446" lon="5.13296">
        <ele>430</ele>
        <time>2016-03-03T13:11:00Z</time>
      </trkpt>
      <trkpt lat="43.79453" lon="5.13281">
        <ele>431</ele>
        <time>2016-03-03T13:11:15Z</time>
      </trkpt>
      <trkpt lat="43.79453" lon="5.13273">
        <ele>433</ele>
        <time>2016-03-03T13:11:29Z</time>
      </trkpt>
      <trkpt lat="43.79453" lon="5.13275">
        <ele>434</ele>
        <time>2016-03-03T13:11:48Z</time>
      </trkpt>
      <trkpt lat="43.79452" lon="5.13275">
        <ele>434</ele>
        <time>2016-03-03T13:12:11Z</time>
      </trkpt>
      <trkpt lat="43.79455" lon="5.13273">
        <ele>433</ele>
        <time>2016-03-03T13:12:19Z</time>
      </trkpt>
      <trkpt lat="43.79451" lon="5.13277">
        <ele>434</ele>
        <time>2016-03-03T13:12:39Z</time>
      </trkpt>
      <trkpt lat="43.79452" lon="5.13278">
        <ele>435</ele>
        <time>2016-03-03T13:12:55Z</time>
      </trkpt>
      <trkpt lat="43.79452" lon="5.13278">
        <ele>436</ele>
        <time>2016-03-03T13:13:15Z</time>
      </trkpt>
      <trkpt lat="43.79451" lon="5.13275">
        <ele>434</ele>
        <time>2016-03-03T13:13:30Z</time>
      </trkpt>
      <trkpt lat="43.79451" lon="5.13275">
        <ele>434</ele>
        <time>2016-03-03T13:13:50Z</time>
      </trkpt>
      <trkpt lat="43.79451" lon="5.13273">
        <ele>434</ele>
        <time>2016-03-03T13:14:08Z</time>
      </trkpt>
      <trkpt lat="43.79452" lon="5.13273">
        <ele>435</ele>
        <time>2016-03-03T13:14:27Z</time>
      </trkpt>
      <trkpt lat="43.79452" lon="5.13273">
        <ele>434</ele>
        <time>2016-03-03T13:14:45Z</time>
      </trkpt>
      <trkpt lat="43.79452" lon="5.13273">
        <ele>434</ele>
        <time>2016-03-03T13:15:10Z</time>
      </trkpt>
      <trkpt lat="43.79452" lon="5.13272">
        <ele>434</ele>
        <time>2016-03-03T13:15:37Z</time>
      </trkpt>
      <trkpt lat="43.79452" lon="5.13272">
        <ele>433</ele>
        <time>2016-03-03T13:16:01Z</time>
      </trkpt>
      <trkpt lat="43.79452" lon="5.13272">
        <ele>433</ele>
        <time>2016-03-03T13:16:20Z</time>
      </trkpt>
      <trkpt lat="43.79452" lon="5.13272">
        <ele>432</ele>
        <time>2016-03-03T13:16:45Z</time>
      </trkpt>
      <trkpt lat="43.79453" lon="5.13272">
        <ele>431</ele>
        <time>2016-03-03T13:17:12Z</time>
      </trkpt>
      <trkpt lat="43.79446" lon="5.13264">
        <ele>432</ele>
        <time>2016-03-03T13:17:26Z</time>
      </trkpt>
      <trkpt lat="43.7944" lon="5.13259">
        <ele>430</ele>
        <time>2016-03-03T13:17:32Z</time>
      </trkpt>
      <trkpt lat="43.79435" lon="5.13255">
        <ele>430</ele>
        <time>2016-03-03T13:17:37Z</time>
      </trkpt>
      <trkpt lat="43.79428" lon="5.13249">
        <ele>429</ele>
        <time>2016-03-03T13:17:45Z</time>
      </trkpt>
      <trkpt lat="43.79417" lon="5.13243">
        <ele>429</ele>
        <time>2016-03-03T13:17:58Z</time>
      </trkpt>
      <trkpt lat="43.79399" lon="5.13236">
        <ele>429</ele>
        <time>2016-03-03T13:18:13Z</time>
      </trkpt>
      <trkpt lat="43.79386" lon="5.13235">
        <ele>428</ele>
        <time>2016-03-03T13:18:28Z</time>
      </trkpt>
      <trkpt lat="43.79369" lon="5.13234">
        <ele>428</ele>
        <time>2016-03-03T13:18:43Z</time>
      </trkpt>
      <trkpt lat="43.79359" lon="5.13247">
        <ele>428</ele>
        <time>2016-03-03T13:18:57Z</time>
      </trkpt>
      <trkpt lat="43.79354" lon="5.13254">
        <ele>428</ele>
        <time>2016-03-03T13:19:10Z</time>
      </trkpt>
      <trkpt lat="43.79342" lon="5.13265">
        <ele>428</ele>
        <time>2016-03-03T13:19:25Z</time>
      </trkpt>
      <trkpt lat="43.7934" lon="5.13268">
        <ele>428</ele>
        <time>2016-03-03T13:19:29Z</time>
      </trkpt>
      <trkpt lat="43.79327" lon="5.13277">
        <ele>426</ele>
        <time>2016-03-03T13:19:44Z</time>
      </trkpt>
      <trkpt lat="43.79313" lon="5.13296">
        <ele>425</ele>
        <time>2016-03-03T13:20:04Z</time>
      </trkpt>
      <trkpt lat="43.79308" lon="5.13301">
        <ele>424</ele>
        <time>2016-03-03T13:20:09Z</time>
      </trkpt>
      <trkpt lat="43.79295" lon="5.13313">
        <ele>423</ele>
        <time>2016-03-03T13:20:25Z</time>
      </trkpt>
      <trkpt lat="43.79287" lon="5.13316">
        <ele>423</ele>
        <time>2016-03-03T13:20:32Z</time>
      </trkpt>
      <trkpt lat="43.79282" lon="5.13316">
        <ele>423</ele>
        <time>2016-03-03T13:20:36Z</time>
      </trkpt>
      <trkpt lat="43.79266" lon="5.13321">
        <ele>420</ele>
        <time>2016-03-03T13:20:51Z</time>
      </trkpt>
      <trkpt lat="43.79263" lon="5.1332">
        <ele>421</ele>
        <time>2016-03-03T13:20:55Z</time>
      </trkpt>
      <trkpt lat="43.79261" lon="5.13319">
        <ele>420</ele>
        <time>2016-03-03T13:20:57Z</time>
      </trkpt>
      <trkpt lat="43.79246" lon="5.13315">
        <ele>420</ele>
        <time>2016-03-03T13:21:14Z</time>
      </trkpt>
      <trkpt lat="43.7923" lon="5.13308">
        <ele>419</ele>
        <time>2016-03-03T13:21:30Z</time>
      </trkpt>
      <trkpt lat="43.7921" lon="5.13303">
        <ele>417</ele>
        <time>2016-03-03T13:21:49Z</time>
      </trkpt>
      <trkpt lat="43.79195" lon="5.13304">
        <ele>416</ele>
        <time>2016-03-03T13:22:05Z</time>
      </trkpt>
      <trkpt lat="43.7918" lon="5.13306">
        <ele>416</ele>
        <time>2016-03-03T13:22:21Z</time>
      </trkpt>
      <trkpt lat="43.79179" lon="5.13297">
        <ele>416</ele>
        <time>2016-03-03T13:22:30Z</time>
      </trkpt>
      <trkpt lat="43.79174" lon="5.13282">
        <ele>415</ele>
        <time>2016-03-03T13:22:44Z</time>
      </trkpt>
      <trkpt lat="43.79168" lon="5.13264">
        <ele>415</ele>
        <time>2016-03-03T13:22:58Z</time>
      </trkpt>
      <trkpt lat="43.79168" lon="5.13262">
        <ele>414</ele>
        <time>2016-03-03T13:22:59Z</time>
      </trkpt>
      <trkpt lat="43.79164" lon="5.13252">
        <ele>414</ele>
        <time>2016-03-03T13:23:07Z</time>
      </trkpt>
      <trkpt lat="43.79148" lon="5.13239">
        <ele>413</ele>
        <time>2016-03-03T13:23:22Z</time>
      </trkpt>
      <trkpt lat="43.79134" lon="5.13229">
        <ele>412</ele>
        <time>2016-03-03T13:23:39Z</time>
      </trkpt>
      <trkpt lat="43.79118" lon="5.13224">
        <ele>409</ele>
        <time>2016-03-03T13:23:54Z</time>
      </trkpt>
      <trkpt lat="43.79104" lon="5.13216">
        <ele>407</ele>
        <time>2016-03-03T13:24:10Z</time>
      </trkpt>
      <trkpt lat="43.79091" lon="5.13213">
        <ele>405</ele>
        <time>2016-03-03T13:24:23Z</time>
      </trkpt>
      <trkpt lat="43.79086" lon="5.1321">
        <ele>404</ele>
        <time>2016-03-03T13:24:29Z</time>
      </trkpt>
      <trkpt lat="43.79074" lon="5.13195">
        <ele>403</ele>
        <time>2016-03-03T13:24:46Z</time>
      </trkpt>
      <trkpt lat="43.79064" lon="5.13186">
        <ele>400</ele>
        <time>2016-03-03T13:25:00Z</time>
      </trkpt>
      <trkpt lat="43.7905" lon="5.13174">
        <ele>397</ele>
        <time>2016-03-03T13:25:16Z</time>
      </trkpt>
      <trkpt lat="43.79037" lon="5.13164">
        <ele>395</ele>
        <time>2016-03-03T13:25:32Z</time>
      </trkpt>
      <trkpt lat="43.79029" lon="5.13154">
        <ele>393</ele>
        <time>2016-03-03T13:25:43Z</time>
      </trkpt>
      <trkpt lat="43.79021" lon="5.13146">
        <ele>393</ele>
        <time>2016-03-03T13:25:52Z</time>
      </trkpt>
      <trkpt lat="43.79016" lon="5.13145">
        <ele>392</ele>
        <time>2016-03-03T13:25:56Z</time>
      </trkpt>
      <trkpt lat="43.79002" lon="5.1315">
        <ele>389</ele>
        <time>2016-03-03T13:26:12Z</time>
      </trkpt>
      <trkpt lat="43.79" lon="5.13153">
        <ele>390</ele>
        <time>2016-03-03T13:26:29Z</time>
      </trkpt>
      <trkpt lat="43.78997" lon="5.13153">
        <ele>389</ele>
        <time>2016-03-03T13:26:34Z</time>
      </trkpt>
      <trkpt lat="43.78991" lon="5.13153">
        <ele>388</ele>
        <time>2016-03-03T13:26:42Z</time>
      </trkpt>
      <trkpt lat="43.78978" lon="5.13148">
        <ele>385</ele>
        <time>2016-03-03T13:26:57Z</time>
      </trkpt>
      <trkpt lat="43.78973" lon="5.13146">
        <ele>384</ele>
        <time>2016-03-03T13:27:01Z</time>
      </trkpt>
      <trkpt lat="43.78959" lon="5.1314">
        <ele>383</ele>
        <time>2016-03-03T13:27:16Z</time>
      </trkpt>
      <trkpt lat="43.78948" lon="5.13134">
        <ele>382</ele>
        <time>2016-03-03T13:27:26Z</time>
      </trkpt>
      <trkpt lat="43.78934" lon="5.13132">
        <ele>379</ele>
        <time>2016-03-03T13:27:40Z</time>
      </trkpt>
      <trkpt lat="43.78928" lon="5.13132">
        <ele>379</ele>
        <time>2016-03-03T13:27:46Z</time>
      </trkpt>
      <trkpt lat="43.7891" lon="5.13126">
        <ele>377</ele>
        <time>2016-03-03T13:28:02Z</time>
      </trkpt>
      <trkpt lat="43.78895" lon="5.13122">
        <ele>375</ele>
        <time>2016-03-03T13:28:19Z</time>
      </trkpt>
      <trkpt lat="43.78877" lon="5.13115">
        <ele>374</ele>
        <time>2016-03-03T13:28:35Z</time>
      </trkpt>
      <trkpt lat="43.78863" lon="5.13111">
        <ele>372</ele>
        <time>2016-03-03T13:28:50Z</time>
      </trkpt>
      <trkpt lat="43.78847" lon="5.13106">
        <ele>370</ele>
        <time>2016-03-03T13:29:05Z</time>
      </trkpt>
      <trkpt lat="43.78838" lon="5.13104">
        <ele>369</ele>
        <time>2016-03-03T13:29:13Z</time>
      </trkpt>
      <trkpt lat="43.78835" lon="5.13103">
        <ele>369</ele>
        <time>2016-03-03T13:29:17Z</time>
      </trkpt>
      <trkpt lat="43.78819" lon="5.13094">
        <ele>367</ele>
        <time>2016-03-03T13:29:33Z</time>
      </trkpt>
      <trkpt lat="43.78809" lon="5.13092">
        <ele>367</ele>
        <time>2016-03-03T13:29:42Z</time>
      </trkpt>
      <trkpt lat="43.78806" lon="5.1309">
        <ele>367</ele>
        <time>2016-03-03T13:29:47Z</time>
      </trkpt>
      <trkpt lat="43.78802" lon="5.13091">
        <ele>367</ele>
        <time>2016-03-03T13:29:51Z</time>
      </trkpt>
      <trkpt lat="43.78799" lon="5.1309">
        <ele>366</ele>
        <time>2016-03-03T13:30:07Z</time>
      </trkpt>
      <trkpt lat="43.78799" lon="5.1309">
        <ele>366</ele>
        <time>2016-03-03T13:30:09Z</time>
      </trkpt>
      <trkpt lat="43.78791" lon="5.1309">
        <ele>366</ele>
        <time>2016-03-03T13:30:22Z</time>
      </trkpt>
      <trkpt lat="43.78781" lon="5.13093">
        <ele>365</ele>
        <time>2016-03-03T13:30:36Z</time>
      </trkpt>
      <trkpt lat="43.78773" lon="5.13097">
        <ele>364</ele>
        <time>2016-03-03T13:30:46Z</time>
      </trkpt>
      <trkpt lat="43.78769" lon="5.13106">
        <ele>364</ele>
        <time>2016-03-03T13:31:01Z</time>
      </trkpt>
      <trkpt lat="43.78768" lon="5.13105">
        <ele>364</ele>
        <time>2016-03-03T13:31:17Z</time>
      </trkpt>
      <trkpt lat="43.78764" lon="5.13102">
        <ele>364</ele>
        <time>2016-03-03T13:31:21Z</time>
      </trkpt>
      <trkpt lat="43.78749" lon="5.13105">
        <ele>363</ele>
        <time>2016-03-03T13:31:39Z</time>
      </trkpt>
      <trkpt lat="43.78733" lon="5.13106">
        <ele>362</ele>
        <time>2016-03-03T13:31:55Z</time>
      </trkpt>
      <trkpt lat="43.78715" lon="5.13113">
        <ele>360</ele>
        <time>2016-03-03T13:32:15Z</time>
      </trkpt>
      <trkpt lat="43.78694" lon="5.13112">
        <ele>359</ele>
        <time>2016-03-03T13:32:35Z</time>
      </trkpt>
      <trkpt lat="43.78676" lon="5.13112">
        <ele>358</ele>
        <time>2016-03-03T13:32:53Z</time>
      </trkpt>
      <trkpt lat="43.78661" lon="5.13111">
        <ele>357</ele>
        <time>2016-03-03T13:33:10Z</time>
      </trkpt>
      <trkpt lat="43.78646" lon="5.13114">
        <ele>356</ele>
        <time>2016-03-03T13:33:25Z</time>
      </trkpt>
      <trkpt lat="43.7863" lon="5.13118">
        <ele>354</ele>
        <time>2016-03-03T13:33:42Z</time>
      </trkpt>
      <trkpt lat="43.78618" lon="5.13119">
        <ele>353</ele>
        <time>2016-03-03T13:33:53Z</time>
      </trkpt>
      <trkpt lat="43.78607" lon="5.13119">
        <ele>353</ele>
        <time>2016-03-03T13:34:07Z</time>
      </trkpt>
      <trkpt lat="43.78597" lon="5.13118">
        <ele>353</ele>
        <time>2016-03-03T13:34:22Z</time>
      </trkpt>
      <trkpt lat="43.78583" lon="5.1312">
        <ele>352</ele>
        <time>2016-03-03T13:34:39Z</time>
      </trkpt>
      <trkpt lat="43.78566" lon="5.13126">
        <ele>353</ele>
        <time>2016-03-03T13:35:01Z</time>
      </trkpt>
      <trkpt lat="43.7857" lon="5.13111">
        <ele>351</ele>
        <time>2016-03-03T13:35:17Z</time>
      </trkpt>
      <trkpt lat="43.78569" lon="5.131">
        <ele>351</ele>
        <time>2016-03-03T13:35:26Z</time>
      </trkpt>
      <trkpt lat="43.78564" lon="5.1309">
        <ele>351</ele>
        <time>2016-03-03T13:35:41Z</time>
      </trkpt>
      <trkpt lat="43.78564" lon="5.13089">
        <ele>352</ele>
        <time>2016-03-03T13:35:59Z</time>
      </trkpt>
      <trkpt lat="43.78561" lon="5.13087">
        <ele>351</ele>
        <time>2016-03-03T13:36:12Z</time>
      </trkpt>
      <trkpt lat="43.78561" lon="5.13086">
        <ele>352</ele>
        <time>2016-03-03T13:36:43Z</time>
      </trkpt>
      <trkpt lat="43.78562" lon="5.13081">
        <ele>352</ele>
        <time>2016-03-03T13:37:02Z</time>
      </trkpt>
      <trkpt lat="43.78563" lon="5.13081">
        <ele>352</ele>
        <time>2016-03-03T13:37:18Z</time>
      </trkpt>
      <trkpt lat="43.78563" lon="5.13081">
        <ele>352</ele>
        <time>2016-03-03T13:37:42Z</time>
      </trkpt>
      <trkpt lat="43.78561" lon="5.13082">
        <ele>352</ele>
        <time>2016-03-03T13:37:56Z</time>
      </trkpt>
      <trkpt lat="43.7856" lon="5.13079">
        <ele>351</ele>
        <time>2016-03-03T13:38:23Z</time>
      </trkpt>
      <trkpt lat="43.7856" lon="5.13078">
        <ele>351</ele>
        <time>2016-03-03T13:38:55Z</time>
      </trkpt>
      <trkpt lat="43.78561" lon="5.13079">
        <ele>351</ele>
        <time>2016-03-03T13:39:22Z</time>
      </trkpt>
      <trkpt lat="43.78561" lon="5.13079">
        <ele>351</ele>
        <time>2016-03-03T13:39:54Z</time>
      </trkpt>
      <trkpt lat="43.78561" lon="5.13079">
        <ele>351</ele>
        <time>2016-03-03T13:40:22Z</time>
      </trkpt>
      <trkpt lat="43.78561" lon="5.13079">
        <ele>351</ele>
        <time>2016-03-03T13:40:52Z</time>
      </trkpt>
      <trkpt lat="43.78561" lon="5.13078">
        <ele>352</ele>
        <time>2016-03-03T13:41:32Z</time>
      </trkpt>
      <trkpt lat="43.78561" lon="5.13078">
        <ele>352</ele>
        <time>2016-03-03T13:42:05Z</time>
      </trkpt>
      <trkpt lat="43.78561" lon="5.13073">
        <ele>352</ele>
        <time>2016-03-03T13:42:16Z</time>
      </trkpt>
      <trkpt lat="43.78561" lon="5.13073">
        <ele>352</ele>
        <time>2016-03-03T13:42:22Z</time>
      </trkpt>
      <trkpt lat="43.78562" lon="5.13073">
        <ele>353</ele>
        <time>2016-03-03T13:42:53Z</time>
      </trkpt>
      <trkpt lat="43.78561" lon="5.13073">
        <ele>352</ele>
        <time>2016-03-03T13:43:25Z</time>
      </trkpt>
      <trkpt lat="43.78561" lon="5.13073">
        <ele>353</ele>
        <time>2016-03-03T13:43:49Z</time>
      </trkpt>
      <trkpt lat="43.78561" lon="5.13073">
        <ele>354</ele>
        <time>2016-03-03T13:44:24Z</time>
      </trkpt>
      <trkpt lat="43.78561" lon="5.13072">
        <ele>353</ele>
        <time>2016-03-03T13:44:50Z</time>
      </trkpt>
      <trkpt lat="43.7856" lon="5.13071">
        <ele>354</ele>
        <time>2016-03-03T13:45:23Z</time>
      </trkpt>
      <trkpt lat="43.7856" lon="5.13072">
        <ele>354</ele>
        <time>2016-03-03T13:45:58Z</time>
      </trkpt>
      <trkpt lat="43.78562" lon="5.13072">
        <ele>354</ele>
        <time>2016-03-03T13:46:30Z</time>
      </trkpt>
      <trkpt lat="43.78564" lon="5.13072">
        <ele>354</ele>
        <time>2016-03-03T13:47:01Z</time>
      </trkpt>
      <trkpt lat="43.78564" lon="5.13073">
        <ele>354</ele>
        <time>2016-03-03T13:47:34Z</time>
      </trkpt>
      <trkpt lat="43.78563" lon="5.13072">
        <ele>354</ele>
        <time>2016-03-03T13:47:55Z</time>
      </trkpt>
      <trkpt lat="43.78562" lon="5.13072">
        <ele>354</ele>
        <time>2016-03-03T13:48:07Z</time>
      </trkpt>
      <trkpt lat="43.78562" lon="5.13073">
        <ele>354</ele>
        <time>2016-03-03T13:48:41Z</time>
      </trkpt>
      <trkpt lat="43.78562" lon="5.13072">
        <ele>354</ele>
        <time>2016-03-03T13:49:13Z</time>
      </trkpt>
      <trkpt lat="43.78563" lon="5.13073">
        <ele>354</ele>
        <time>2016-03-03T13:49:50Z</time>
      </trkpt>
      <trkpt lat="43.78563" lon="5.13071">
        <ele>354</ele>
        <time>2016-03-03T13:50:26Z</time>
      </trkpt>
      <trkpt lat="43.78563" lon="5.13071">
        <ele>355</ele>
        <time>2016-03-03T13:51:01Z</time>
      </trkpt>
      <trkpt lat="43.78563" lon="5.13071">
        <ele>355</ele>
        <time>2016-03-03T13:51:39Z</time>
      </trkpt>
      <trkpt lat="43.78563" lon="5.13073">
        <ele>354</ele>
        <time>2016-03-03T13:52:16Z</time>
      </trkpt>
      <trkpt lat="43.78563" lon="5.13073">
        <ele>354</ele>
        <time>2016-03-03T13:52:49Z</time>
      </trkpt>
      <trkpt lat="43.78563" lon="5.13074">
        <ele>354</ele>
        <time>2016-03-03T13:53:25Z</time>
      </trkpt>
      <trkpt lat="43.78564" lon="5.13075">
        <ele>355</ele>
        <time>2016-03-03T13:53:46Z</time>
      </trkpt>
      <trkpt lat="43.78563" lon="5.13074">
        <ele>355</ele>
        <time>2016-03-03T13:54:15Z</time>
      </trkpt>
      <trkpt lat="43.78563" lon="5.13074">
        <ele>355</ele>
        <time>2016-03-03T13:54:36Z</time>
      </trkpt>
      <trkpt lat="43.78563" lon="5.13074">
        <ele>354</ele>
        <time>2016-03-03T13:55:04Z</time>
      </trkpt>
      <trkpt lat="43.78563" lon="5.13073">
        <ele>356</ele>
        <time>2016-03-03T13:55:23Z</time>
      </trkpt>
      <trkpt lat="43.7856" lon="5.13074">
        <ele>356</ele>
        <time>2016-03-03T13:55:37Z</time>
      </trkpt>
      <trkpt lat="43.78559" lon="5.13074">
        <ele>355</ele>
        <time>2016-03-03T13:55:57Z</time>
      </trkpt>
      <trkpt lat="43.78559" lon="5.13074">
        <ele>355</ele>
        <time>2016-03-03T13:56:19Z</time>
      </trkpt>
      <trkpt lat="43.78558" lon="5.13074">
        <ele>355</ele>
        <time>2016-03-03T13:56:43Z</time>
      </trkpt>
      <trkpt lat="43.78559" lon="5.13073">
        <ele>355</ele>
        <time>2016-03-03T13:56:56Z</time>
      </trkpt>
      <trkpt lat="43.78557" lon="5.13074">
        <ele>355</ele>
        <time>2016-03-03T13:57:09Z</time>
      </trkpt>
      <trkpt lat="43.78556" lon="5.1307">
        <ele>355</ele>
        <time>2016-03-03T13:57:23Z</time>
      </trkpt>
      <trkpt lat="43.7855" lon="5.13067">
        <ele>354</ele>
        <time>2016-03-03T13:57:28Z</time>
      </trkpt>
      <trkpt lat="43.78547" lon="5.13056">
        <ele>353</ele>
        <time>2016-03-03T13:57:42Z</time>
      </trkpt>
      <trkpt lat="43.78548" lon="5.13053">
        <ele>354</ele>
        <time>2016-03-03T13:57:54Z</time>
      </trkpt>
      <trkpt lat="43.78548" lon="5.13056">
        <ele>354</ele>
        <time>2016-03-03T13:57:56Z</time>
      </trkpt>
      <trkpt lat="43.78549" lon="5.1306">
        <ele>354</ele>
        <time>2016-03-03T13:57:59Z</time>
      </trkpt>
      <trkpt lat="43.78554" lon="5.13081">
        <ele>354</ele>
        <time>2016-03-03T13:58:15Z</time>
      </trkpt>
      <trkpt lat="43.78552" lon="5.13095">
        <ele>353</ele>
        <time>2016-03-03T13:58:29Z</time>
      </trkpt>
      <trkpt lat="43.78557" lon="5.13114">
        <ele>353</ele>
        <time>2016-03-03T13:58:44Z</time>
      </trkpt>
      <trkpt lat="43.78562" lon="5.13126">
        <ele>355</ele>
        <time>2016-03-03T13:58:56Z</time>
      </trkpt>
      <trkpt lat="43.78558" lon="5.13132">
        <ele>355</ele>
        <time>2016-03-03T13:59:03Z</time>
      </trkpt>
      <trkpt lat="43.78551" lon="5.13143">
        <ele>354</ele>
        <time>2016-03-03T13:59:16Z</time>
      </trkpt>
      <trkpt lat="43.78539" lon="5.13156">
        <ele>354</ele>
        <time>2016-03-03T13:59:30Z</time>
      </trkpt>
      <trkpt lat="43.78529" lon="5.13174">
        <ele>354</ele>
        <time>2016-03-03T13:59:46Z</time>
      </trkpt>
      <trkpt lat="43.78526" lon="5.13177">
        <ele>354</ele>
        <time>2016-03-03T13:59:50Z</time>
      </trkpt>
      <trkpt lat="43.78511" lon="5.13189">
        <ele>353</ele>
        <time>2016-03-03T14:00:06Z</time>
      </trkpt>
      <trkpt lat="43.78495" lon="5.13196">
        <ele>352</ele>
        <time>2016-03-03T14:00:22Z</time>
      </trkpt>
      <trkpt lat="43.78479" lon="5.13205">
        <ele>352</ele>
        <time>2016-03-03T14:00:38Z</time>
      </trkpt>
      <trkpt lat="43.78465" lon="5.13216">
        <ele>351</ele>
        <time>2016-03-03T14:00:55Z</time>
      </trkpt>
      <trkpt lat="43.78458" lon="5.13226">
        <ele>350</ele>
        <time>2016-03-03T14:01:09Z</time>
      </trkpt>
      <trkpt lat="43.78448" lon="5.13241">
        <ele>352</ele>
        <time>2016-03-03T14:01:24Z</time>
      </trkpt>
      <trkpt lat="43.78434" lon="5.13252">
        <ele>352</ele>
        <time>2016-03-03T14:01:40Z</time>
      </trkpt>
      <trkpt lat="43.78421" lon="5.13266">
        <ele>352</ele>
        <time>2016-03-03T14:01:55Z</time>
      </trkpt>
      <trkpt lat="43.78417" lon="5.1327">
        <ele>354</ele>
        <time>2016-03-03T14:01:59Z</time>
      </trkpt>
      <trkpt lat="43.78403" lon="5.13285">
        <ele>353</ele>
        <time>2016-03-03T14:02:16Z</time>
      </trkpt>
      <trkpt lat="43.78387" lon="5.133">
        <ele>353</ele>
        <time>2016-03-03T14:02:34Z</time>
      </trkpt>
      <trkpt lat="43.78375" lon="5.13312">
        <ele>353</ele>
        <time>2016-03-03T14:02:50Z</time>
      </trkpt>
      <trkpt lat="43.7836" lon="5.13327">
        <ele>353</ele>
        <time>2016-03-03T14:03:05Z</time>
      </trkpt>
      <trkpt lat="43.78348" lon="5.13338">
        <ele>353</ele>
        <time>2016-03-03T14:03:21Z</time>
      </trkpt>
      <trkpt lat="43.78336" lon="5.13351">
        <ele>353</ele>
        <time>2016-03-03T14:03:35Z</time>
      </trkpt>
      <trkpt lat="43.7832" lon="5.13365">
        <ele>353</ele>
        <time>2016-03-03T14:03:53Z</time>
      </trkpt>
      <trkpt lat="43.78318" lon="5.13367">
        <ele>353</ele>
        <time>2016-03-03T14:03:56Z</time>
      </trkpt>
      <trkpt lat="43.78311" lon="5.13374">
        <ele>353</ele>
        <time>2016-03-03T14:04:04Z</time>
      </trkpt>
      <trkpt lat="43.78303" lon="5.13384">
        <ele>353</ele>
        <time>2016-03-03T14:04:16Z</time>
      </trkpt>
      <trkpt lat="43.78287" lon="5.13395">
        <ele>352</ele>
        <time>2016-03-03T14:04:35Z</time>
      </trkpt>
      <trkpt lat="43.78273" lon="5.13397">
        <ele>352</ele>
        <time>2016-03-03T14:04:48Z</time>
      </trkpt>
      <trkpt lat="43.78263" lon="5.13405">
        <ele>352</ele>
        <time>2016-03-03T14:04:59Z</time>
      </trkpt>
      <trkpt lat="43.78262" lon="5.13407">
        <ele>352</ele>
        <time>2016-03-03T14:05:01Z</time>
      </trkpt>
      <trkpt lat="43.78262" lon="5.13422">
        <ele>352</ele>
        <time>2016-03-03T14:05:12Z</time>
      </trkpt>
      <trkpt lat="43.78258" lon="5.13433">
        <ele>351</ele>
        <time>2016-03-03T14:05:24Z</time>
      </trkpt>
      <trkpt lat="43.78257" lon="5.13445">
        <ele>348</ele>
        <time>2016-03-03T14:05:38Z</time>
      </trkpt>
      <trkpt lat="43.78256" lon="5.1345">
        <ele>347</ele>
        <time>2016-03-03T14:05:44Z</time>
      </trkpt>
      <trkpt lat="43.78259" lon="5.13458">
        <ele>344</ele>
        <time>2016-03-03T14:05:54Z</time>
      </trkpt>
      <trkpt lat="43.78257" lon="5.13463">
        <ele>342</ele>
        <time>2016-03-03T14:06:08Z</time>
      </trkpt>
      <trkpt lat="43.78259" lon="5.1347">
        <ele>342</ele>
        <time>2016-03-03T14:06:20Z</time>
      </trkpt>
      <trkpt lat="43.78269" lon="5.13479">
        <ele>340</ele>
        <time>2016-03-03T14:06:34Z</time>
      </trkpt>
      <trkpt lat="43.78278" lon="5.13492">
        <ele>339</ele>
        <time>2016-03-03T14:06:48Z</time>
      </trkpt>
      <trkpt lat="43.78279" lon="5.13509">
        <ele>337</ele>
        <time>2016-03-03T14:07:00Z</time>
      </trkpt>
      <trkpt lat="43.78282" lon="5.13527">
        <ele>335</ele>
        <time>2016-03-03T14:07:14Z</time>
      </trkpt>
      <trkpt lat="43.78286" lon="5.13542">
        <ele>333</ele>
        <time>2016-03-03T14:07:29Z</time>
      </trkpt>
      <trkpt lat="43.78291" lon="5.13556">
        <ele>332</ele>
        <time>2016-03-03T14:07:42Z</time>
      </trkpt>
      <trkpt lat="43.78296" lon="5.13574">
        <ele>330</ele>
        <time>2016-03-03T14:07:56Z</time>
      </trkpt>
      <trkpt lat="43.78298" lon="5.1359">
        <ele>329</ele>
        <time>2016-03-03T14:08:10Z</time>
      </trkpt>
      <trkpt lat="43.78302" lon="5.13609">
        <ele>326</ele>
        <time>2016-03-03T14:08:26Z</time>
      </trkpt>
      <trkpt lat="43.78305" lon="5.13622">
        <ele>325</ele>
        <time>2016-03-03T14:08:38Z</time>
      </trkpt>
      <trkpt lat="43.78308" lon="5.13643">
        <ele>323</ele>
        <time>2016-03-03T14:08:54Z</time>
      </trkpt>
      <trkpt lat="43.78307" lon="5.13664">
        <ele>321</ele>
        <time>2016-03-03T14:09:10Z</time>
      </trkpt>
      <trkpt lat="43.78302" lon="5.13683">
        <ele>319</ele>
        <time>2016-03-03T14:09:27Z</time>
      </trkpt>
      <trkpt lat="43.783" lon="5.13674">
        <ele>318</ele>
        <time>2016-03-03T14:09:39Z</time>
      </trkpt>
      <trkpt lat="43.78293" lon="5.13656">
        <ele>315</ele>
        <time>2016-03-03T14:09:55Z</time>
      </trkpt>
      <trkpt lat="43.78289" lon="5.13647">
        <ele>314</ele>
        <time>2016-03-03T14:10:05Z</time>
      </trkpt>
      <trkpt lat="43.78277" lon="5.13624">
        <ele>312</ele>
        <time>2016-03-03T14:10:23Z</time>
      </trkpt>
      <trkpt lat="43.78272" lon="5.13609">
        <ele>311</ele>
        <time>2016-03-03T14:10:36Z</time>
      </trkpt>
      <trkpt lat="43.78263" lon="5.13592">
        <ele>310</ele>
        <time>2016-03-03T14:10:51Z</time>
      </trkpt>
      <trkpt lat="43.78252" lon="5.13583">
        <ele>309</ele>
        <time>2016-03-03T14:11:05Z</time>
      </trkpt>
      <trkpt lat="43.78244" lon="5.13589">
        <ele>307</ele>
        <time>2016-03-03T14:11:20Z</time>
      </trkpt>
      <trkpt lat="43.78242" lon="5.13594">
        <ele>306</ele>
        <time>2016-03-03T14:11:24Z</time>
      </trkpt>
      <trkpt lat="43.78241" lon="5.13611">
        <ele>305</ele>
        <time>2016-03-03T14:11:34Z</time>
      </trkpt>
      <trkpt lat="43.78238" lon="5.1362">
        <ele>304</ele>
        <time>2016-03-03T14:11:42Z</time>
      </trkpt>
      <trkpt lat="43.78236" lon="5.13635">
        <ele>303</ele>
        <time>2016-03-03T14:11:53Z</time>
      </trkpt>
      <trkpt lat="43.78236" lon="5.13657">
        <ele>301</ele>
        <time>2016-03-03T14:12:07Z</time>
      </trkpt>
      <trkpt lat="43.78234" lon="5.13674">
        <ele>299</ele>
        <time>2016-03-03T14:12:21Z</time>
      </trkpt>
      <trkpt lat="43.78233" lon="5.13682">
        <ele>298</ele>
        <time>2016-03-03T14:12:26Z</time>
      </trkpt>
      <trkpt lat="43.78231" lon="5.13696">
        <ele>295</ele>
        <time>2016-03-03T14:12:41Z</time>
      </trkpt>
      <trkpt lat="43.78226" lon="5.13713">
        <ele>293</ele>
        <time>2016-03-03T14:12:53Z</time>
      </trkpt>
      <trkpt lat="43.78229" lon="5.13728">
        <ele>291</ele>
        <time>2016-03-03T14:13:06Z</time>
      </trkpt>
      <trkpt lat="43.78235" lon="5.13723">
        <ele>290</ele>
        <time>2016-03-03T14:13:19Z</time>
      </trkpt>
      <trkpt lat="43.78237" lon="5.13719">
        <ele>289</ele>
        <time>2016-03-03T14:13:26Z</time>
      </trkpt>
      <trkpt lat="43.78245" lon="5.13728">
        <ele>288</ele>
        <time>2016-03-03T14:13:43Z</time>
      </trkpt>
      <trkpt lat="43.7824" lon="5.13738">
        <ele>286</ele>
        <time>2016-03-03T14:14:01Z</time>
      </trkpt>
      <trkpt lat="43.78232" lon="5.13753">
        <ele>285</ele>
        <time>2016-03-03T14:14:17Z</time>
      </trkpt>
      <trkpt lat="43.7822" lon="5.13759">
        <ele>284</ele>
        <time>2016-03-03T14:14:34Z</time>
      </trkpt>
      <trkpt lat="43.78216" lon="5.13768">
        <ele>283</ele>
        <time>2016-03-03T14:14:46Z</time>
      </trkpt>
      <trkpt lat="43.78215" lon="5.13775">
        <ele>283</ele>
        <time>2016-03-03T14:14:59Z</time>
      </trkpt>
      <trkpt lat="43.78214" lon="5.13776">
        <ele>283</ele>
        <time>2016-03-03T14:15:20Z</time>
      </trkpt>
      <trkpt lat="43.78214" lon="5.13775">
        <ele>283</ele>
        <time>2016-03-03T14:15:38Z</time>
      </trkpt>
      <trkpt lat="43.78213" lon="5.13774">
        <ele>283</ele>
        <time>2016-03-03T14:16:03Z</time>
      </trkpt>
      <trkpt lat="43.78215" lon="5.13774">
        <ele>283</ele>
        <time>2016-03-03T14:16:27Z</time>
      </trkpt>
      <trkpt lat="43.78218" lon="5.13768">
        <ele>283</ele>
        <time>2016-03-03T14:16:40Z</time>
      </trkpt>
      <trkpt lat="43.78218" lon="5.13771">
        <ele>283</ele>
        <time>2016-03-03T14:17:04Z</time>
      </trkpt>
      <trkpt lat="43.78215" lon="5.13772">
        <ele>283</ele>
        <time>2016-03-03T14:17:18Z</time>
      </trkpt>
      <trkpt lat="43.78213" lon="5.13766">
        <ele>283</ele>
        <time>2016-03-03T14:17:33Z</time>
      </trkpt>
      <trkpt lat="43.78215" lon="5.13767">
        <ele>283</ele>
        <time>2016-03-03T14:17:51Z</time>
      </trkpt>
      <trkpt lat="43.78214" lon="5.13768">
        <ele>283</ele>
        <time>2016-03-03T14:18:12Z</time>
      </trkpt>
      <trkpt lat="43.78213" lon="5.13774">
        <ele>283</ele>
        <time>2016-03-03T14:18:22Z</time>
      </trkpt>
      <trkpt lat="43.78208" lon="5.13783">
        <ele>282</ele>
        <time>2016-03-03T14:18:30Z</time>
      </trkpt>
      <trkpt lat="43.78202" lon="5.138">
        <ele>281</ele>
        <time>2016-03-03T14:18:42Z</time>
      </trkpt>
      <trkpt lat="43.78194" lon="5.13823">
        <ele>280</ele>
        <time>2016-03-03T14:18:58Z</time>
      </trkpt>
      <trkpt lat="43.78187" lon="5.13844">
        <ele>278</ele>
        <time>2016-03-03T14:19:14Z</time>
      </trkpt>
      <trkpt lat="43.78181" lon="5.13852">
        <ele>278</ele>
        <time>2016-03-03T14:19:27Z</time>
      </trkpt>
      <trkpt lat="43.78176" lon="5.13853">
        <ele>277</ele>
        <time>2016-03-03T14:19:32Z</time>
      </trkpt>
      <trkpt lat="43.78162" lon="5.13868">
        <ele>276</ele>
        <time>2016-03-03T14:19:49Z</time>
      </trkpt>
      <trkpt lat="43.78154" lon="5.13857">
        <ele>275</ele>
        <time>2016-03-03T14:20:04Z</time>
      </trkpt>
      <trkpt lat="43.78143" lon="5.1384">
        <ele>274</ele>
        <time>2016-03-03T14:20:20Z</time>
      </trkpt>
      <trkpt lat="43.78138" lon="5.13826">
        <ele>274</ele>
        <time>2016-03-03T14:20:33Z</time>
      </trkpt>
      <trkpt lat="43.78133" lon="5.13811">
        <ele>273</ele>
        <time>2016-03-03T14:20:47Z</time>
      </trkpt>
      <trkpt lat="43.78126" lon="5.138">
        <ele>273</ele>
        <time>2016-03-03T14:21:03Z</time>
      </trkpt>
      <trkpt lat="43.78116" lon="5.13783">
        <ele>272</ele>
        <time>2016-03-03T14:21:17Z</time>
      </trkpt>
      <trkpt lat="43.78104" lon="5.13766">
        <ele>272</ele>
        <time>2016-03-03T14:21:34Z</time>
      </trkpt>
      <trkpt lat="43.78094" lon="5.13751">
        <ele>271</ele>
        <time>2016-03-03T14:21:48Z</time>
      </trkpt>
      <trkpt lat="43.78082" lon="5.13732">
        <ele>270</ele>
        <time>2016-03-03T14:22:05Z</time>
      </trkpt>
      <trkpt lat="43.78066" lon="5.13724">
        <ele>268</ele>
        <time>2016-03-03T14:22:22Z</time>
      </trkpt>
      <trkpt lat="43.78046" lon="5.13726">
        <ele>267</ele>
        <time>2016-03-03T14:22:40Z</time>
      </trkpt>
      <trkpt lat="43.78033" lon="5.13717">
        <ele>267</ele>
        <time>2016-03-03T14:22:56Z</time>
      </trkpt>
      <trkpt lat="43.7803" lon="5.13698">
        <ele>266</ele>
        <time>2016-03-03T14:23:12Z</time>
      </trkpt>
      <trkpt lat="43.78029" lon="5.13679">
        <ele>266</ele>
        <time>2016-03-03T14:23:27Z</time>
      </trkpt>
      <trkpt lat="43.78022" lon="5.13662">
        <ele>265</ele>
        <time>2016-03-03T14:23:37Z</time>
      </trkpt>
      <trkpt lat="43.78011" lon="5.13651">
        <ele>265</ele>
        <time>2016-03-03T14:23:50Z</time>
      </trkpt>
      <trkpt lat="43.77995" lon="5.1364">
        <ele>264</ele>
        <time>2016-03-03T14:24:06Z</time>
      </trkpt>
      <trkpt lat="43.77982" lon="5.13629">
        <ele>263</ele>
        <time>2016-03-03T14:24:24Z</time>
      </trkpt>
      <trkpt lat="43.77973" lon="5.1362">
        <ele>262</ele>
        <time>2016-03-03T14:24:33Z</time>
      </trkpt>
      <trkpt lat="43.77966" lon="5.13607">
        <ele>262</ele>
        <time>2016-03-03T14:24:41Z</time>
      </trkpt>
      <trkpt lat="43.77954" lon="5.13603">
        <ele>260</ele>
        <time>2016-03-03T14:24:59Z</time>
      </trkpt>
      <trkpt lat="43.77943" lon="5.13609">
        <ele>259</ele>
        <time>2016-03-03T14:25:09Z</time>
      </trkpt>
      <trkpt lat="43.7794" lon="5.13624">
        <ele>258</ele>
        <time>2016-03-03T14:25:23Z</time>
      </trkpt>
      <trkpt lat="43.77935" lon="5.13644">
        <ele>254</ele>
        <time>2016-03-03T14:25:41Z</time>
      </trkpt>
      <trkpt lat="43.77934" lon="5.13667">
        <ele>253</ele>
        <time>2016-03-03T14:25:58Z</time>
      </trkpt>
      <trkpt lat="43.77918" lon="5.13655">
        <ele>251</ele>
        <time>2016-03-03T14:26:16Z</time>
      </trkpt>
      <trkpt lat="43.77894" lon="5.13653">
        <ele>249</ele>
        <time>2016-03-03T14:26:36Z</time>
      </trkpt>
      <trkpt lat="43.77891" lon="5.1365">
        <ele>249</ele>
        <time>2016-03-03T14:26:40Z</time>
      </trkpt>
      <trkpt lat="43.77878" lon="5.13641">
        <ele>248</ele>
        <time>2016-03-03T14:26:54Z</time>
      </trkpt>
      <trkpt lat="43.77871" lon="5.13635">
        <ele>247</ele>
        <time>2016-03-03T14:27:04Z</time>
      </trkpt>
      <trkpt lat="43.77866" lon="5.13628">
        <ele>246</ele>
        <time>2016-03-03T14:27:10Z</time>
      </trkpt>
      <trkpt lat="43.77856" lon="5.13615">
        <ele>244</ele>
        <time>2016-03-03T14:27:27Z</time>
      </trkpt>
      <trkpt lat="43.77854" lon="5.13606">
        <ele>243</ele>
        <time>2016-03-03T14:27:42Z</time>
      </trkpt>
      <trkpt lat="43.77848" lon="5.13595">
        <ele>242</ele>
        <time>2016-03-03T14:27:57Z</time>
      </trkpt>
      <trkpt lat="43.77838" lon="5.13605">
        <ele>240</ele>
        <time>2016-03-03T14:28:17Z</time>
      </trkpt>
      <trkpt lat="43.77824" lon="5.13614">
        <ele>239</ele>
        <time>2016-03-03T14:28:35Z</time>
      </trkpt>
      <trkpt lat="43.77797" lon="5.13612">
        <ele>238</ele>
        <time>2016-03-03T14:28:53Z</time>
      </trkpt>
      <trkpt lat="43.7778" lon="5.13613">
        <ele>237</ele>
        <time>2016-03-03T14:29:09Z</time>
      </trkpt>
      <trkpt lat="43.77766" lon="5.13614">
        <ele>235</ele>
        <time>2016-03-03T14:29:25Z</time>
      </trkpt>
      <trkpt lat="43.77756" lon="5.13617">
        <ele>235</ele>
        <time>2016-03-03T14:29:33Z</time>
      </trkpt>
      <trkpt lat="43.77719" lon="5.13613">
        <ele>232</ele>
        <time>2016-03-03T14:29:55Z</time>
      </trkpt>
      <trkpt lat="43.77705" lon="5.13618">
        <ele>229</ele>
        <time>2016-03-03T14:30:14Z</time>
      </trkpt>
      <trkpt lat="43.77685" lon="5.13618">
        <ele>227</ele>
        <time>2016-03-03T14:30:32Z</time>
      </trkpt>
      <trkpt lat="43.77666" lon="5.13614">
        <ele>226</ele>
        <time>2016-03-03T14:30:51Z</time>
      </trkpt>
      <trkpt lat="43.77661" lon="5.13612">
        <ele>224</ele>
        <time>2016-03-03T14:31:06Z</time>
      </trkpt>
      <trkpt lat="43.77641" lon="5.13604">
        <ele>222</ele>
        <time>2016-03-03T14:31:24Z</time>
      </trkpt>
      <trkpt lat="43.77628" lon="5.13598">
        <ele>221</ele>
        <time>2016-03-03T14:31:39Z</time>
      </trkpt>
      <trkpt lat="43.77615" lon="5.13593">
        <ele>219</ele>
        <time>2016-03-03T14:31:56Z</time>
      </trkpt>
      <trkpt lat="43.77617" lon="5.13585">
        <ele>217</ele>
        <time>2016-03-03T14:32:11Z</time>
      </trkpt>
      <trkpt lat="43.77603" lon="5.1358">
        <ele>216</ele>
        <time>2016-03-03T14:32:28Z</time>
      </trkpt>
      <trkpt lat="43.77591" lon="5.13586">
        <ele>215</ele>
        <time>2016-03-03T14:32:44Z</time>
      </trkpt>
      <trkpt lat="43.77571" lon="5.13577">
        <ele>213</ele>
        <time>2016-03-03T14:33:03Z</time>
      </trkpt>
      <trkpt lat="43.77566" lon="5.13577">
        <ele>211</ele>
        <time>2016-03-03T14:33:22Z</time>
      </trkpt>
      <trkpt lat="43.77556" lon="5.13579">
        <ele>209</ele>
        <time>2016-03-03T14:33:39Z</time>
      </trkpt>
      <trkpt lat="43.77526" lon="5.13568">
        <ele>207</ele>
        <time>2016-03-03T14:34:00Z</time>
      </trkpt>
      <trkpt lat="43.77497" lon="5.13558">
        <ele>206</ele>
        <time>2016-03-03T14:34:18Z</time>
      </trkpt>
      <trkpt lat="43.77488" lon="5.13558">
        <ele>205</ele>
        <time>2016-03-03T14:34:29Z</time>
      </trkpt>
      <trkpt lat="43.77466" lon="5.13547">
        <ele>204</ele>
        <time>2016-03-03T14:34:49Z</time>
      </trkpt>
      <trkpt lat="43.77454" lon="5.13529">
        <ele>203</ele>
        <time>2016-03-03T14:35:05Z</time>
      </trkpt>
      <trkpt lat="43.77452" lon="5.13511">
        <ele>202</ele>
        <time>2016-03-03T14:35:19Z</time>
      </trkpt>
      <trkpt lat="43.77449" lon="5.13493">
        <ele>201</ele>
        <time>2016-03-03T14:35:34Z</time>
      </trkpt>
      <trkpt lat="43.7744" lon="5.13486">
        <ele>199</ele>
        <time>2016-03-03T14:35:46Z</time>
      </trkpt>
      <trkpt lat="43.77423" lon="5.13485">
        <ele>197</ele>
        <time>2016-03-03T14:36:05Z</time>
      </trkpt>
      <trkpt lat="43.77411" lon="5.13489">
        <ele>196</ele>
        <time>2016-03-03T14:36:24Z</time>
      </trkpt>
      <trkpt lat="43.77395" lon="5.13483">
        <ele>194</ele>
        <time>2016-03-03T14:36:40Z</time>
      </trkpt>
      <trkpt lat="43.77393" lon="5.13496">
        <ele>193</ele>
        <time>2016-03-03T14:36:52Z</time>
      </trkpt>
      <trkpt lat="43.77388" lon="5.13512">
        <ele>190</ele>
        <time>2016-03-03T14:37:08Z</time>
      </trkpt>
      <trkpt lat="43.77387" lon="5.13524">
        <ele>189</ele>
        <time>2016-03-03T14:37:26Z</time>
      </trkpt>
      <trkpt lat="43.77368" lon="5.13523">
        <ele>186</ele>
        <time>2016-03-03T14:37:41Z</time>
      </trkpt>
      <trkpt lat="43.77361" lon="5.13527">
        <ele>185</ele>
        <time>2016-03-03T14:37:48Z</time>
      </trkpt>
      <trkpt lat="43.77358" lon="5.1353">
        <ele>185</ele>
        <time>2016-03-03T14:37:51Z</time>
      </trkpt>
      <trkpt lat="43.77353" lon="5.1354">
        <ele>184</ele>
        <time>2016-03-03T14:38:00Z</time>
      </trkpt>
      <trkpt lat="43.77346" lon="5.13548">
        <ele>183</ele>
        <time>2016-03-03T14:38:08Z</time>
      </trkpt>
      <trkpt lat="43.77343" lon="5.13563">
        <ele>182</ele>
        <time>2016-03-03T14:38:18Z</time>
      </trkpt>
      <trkpt lat="43.77342" lon="5.13583">
        <ele>180</ele>
        <time>2016-03-03T14:38:32Z</time>
      </trkpt>
      <trkpt lat="43.77341" lon="5.13601">
        <ele>179</ele>
        <time>2016-03-03T14:38:46Z</time>
      </trkpt>
      <trkpt lat="43.77333" lon="5.1361">
        <ele>178</ele>
        <time>2016-03-03T14:38:55Z</time>
      </trkpt>
      <trkpt lat="43.77327" lon="5.13628">
        <ele>177</ele>
        <time>2016-03-03T14:39:10Z</time>
      </trkpt>
      <trkpt lat="43.77321" lon="5.13643">
        <ele>176</ele>
        <time>2016-03-03T14:39:23Z</time>
      </trkpt>
      <trkpt lat="43.77316" lon="5.13656">
        <ele>176</ele>
        <time>2016-03-03T14:39:33Z</time>
      </trkpt>
      <trkpt lat="43.77314" lon="5.13668">
        <ele>175</ele>
        <time>2016-03-03T14:39:42Z</time>
      </trkpt>
      <trkpt lat="43.77299" lon="5.1366">
        <ele>174</ele>
        <time>2016-03-03T14:39:56Z</time>
      </trkpt>
      <trkpt lat="43.7729" lon="5.13643">
        <ele>173</ele>
        <time>2016-03-03T14:40:10Z</time>
      </trkpt>
      <trkpt lat="43.77285" lon="5.13624">
        <ele>172</ele>
        <time>2016-03-03T14:40:25Z</time>
      </trkpt>
      <trkpt lat="43.77276" lon="5.13609">
        <ele>172</ele>
        <time>2016-03-03T14:40:39Z</time>
      </trkpt>
      <trkpt lat="43.77264" lon="5.13599">
        <ele>171</ele>
        <time>2016-03-03T14:40:53Z</time>
      </trkpt>
      <trkpt lat="43.77254" lon="5.13599">
        <ele>170</ele>
        <time>2016-03-03T14:41:07Z</time>
      </trkpt>
      <trkpt lat="43.77244" lon="5.13594">
        <ele>169</ele>
        <time>2016-03-03T14:41:18Z</time>
      </trkpt>
      <trkpt lat="43.77239" lon="5.13592">
        <ele>168</ele>
        <time>2016-03-03T14:41:30Z</time>
      </trkpt>
      <trkpt lat="43.77234" lon="5.13592">
        <ele>168</ele>
        <time>2016-03-03T14:41:43Z</time>
      </trkpt>
      <trkpt lat="43.77234" lon="5.13592">
        <ele>169</ele>
        <time>2016-03-03T14:42:06Z</time>
      </trkpt>
      <trkpt lat="43.77234" lon="5.13593">
        <ele>169</ele>
        <time>2016-03-03T14:42:22Z</time>
      </trkpt>
      <trkpt lat="43.77234" lon="5.13594">
        <ele>169</ele>
        <time>2016-03-03T14:42:44Z</time>
      </trkpt>
      <trkpt lat="43.77233" lon="5.13593">
        <ele>169</ele>
        <time>2016-03-03T14:43:12Z</time>
      </trkpt>
      <trkpt lat="43.77234" lon="5.13593">
        <ele>169</ele>
        <time>2016-03-03T14:43:33Z</time>
      </trkpt>
      <trkpt lat="43.77234" lon="5.13594">
        <ele>170</ele>
        <time>2016-03-03T14:43:57Z</time>
      </trkpt>
      <trkpt lat="43.77234" lon="5.13594">
        <ele>169</ele>
        <time>2016-03-03T14:44:19Z</time>
      </trkpt>
      <trkpt lat="43.77234" lon="5.13594">
        <ele>169</ele>
        <time>2016-03-03T14:44:35Z</time>
      </trkpt>
      <trkpt lat="43.77234" lon="5.13593">
        <ele>169</ele>
        <time>2016-03-03T14:45:02Z</time>
      </trkpt>
      <trkpt lat="43.77234" lon="5.13593">
        <ele>169</ele>
        <time>2016-03-03T14:45:29Z</time>
      </trkpt>
      <trkpt lat="43.77234" lon="5.13593">
        <ele>170</ele>
        <time>2016-03-03T14:45:56Z</time>
      </trkpt>
      <trkpt lat="43.77234" lon="5.13593">
        <ele>169</ele>
        <time>2016-03-03T14:46:23Z</time>
      </trkpt>
      <trkpt lat="43.77234" lon="5.13593">
        <ele>170</ele>
        <time>2016-03-03T14:46:49Z</time>
      </trkpt>
      <trkpt lat="43.77234" lon="5.13592">
        <ele>170</ele>
        <time>2016-03-03T14:47:15Z</time>
      </trkpt>
      <trkpt lat="43.77235" lon="5.13592">
        <ele>170</ele>
        <time>2016-03-03T14:47:30Z</time>
      </trkpt>
      <trkpt lat="43.77235" lon="5.13591">
        <ele>170</ele>
        <time>2016-03-03T14:47:52Z</time>
      </trkpt>
      <trkpt lat="43.77235" lon="5.13591">
        <ele>170</ele>
        <time>2016-03-03T14:48:16Z</time>
      </trkpt>
      <trkpt lat="43.77232" lon="5.13591">
        <ele>169</ele>
        <time>2016-03-03T14:48:38Z</time>
      </trkpt>
      <trkpt lat="43.77226" lon="5.1359">
        <ele>169</ele>
        <time>2016-03-03T14:48:43Z</time>
      </trkpt>
      <trkpt lat="43.77211" lon="5.13596">
        <ele>168</ele>
        <time>2016-03-03T14:48:58Z</time>
      </trkpt>
      <trkpt lat="43.77205" lon="5.136">
        <ele>168</ele>
        <time>2016-03-03T14:49:04Z</time>
      </trkpt>
      <trkpt lat="43.77188" lon="5.13607">
        <ele>167</ele>
        <time>2016-03-03T14:49:20Z</time>
      </trkpt>
      <trkpt lat="43.77169" lon="5.13603">
        <ele>167</ele>
        <time>2016-03-03T14:49:36Z</time>
      </trkpt>
      <trkpt lat="43.77154" lon="5.13599">
        <ele>166</ele>
        <time>2016-03-03T14:49:50Z</time>
      </trkpt>
      <trkpt lat="43.77145" lon="5.13601">
        <ele>167</ele>
        <time>2016-03-03T14:49:59Z</time>
      </trkpt>
      <trkpt lat="43.77128" lon="5.13604">
        <ele>166</ele>
        <time>2016-03-03T14:50:14Z</time>
      </trkpt>
      <trkpt lat="43.77125" lon="5.13607">
        <ele>166</ele>
        <time>2016-03-03T14:50:17Z</time>
      </trkpt>
      <trkpt lat="43.77119" lon="5.13611">
        <ele>166</ele>
        <time>2016-03-03T14:50:33Z</time>
      </trkpt>
      <trkpt lat="43.77116" lon="5.13612">
        <ele>166</ele>
        <time>2016-03-03T14:50:51Z</time>
      </trkpt>
      <trkpt lat="43.77113" lon="5.1362">
        <ele>166</ele>
        <time>2016-03-03T14:51:07Z</time>
      </trkpt>
      <trkpt lat="43.77099" lon="5.13636">
        <ele>165</ele>
        <time>2016-03-03T14:51:22Z</time>
      </trkpt>
      <trkpt lat="43.77089" lon="5.13646">
        <ele>165</ele>
        <time>2016-03-03T14:51:31Z</time>
      </trkpt>
      <trkpt lat="43.77075" lon="5.13654">
        <ele>165</ele>
        <time>2016-03-03T14:51:46Z</time>
      </trkpt>
      <trkpt lat="43.77057" lon="5.13665">
        <ele>162</ele>
        <time>2016-03-03T14:52:02Z</time>
      </trkpt>
      <trkpt lat="43.77047" lon="5.13666">
        <ele>161</ele>
        <time>2016-03-03T14:52:12Z</time>
      </trkpt>
      <trkpt lat="43.77037" lon="5.13662">
        <ele>160</ele>
        <time>2016-03-03T14:52:24Z</time>
      </trkpt>
      <trkpt lat="43.77021" lon="5.13638">
        <ele>159</ele>
        <time>2016-03-03T14:52:41Z</time>
      </trkpt>
      <trkpt lat="43.77014" lon="5.13626">
        <ele>159</ele>
        <time>2016-03-03T14:52:55Z</time>
      </trkpt>
      <trkpt lat="43.77003" lon="5.13604">
        <ele>158</ele>
        <time>2016-03-03T14:53:09Z</time>
      </trkpt>
      <trkpt lat="43.76997" lon="5.13582">
        <ele>157</ele>
        <time>2016-03-03T14:53:24Z</time>
      </trkpt>
      <trkpt lat="43.76994" lon="5.13558">
        <ele>157</ele>
        <time>2016-03-03T14:53:41Z</time>
      </trkpt>
      <trkpt lat="43.76986" lon="5.13547">
        <ele>156</ele>
        <time>2016-03-03T14:53:51Z</time>
      </trkpt>
      <trkpt lat="43.76976" lon="5.1354">
        <ele>155</ele>
        <time>2016-03-03T14:54:02Z</time>
      </trkpt>
      <trkpt lat="43.76965" lon="5.13542">
        <ele>154</ele>
        <time>2016-03-03T14:54:10Z</time>
      </trkpt>
      <trkpt lat="43.76962" lon="5.13545">
        <ele>154</ele>
        <time>2016-03-03T14:54:13Z</time>
      </trkpt>
      <trkpt lat="43.76948" lon="5.13556">
        <ele>153</ele>
        <time>2016-03-03T14:54:27Z</time>
      </trkpt>
      <trkpt lat="43.76935" lon="5.13559">
        <ele>153</ele>
        <time>2016-03-03T14:54:36Z</time>
      </trkpt>
      <trkpt lat="43.76932" lon="5.13559">
        <ele>152</ele>
        <time>2016-03-03T14:54:38Z</time>
      </trkpt>
      <trkpt lat="43.76914" lon="5.13555">
        <ele>151</ele>
        <time>2016-03-03T14:54:54Z</time>
      </trkpt>
      <trkpt lat="43.769" lon="5.13565">
        <ele>149</ele>
        <time>2016-03-03T14:55:08Z</time>
      </trkpt>
      <trkpt lat="43.76888" lon="5.13582">
        <ele>147</ele>
        <time>2016-03-03T14:55:24Z</time>
      </trkpt>
      <trkpt lat="43.76882" lon="5.13587">
        <ele>145</ele>
        <time>2016-03-03T14:55:32Z</time>
      </trkpt>
      <trkpt lat="43.76863" lon="5.13582">
        <ele>142</ele>
        <time>2016-03-03T14:55:54Z</time>
      </trkpt>
      <trkpt lat="43.76863" lon="5.13582">
        <ele>142</ele>
        <time>2016-03-03T14:55:55Z</time>
      </trkpt>
      <trkpt lat="43.76852" lon="5.13585">
        <ele>141</ele>
        <time>2016-03-03T14:56:04Z</time>
      </trkpt>
      <trkpt lat="43.76849" lon="5.13587">
        <ele>140</ele>
        <time>2016-03-03T14:56:07Z</time>
      </trkpt>
      <trkpt lat="43.76827" lon="5.13594">
        <ele>140</ele>
        <time>2016-03-03T14:56:24Z</time>
      </trkpt>
      <trkpt lat="43.7681" lon="5.13593">
        <ele>139</ele>
        <time>2016-03-03T14:56:40Z</time>
      </trkpt>
      <trkpt lat="43.76787" lon="5.13589">
        <ele>138</ele>
        <time>2016-03-03T14:56:56Z</time>
      </trkpt>
      <trkpt lat="43.76786" lon="5.1359">
        <ele>138</ele>
        <time>2016-03-03T14:56:57Z</time>
      </trkpt>
      <trkpt lat="43.76782" lon="5.13592">
        <ele>138</ele>
        <time>2016-03-03T14:57:00Z</time>
      </trkpt>
      <trkpt lat="43.76771" lon="5.13594">
        <ele>137</ele>
        <time>2016-03-03T14:57:18Z</time>
      </trkpt>
      <trkpt lat="43.76764" lon="5.13598">
        <ele>136</ele>
        <time>2016-03-03T14:57:29Z</time>
      </trkpt>
      <trkpt lat="43.76753" lon="5.13598">
        <ele>135</ele>
        <time>2016-03-03T14:57:40Z</time>
      </trkpt>
      <trkpt lat="43.76739" lon="5.13591">
        <ele>135</ele>
        <time>2016-03-03T14:57:53Z</time>
      </trkpt>
      <trkpt lat="43.76731" lon="5.13577">
        <ele>134</ele>
        <time>2016-03-03T14:58:07Z</time>
      </trkpt>
      <trkpt lat="43.76725" lon="5.13563">
        <ele>134</ele>
        <time>2016-03-03T14:58:20Z</time>
      </trkpt>
      <trkpt lat="43.76708" lon="5.13566">
        <ele>133</ele>
        <time>2016-03-03T14:58:39Z</time>
      </trkpt>
      <trkpt lat="43.76702" lon="5.1357">
        <ele>132</ele>
        <time>2016-03-03T14:58:44Z</time>
      </trkpt>
      <trkpt lat="43.76682" lon="5.13585">
        <ele>132</ele>
        <time>2016-03-03T14:59:00Z</time>
      </trkpt>
      <trkpt lat="43.76681" lon="5.13588">
        <ele>131</ele>
        <time>2016-03-03T14:59:03Z</time>
      </trkpt>
      <trkpt lat="43.7668" lon="5.13591">
        <ele>131</ele>
        <time>2016-03-03T14:59:05Z</time>
      </trkpt>
      <trkpt lat="43.76673" lon="5.13606">
        <ele>131</ele>
        <time>2016-03-03T14:59:16Z</time>
      </trkpt>
      <trkpt lat="43.76662" lon="5.13621">
        <ele>130</ele>
        <time>2016-03-03T14:59:32Z</time>
      </trkpt>
      <trkpt lat="43.76653" lon="5.13626">
        <ele>130</ele>
        <time>2016-03-03T14:59:48Z</time>
      </trkpt>
      <trkpt lat="43.76651" lon="5.13628">
        <ele>130</ele>
        <time>2016-03-03T14:59:51Z</time>
      </trkpt>
      <trkpt lat="43.76636" lon="5.13639">
        <ele>130</ele>
        <time>2016-03-03T15:00:08Z</time>
      </trkpt>
      <trkpt lat="43.76636" lon="5.13639">
        <ele>130</ele>
        <time>2016-03-03T15:00:10Z</time>
      </trkpt>
      <trkpt lat="43.76626" lon="5.13642">
        <ele>131</ele>
        <time>2016-03-03T15:00:23Z</time>
      </trkpt>
      <trkpt lat="43.76624" lon="5.13644">
        <ele>131</ele>
        <time>2016-03-03T15:00:26Z</time>
      </trkpt>
      <trkpt lat="43.7661" lon="5.13651">
        <ele>132</ele>
        <time>2016-03-03T15:00:40Z</time>
      </trkpt>
      <trkpt lat="43.76598" lon="5.13658">
        <ele>131</ele>
        <time>2016-03-03T15:00:53Z</time>
      </trkpt>
      <trkpt lat="43.76583" lon="5.13668">
        <ele>131</ele>
        <time>2016-03-03T15:01:07Z</time>
      </trkpt>
      <trkpt lat="43.76577" lon="5.13673">
        <ele>131</ele>
        <time>2016-03-03T15:01:14Z</time>
      </trkpt>
      <trkpt lat="43.76561" lon="5.13685">
        <ele>131</ele>
        <time>2016-03-03T15:01:28Z</time>
      </trkpt>
      <trkpt lat="43.7655" lon="5.13703">
        <ele>132</ele>
        <time>2016-03-03T15:01:44Z</time>
      </trkpt>
      <trkpt lat="43.76548" lon="5.13711">
        <ele>132</ele>
        <time>2016-03-03T15:01:49Z</time>
      </trkpt>
      <trkpt lat="43.76538" lon="5.13729">
        <ele>132</ele>
        <time>2016-03-03T15:02:03Z</time>
      </trkpt>
      <trkpt lat="43.76533" lon="5.13735">
        <ele>131</ele>
        <time>2016-03-03T15:02:08Z</time>
      </trkpt>
      <trkpt lat="43.76527" lon="5.13745">
        <ele>131</ele>
        <time>2016-03-03T15:02:17Z</time>
      </trkpt>
      <trkpt lat="43.76522" lon="5.13753">
        <ele>131</ele>
        <time>2016-03-03T15:02:24Z</time>
      </trkpt>
      <trkpt lat="43.76514" lon="5.13764">
        <ele>131</ele>
        <time>2016-03-03T15:02:33Z</time>
      </trkpt>
      <trkpt lat="43.76507" lon="5.13781">
        <ele>131</ele>
        <time>2016-03-03T15:02:49Z</time>
      </trkpt>
      <trkpt lat="43.76508" lon="5.13785">
        <ele>132</ele>
        <time>2016-03-03T15:03:03Z</time>
      </trkpt>
      <trkpt lat="43.76504" lon="5.13786">
        <ele>131</ele>
        <time>2016-03-03T15:03:16Z</time>
      </trkpt>
      <trkpt lat="43.76508" lon="5.13785">
        <ele>132</ele>
        <time>2016-03-03T15:03:31Z</time>
      </trkpt>
      <trkpt lat="43.76509" lon="5.13785">
        <ele>132</ele>
        <time>2016-03-03T15:03:44Z</time>
      </trkpt>
      <trkpt lat="43.76508" lon="5.13783">
        <ele>133</ele>
        <time>2016-03-03T15:03:56Z</time>
      </trkpt>
      <trkpt lat="43.76509" lon="5.13784">
        <ele>131</ele>
        <time>2016-03-03T15:04:21Z</time>
      </trkpt>
      <trkpt lat="43.76511" lon="5.13786">
        <ele>132</ele>
        <time>2016-03-03T15:04:39Z</time>
      </trkpt>
      <trkpt lat="43.76512" lon="5.13787">
        <ele>131</ele>
        <time>2016-03-03T15:05:02Z</time>
      </trkpt>
      <trkpt lat="43.76512" lon="5.13786">
        <ele>132</ele>
        <time>2016-03-03T15:05:32Z</time>
      </trkpt>
      <trkpt lat="43.76511" lon="5.13785">
        <ele>131</ele>
        <time>2016-03-03T15:05:54Z</time>
      </trkpt>
      <trkpt lat="43.76511" lon="5.13785">
        <ele>132</ele>
        <time>2016-03-03T15:06:13Z</time>
      </trkpt>
      <trkpt lat="43.76511" lon="5.13786">
        <ele>131</ele>
        <time>2016-03-03T15:06:33Z</time>
      </trkpt>
      <trkpt lat="43.76509" lon="5.13784">
        <ele>131</ele>
        <time>2016-03-03T15:06:58Z</time>
      </trkpt>
      <trkpt lat="43.76508" lon="5.13783">
        <ele>131</ele>
        <time>2016-03-03T15:07:12Z</time>
      </trkpt>
      <trkpt lat="43.76507" lon="5.13777">
        <ele>130</ele>
        <time>2016-03-03T15:07:27Z</time>
      </trkpt>
      <trkpt lat="43.76508" lon="5.13778">
        <ele>130</ele>
        <time>2016-03-03T15:07:46Z</time>
      </trkpt>
      <trkpt lat="43.76509" lon="5.13778">
        <ele>131</ele>
        <time>2016-03-03T15:08:07Z</time>
      </trkpt>
      <trkpt lat="43.7651" lon="5.13777">
        <ele>131</ele>
        <time>2016-03-03T15:08:35Z</time>
      </trkpt>
      <trkpt lat="43.7651" lon="5.13777">
        <ele>131</ele>
        <time>2016-03-03T15:09:02Z</time>
      </trkpt>
      <trkpt lat="43.7651" lon="5.13778">
        <ele>131</ele>
        <time>2016-03-03T15:09:05Z</time>
      </trkpt>
      <trkpt lat="43.7651" lon="5.13787">
        <ele>132</ele>
        <time>2016-03-03T15:09:13Z</time>
      </trkpt>
      <trkpt lat="43.76511" lon="5.13791">
        <ele>133</ele>
        <time>2016-03-03T15:09:24Z</time>
      </trkpt>
      <trkpt lat="43.76503" lon="5.13809">
        <ele>134</ele>
        <time>2016-03-03T15:09:37Z</time>
      </trkpt>
      <trkpt lat="43.765" lon="5.13814">
        <ele>135</ele>
        <time>2016-03-03T15:09:41Z</time>
      </trkpt>
      <trkpt lat="43.76497" lon="5.13822">
        <ele>135</ele>
        <time>2016-03-03T15:09:47Z</time>
      </trkpt>
      <trkpt lat="43.76495" lon="5.13824">
        <ele>135</ele>
        <time>2016-03-03T15:09:49Z</time>
      </trkpt>
      <trkpt lat="43.76484" lon="5.13843">
        <ele>135</ele>
        <time>2016-03-03T15:10:04Z</time>
      </trkpt>
      <trkpt lat="43.76482" lon="5.1385">
        <ele>135</ele>
        <time>2016-03-03T15:10:09Z</time>
      </trkpt>
      <trkpt lat="43.76482" lon="5.13852">
        <ele>136</ele>
        <time>2016-03-03T15:10:11Z</time>
      </trkpt>
      <trkpt lat="43.76479" lon="5.13857">
        <ele>136</ele>
        <time>2016-03-03T15:10:16Z</time>
      </trkpt>
      <trkpt lat="43.76476" lon="5.13865">
        <ele>136</ele>
        <time>2016-03-03T15:10:21Z</time>
      </trkpt>
      <trkpt lat="43.76472" lon="5.13875">
        <ele>137</ele>
        <time>2016-03-03T15:10:29Z</time>
      </trkpt>
      <trkpt lat="43.76468" lon="5.13894">
        <ele>137</ele>
        <time>2016-03-03T15:10:43Z</time>
      </trkpt>
      <trkpt lat="43.76466" lon="5.13906">
        <ele>138</ele>
        <time>2016-03-03T15:10:52Z</time>
      </trkpt>
      <trkpt lat="43.76463" lon="5.13924">
        <ele>139</ele>
        <time>2016-03-03T15:11:05Z</time>
      </trkpt>
      <trkpt lat="43.76463" lon="5.13925">
        <ele>139</ele>
        <time>2016-03-03T15:11:06Z</time>
      </trkpt>
      <trkpt lat="43.76465" lon="5.13945">
        <ele>140</ele>
        <time>2016-03-03T15:11:20Z</time>
      </trkpt>
      <trkpt lat="43.76467" lon="5.13965">
        <ele>139</ele>
        <time>2016-03-03T15:11:34Z</time>
      </trkpt>
      <trkpt lat="43.76468" lon="5.13969">
        <ele>139</ele>
        <time>2016-03-03T15:11:37Z</time>
      </trkpt>
      <trkpt lat="43.76471" lon="5.13985">
        <ele>138</ele>
        <time>2016-03-03T15:11:46Z</time>
      </trkpt>
      <trkpt lat="43.7647" lon="5.13993">
        <ele>138</ele>
        <time>2016-03-03T15:11:51Z</time>
      </trkpt>
      <trkpt lat="43.76459" lon="5.1401">
        <ele>139</ele>
        <time>2016-03-03T15:12:05Z</time>
      </trkpt>
      <trkpt lat="43.76458" lon="5.14013">
        <ele>139</ele>
        <time>2016-03-03T15:12:07Z</time>
      </trkpt>
      <trkpt lat="43.76457" lon="5.14019">
        <ele>139</ele>
        <time>2016-03-03T15:12:12Z</time>
      </trkpt>
      <trkpt lat="43.76453" lon="5.14033">
        <ele>139</ele>
        <time>2016-03-03T15:12:25Z</time>
      </trkpt>
      <trkpt lat="43.76445" lon="5.14054">
        <ele>138</ele>
        <time>2016-03-03T15:12:41Z</time>
      </trkpt>
      <trkpt lat="43.76439" lon="5.14072">
        <ele>137</ele>
        <time>2016-03-03T15:12:52Z</time>
      </trkpt>
      <trkpt lat="43.76439" lon="5.14078">
        <ele>136</ele>
        <time>2016-03-03T15:12:56Z</time>
      </trkpt>
      <trkpt lat="43.76444" lon="5.14103">
        <ele>136</ele>
        <time>2016-03-03T15:13:11Z</time>
      </trkpt>
      <trkpt lat="43.76442" lon="5.14119">
        <ele>134</ele>
        <time>2016-03-03T15:13:25Z</time>
      </trkpt>
      <trkpt lat="43.76447" lon="5.14132">
        <ele>132</ele>
        <time>2016-03-03T15:13:38Z</time>
      </trkpt>
      <trkpt lat="43.76445" lon="5.14147">
        <ele>135</ele>
        <time>2016-03-03T15:13:54Z</time>
      </trkpt>
      <trkpt lat="43.76447" lon="5.14163">
        <ele>136</ele>
        <time>2016-03-03T15:14:07Z</time>
      </trkpt>
      <trkpt lat="43.76452" lon="5.14175">
        <ele>137</ele>
        <time>2016-03-03T15:14:21Z</time>
      </trkpt>
      <trkpt lat="43.76458" lon="5.14193">
        <ele>138</ele>
        <time>2016-03-03T15:14:35Z</time>
      </trkpt>
      <trkpt lat="43.76458" lon="5.14196">
        <ele>138</ele>
        <time>2016-03-03T15:14:36Z</time>
      </trkpt>
      <trkpt lat="43.76457" lon="5.14204">
        <ele>139</ele>
        <time>2016-03-03T15:14:40Z</time>
      </trkpt>
      <trkpt lat="43.76463" lon="5.14223">
        <ele>139</ele>
        <time>2016-03-03T15:14:54Z</time>
      </trkpt>
      <trkpt lat="43.76469" lon="5.14237">
        <ele>139</ele>
        <time>2016-03-03T15:15:05Z</time>
      </trkpt>
      <trkpt lat="43.76473" lon="5.1424">
        <ele>139</ele>
        <time>2016-03-03T15:15:09Z</time>
      </trkpt>
      <trkpt lat="43.76489" lon="5.14251">
        <ele>140</ele>
        <time>2016-03-03T15:15:26Z</time>
      </trkpt>
      <trkpt lat="43.76501" lon="5.14258">
        <ele>142</ele>
        <time>2016-03-03T15:15:40Z</time>
      </trkpt>
      <trkpt lat="43.76504" lon="5.1426">
        <ele>143</ele>
        <time>2016-03-03T15:15:44Z</time>
      </trkpt>
      <trkpt lat="43.76517" lon="5.14273">
        <ele>144</ele>
        <time>2016-03-03T15:15:59Z</time>
      </trkpt>
      <trkpt lat="43.76525" lon="5.14285">
        <ele>144</ele>
        <time>2016-03-03T15:16:09Z</time>
      </trkpt>
      <trkpt lat="43.76542" lon="5.14296">
        <ele>144</ele>
        <time>2016-03-03T15:16:26Z</time>
      </trkpt>
      <trkpt lat="43.76551" lon="5.14309">
        <ele>144</ele>
        <time>2016-03-03T15:16:40Z</time>
      </trkpt>
      <trkpt lat="43.7656" lon="5.14326">
        <ele>144</ele>
        <time>2016-03-03T15:16:53Z</time>
      </trkpt>
      <trkpt lat="43.76566" lon="5.14332">
        <ele>145</ele>
        <time>2016-03-03T15:17:03Z</time>
      </trkpt>
      <trkpt lat="43.76569" lon="5.14336">
        <ele>145</ele>
        <time>2016-03-03T15:17:07Z</time>
      </trkpt>
      <trkpt lat="43.76575" lon="5.14344">
        <ele>146</ele>
        <time>2016-03-03T15:17:14Z</time>
      </trkpt>
      <trkpt lat="43.76581" lon="5.14368">
        <ele>145</ele>
        <time>2016-03-03T15:17:28Z</time>
      </trkpt>
      <trkpt lat="43.76578" lon="5.14382">
        <ele>145</ele>
        <time>2016-03-03T15:17:37Z</time>
      </trkpt>
      <trkpt lat="43.76572" lon="5.14398">
        <ele>147</ele>
        <time>2016-03-03T15:17:48Z</time>
      </trkpt>
      <trkpt lat="43.76572" lon="5.14405">
        <ele>148</ele>
        <time>2016-03-03T15:17:53Z</time>
      </trkpt>
      <trkpt lat="43.76573" lon="5.14415">
        <ele>148</ele>
        <time>2016-03-03T15:18:01Z</time>
      </trkpt>
      <trkpt lat="43.76572" lon="5.14435">
        <ele>148</ele>
        <time>2016-03-03T15:18:15Z</time>
      </trkpt>
      <trkpt lat="43.76573" lon="5.14458">
        <ele>149</ele>
        <time>2016-03-03T15:18:28Z</time>
      </trkpt>
      <trkpt lat="43.76573" lon="5.14472">
        <ele>152</ele>
        <time>2016-03-03T15:18:41Z</time>
      </trkpt>
      <trkpt lat="43.76573" lon="5.14488">
        <ele>153</ele>
        <time>2016-03-03T15:18:55Z</time>
      </trkpt>
      <trkpt lat="43.76575" lon="5.14505">
        <ele>153</ele>
        <time>2016-03-03T15:19:11Z</time>
      </trkpt>
      <trkpt lat="43.76579" lon="5.14519">
        <ele>155</ele>
        <time>2016-03-03T15:19:20Z</time>
      </trkpt>
      <trkpt lat="43.76579" lon="5.14521">
        <ele>156</ele>
        <time>2016-03-03T15:19:21Z</time>
      </trkpt>
      <trkpt lat="43.76575" lon="5.14536">
        <ele>156</ele>
        <time>2016-03-03T15:19:31Z</time>
      </trkpt>
      <trkpt lat="43.7657" lon="5.14544">
        <ele>157</ele>
        <time>2016-03-03T15:19:38Z</time>
      </trkpt>
      <trkpt lat="43.76558" lon="5.14555">
        <ele>159</ele>
        <time>2016-03-03T15:19:52Z</time>
      </trkpt>
      <trkpt lat="43.76553" lon="5.14558">
        <ele>161</ele>
        <time>2016-03-03T15:20:00Z</time>
      </trkpt>
      <trkpt lat="43.76549" lon="5.14557">
        <ele>161</ele>
        <time>2016-03-03T15:20:04Z</time>
      </trkpt>
      <trkpt lat="43.76536" lon="5.14561">
        <ele>163</ele>
        <time>2016-03-03T15:20:16Z</time>
      </trkpt>
      <trkpt lat="43.76525" lon="5.14563">
        <ele>164</ele>
        <time>2016-03-03T15:20:25Z</time>
      </trkpt>
      <trkpt lat="43.76517" lon="5.14572">
        <ele>165</ele>
        <time>2016-03-03T15:20:39Z</time>
      </trkpt>
      <trkpt lat="43.76514" lon="5.14572">
        <ele>165</ele>
        <time>2016-03-03T15:20:51Z</time>
      </trkpt>
      <trkpt lat="43.76508" lon="5.14572">
        <ele>165</ele>
        <time>2016-03-03T15:21:01Z</time>
      </trkpt>
      <trkpt lat="43.76508" lon="5.14576">
        <ele>166</ele>
        <time>2016-03-03T15:21:15Z</time>
      </trkpt>
      <trkpt lat="43.76506" lon="5.14578">
        <ele>166</ele>
        <time>2016-03-03T15:21:31Z</time>
      </trkpt>
      <trkpt lat="43.76506" lon="5.14579">
        <ele>165</ele>
        <time>2016-03-03T15:21:55Z</time>
      </trkpt>
      <trkpt lat="43.76506" lon="5.14579">
        <ele>165</ele>
        <time>2016-03-03T15:22:20Z</time>
      </trkpt>
      <trkpt lat="43.76506" lon="5.14578">
        <ele>165</ele>
        <time>2016-03-03T15:22:35Z</time>
      </trkpt>
      <trkpt lat="43.76487" lon="5.14598">
        <ele>167</ele>
        <time>2016-03-03T15:23:07Z</time>
      </trkpt>
      <trkpt lat="43.76486" lon="5.146">
        <ele>167</ele>
        <time>2016-03-03T15:23:08Z</time>
      </trkpt>
      <trkpt lat="43.76469" lon="5.14615">
        <ele>168</ele>
        <time>2016-03-03T15:23:27Z</time>
      </trkpt>
      <trkpt lat="43.76467" lon="5.14617">
        <ele>170</ele>
        <time>2016-03-03T15:23:29Z</time>
      </trkpt>
      <trkpt lat="43.76452" lon="5.14635">
        <ele>168</ele>
        <time>2016-03-03T15:23:47Z</time>
      </trkpt>
      <trkpt lat="43.76448" lon="5.14639">
        <ele>168</ele>
        <time>2016-03-03T15:23:53Z</time>
      </trkpt>
      <trkpt lat="43.76442" lon="5.14641">
        <ele>168</ele>
        <time>2016-03-03T15:23:59Z</time>
      </trkpt>
      <trkpt lat="43.76432" lon="5.14646">
        <ele>168</ele>
        <time>2016-03-03T15:24:09Z</time>
      </trkpt>
      <trkpt lat="43.76424" lon="5.14657">
        <ele>168</ele>
        <time>2016-03-03T15:24:24Z</time>
      </trkpt>
      <trkpt lat="43.76404" lon="5.14669">
        <ele>169</ele>
        <time>2016-03-03T15:24:43Z</time>
      </trkpt>
      <trkpt lat="43.76385" lon="5.14677">
        <ele>171</ele>
        <time>2016-03-03T15:25:00Z</time>
      </trkpt>
      <trkpt lat="43.76362" lon="5.14678">
        <ele>171</ele>
        <time>2016-03-03T15:25:20Z</time>
      </trkpt>
      <trkpt lat="43.76341" lon="5.14679">
        <ele>169</ele>
        <time>2016-03-03T15:25:38Z</time>
      </trkpt>
      <trkpt lat="43.76334" lon="5.14679">
        <ele>168</ele>
        <time>2016-03-03T15:25:44Z</time>
      </trkpt>
      <trkpt lat="43.76318" lon="5.14669">
        <ele>168</ele>
        <time>2016-03-03T15:25:59Z</time>
      </trkpt>
      <trkpt lat="43.76301" lon="5.14661">
        <ele>166</ele>
        <time>2016-03-03T15:26:15Z</time>
      </trkpt>
      <trkpt lat="43.76296" lon="5.1466">
        <ele>165</ele>
        <time>2016-03-03T15:26:20Z</time>
      </trkpt>
      <trkpt lat="43.76276" lon="5.14656">
        <ele>165</ele>
        <time>2016-03-03T15:26:36Z</time>
      </trkpt>
      <trkpt lat="43.76258" lon="5.14649">
        <ele>164</ele>
        <time>2016-03-03T15:26:51Z</time>
      </trkpt>
      <trkpt lat="43.76245" lon="5.14645">
        <ele>164</ele>
        <time>2016-03-03T15:27:02Z</time>
      </trkpt>
      <trkpt lat="43.7623" lon="5.14664">
        <ele>162</ele>
        <time>2016-03-03T15:27:21Z</time>
      </trkpt>
      <trkpt lat="43.76228" lon="5.14672">
        <ele>161</ele>
        <time>2016-03-03T15:27:26Z</time>
      </trkpt>
      <trkpt lat="43.76214" lon="5.14704">
        <ele>160</ele>
        <time>2016-03-03T15:27:47Z</time>
      </trkpt>
      <trkpt lat="43.76204" lon="5.14725">
        <ele>159</ele>
        <time>2016-03-03T15:28:02Z</time>
      </trkpt>
      <trkpt lat="43.7619" lon="5.14748">
        <ele>159</ele>
        <time>2016-03-03T15:28:20Z</time>
      </trkpt>
      <trkpt lat="43.76188" lon="5.14754">
        <ele>159</ele>
        <time>2016-03-03T15:28:24Z</time>
      </trkpt>
      <trkpt lat="43.76179" lon="5.14779">
        <ele>156</ele>
        <time>2016-03-03T15:28:42Z</time>
      </trkpt>
      <trkpt lat="43.76168" lon="5.14803">
        <ele>157</ele>
        <time>2016-03-03T15:28:59Z</time>
      </trkpt>
      <trkpt lat="43.76168" lon="5.14805">
        <ele>157</ele>
        <time>2016-03-03T15:29:00Z</time>
      </trkpt>
      <trkpt lat="43.76157" lon="5.14824">
        <ele>157</ele>
        <time>2016-03-03T15:29:16Z</time>
      </trkpt>
      <trkpt lat="43.7615" lon="5.14847">
        <ele>156</ele>
        <time>2016-03-03T15:29:33Z</time>
      </trkpt>
      <trkpt lat="43.76152" lon="5.14865">
        <ele>155</ele>
        <time>2016-03-03T15:29:45Z</time>
      </trkpt>
      <trkpt lat="43.76167" lon="5.14882">
        <ele>155</ele>
        <time>2016-03-03T15:30:04Z</time>
      </trkpt>
      <trkpt lat="43.76176" lon="5.14885">
        <ele>155</ele>
        <time>2016-03-03T15:30:11Z</time>
      </trkpt>
      <trkpt lat="43.76184" lon="5.14889">
        <ele>155</ele>
        <time>2016-03-03T15:30:19Z</time>
      </trkpt>
      <trkpt lat="43.76188" lon="5.14901">
        <ele>155</ele>
        <time>2016-03-03T15:30:28Z</time>
      </trkpt>
      <trkpt lat="43.76189" lon="5.14906">
        <ele>154</ele>
        <time>2016-03-03T15:30:31Z</time>
      </trkpt>
      <trkpt lat="43.7619" lon="5.14931">
        <ele>154</ele>
        <time>2016-03-03T15:30:47Z</time>
      </trkpt>
      <trkpt lat="43.76187" lon="5.14957">
        <ele>154</ele>
        <time>2016-03-03T15:31:04Z</time>
      </trkpt>
      <trkpt lat="43.76183" lon="5.14963">
        <ele>154</ele>
        <time>2016-03-03T15:31:09Z</time>
      </trkpt>
      <trkpt lat="43.76168" lon="5.14981">
        <ele>154</ele>
        <time>2016-03-03T15:31:26Z</time>
      </trkpt>
      <trkpt lat="43.76152" lon="5.15">
        <ele>154</ele>
        <time>2016-03-03T15:31:44Z</time>
      </trkpt>
      <trkpt lat="43.7614" lon="5.15017">
        <ele>152</ele>
        <time>2016-03-03T15:31:59Z</time>
      </trkpt>
      <trkpt lat="43.76127" lon="5.15033">
        <ele>150</ele>
        <time>2016-03-03T15:32:15Z</time>
      </trkpt>
      <trkpt lat="43.76117" lon="5.1505">
        <ele>149</ele>
        <time>2016-03-03T15:32:28Z</time>
      </trkpt>
      <trkpt lat="43.76101" lon="5.15091">
        <ele>146</ele>
        <time>2016-03-03T15:32:53Z</time>
      </trkpt>
      <trkpt lat="43.76093" lon="5.15107">
        <ele>143</ele>
        <time>2016-03-03T15:33:08Z</time>
      </trkpt>
      <trkpt lat="43.76092" lon="5.1511">
        <ele>144</ele>
        <time>2016-03-03T15:33:16Z</time>
      </trkpt>
      <trkpt lat="43.76086" lon="5.15125">
        <ele>142</ele>
        <time>2016-03-03T15:33:33Z</time>
      </trkpt>
      <trkpt lat="43.7608" lon="5.1514">
        <ele>142</ele>
        <time>2016-03-03T15:33:48Z</time>
      </trkpt>
      <trkpt lat="43.76074" lon="5.15169">
        <ele>140</ele>
        <time>2016-03-03T15:34:06Z</time>
      </trkpt>
      <trkpt lat="43.76075" lon="5.15181">
        <ele>140</ele>
        <time>2016-03-03T15:34:13Z</time>
      </trkpt>
      <trkpt lat="43.76078" lon="5.15212">
        <ele>138</ele>
        <time>2016-03-03T15:34:30Z</time>
      </trkpt>
      <trkpt lat="43.76077" lon="5.15216">
        <ele>137</ele>
        <time>2016-03-03T15:34:33Z</time>
      </trkpt>
      <trkpt lat="43.76076" lon="5.15222">
        <ele>136</ele>
        <time>2016-03-03T15:34:37Z</time>
      </trkpt>
      <trkpt lat="43.7607" lon="5.15246">
        <ele>136</ele>
        <time>2016-03-03T15:34:53Z</time>
      </trkpt>
      <trkpt lat="43.76064" lon="5.15272">
        <ele>135</ele>
        <time>2016-03-03T15:35:09Z</time>
      </trkpt>
      <trkpt lat="43.76059" lon="5.15293">
        <ele>133</ele>
        <time>2016-03-03T15:35:26Z</time>
      </trkpt>
      <trkpt lat="43.76056" lon="5.15308">
        <ele>134</ele>
        <time>2016-03-03T15:35:42Z</time>
      </trkpt>
      <trkpt lat="43.7605" lon="5.15326">
        <ele>132</ele>
        <time>2016-03-03T15:35:59Z</time>
      </trkpt>
      <trkpt lat="43.76039" lon="5.15349">
        <ele>133</ele>
        <time>2016-03-03T15:36:18Z</time>
      </trkpt>
      <trkpt lat="43.7603" lon="5.15369">
        <ele>131</ele>
        <time>2016-03-03T15:36:35Z</time>
      </trkpt>
      <trkpt lat="43.76029" lon="5.15369">
        <ele>131</ele>
        <time>2016-03-03T15:36:45Z</time>
      </trkpt>
      <trkpt lat="43.76027" lon="5.15372">
        <ele>132</ele>
        <time>2016-03-03T15:36:48Z</time>
      </trkpt>
      <trkpt lat="43.76014" lon="5.15389">
        <ele>132</ele>
        <time>2016-03-03T15:37:03Z</time>
      </trkpt>
      <trkpt lat="43.76004" lon="5.15407">
        <ele>131</ele>
        <time>2016-03-03T15:37:16Z</time>
      </trkpt>
      <trkpt lat="43.75989" lon="5.15428">
        <ele>130</ele>
        <time>2016-03-03T15:37:34Z</time>
      </trkpt>
      <trkpt lat="43.7598" lon="5.15444">
        <ele>130</ele>
        <time>2016-03-03T15:37:47Z</time>
      </trkpt>
      <trkpt lat="43.75975" lon="5.1545">
        <ele>129</ele>
        <time>2016-03-03T15:37:52Z</time>
      </trkpt>
      <trkpt lat="43.75966" lon="5.15472">
        <ele>129</ele>
        <time>2016-03-03T15:38:06Z</time>
      </trkpt>
      <trkpt lat="43.7596" lon="5.15495">
        <ele>128</ele>
        <time>2016-03-03T15:38:21Z</time>
      </trkpt>
      <trkpt lat="43.75958" lon="5.155">
        <ele>128</ele>
        <time>2016-03-03T15:38:25Z</time>
      </trkpt>
      <trkpt lat="43.75955" lon="5.15509">
        <ele>127</ele>
        <time>2016-03-03T15:38:30Z</time>
      </trkpt>
      <trkpt lat="43.75949" lon="5.15532">
        <ele>125</ele>
        <time>2016-03-03T15:38:44Z</time>
      </trkpt>
      <trkpt lat="43.75946" lon="5.15556">
        <ele>124</ele>
        <time>2016-03-03T15:38:59Z</time>
      </trkpt>
      <trkpt lat="43.7594" lon="5.15584">
        <ele>122</ele>
        <time>2016-03-03T15:39:15Z</time>
      </trkpt>
      <trkpt lat="43.75935" lon="5.15611">
        <ele>119</ele>
        <time>2016-03-03T15:39:32Z</time>
      </trkpt>
      <trkpt lat="43.75932" lon="5.15637">
        <ele>117</ele>
        <time>2016-03-03T15:39:45Z</time>
      </trkpt>
      <trkpt lat="43.75943" lon="5.15663">
        <ele>117</ele>
        <time>2016-03-03T15:40:04Z</time>
      </trkpt>
      <trkpt lat="43.75954" lon="5.15683">
        <ele>116</ele>
        <time>2016-03-03T15:40:19Z</time>
      </trkpt>
      <trkpt lat="43.75961" lon="5.15688">
        <ele>117</ele>
        <time>2016-03-03T15:40:26Z</time>
      </trkpt>
      <trkpt lat="43.75972" lon="5.15701">
        <ele>117</ele>
        <time>2016-03-03T15:40:38Z</time>
      </trkpt>
      <trkpt lat="43.75993" lon="5.15724">
        <ele>117</ele>
        <time>2016-03-03T15:40:57Z</time>
      </trkpt>
      <trkpt lat="43.76007" lon="5.15736">
        <ele>118</ele>
        <time>2016-03-03T15:41:10Z</time>
      </trkpt>
      <trkpt lat="43.76021" lon="5.15752">
        <ele>119</ele>
        <time>2016-03-03T15:41:24Z</time>
      </trkpt>
      <trkpt lat="43.76021" lon="5.15753">
        <ele>118</ele>
        <time>2016-03-03T15:41:43Z</time>
      </trkpt>
      <trkpt lat="43.76022" lon="5.15752">
        <ele>119</ele>
        <time>2016-03-03T15:42:14Z</time>
      </trkpt>
    </trkseg>
  </trk>
</gpx>